<?xml version='1.0' encoding='UTF-8'?><gpx version="1.1" creator="JPX - https://github.com/jenetics/jpx" xmlns="http://www.topografix.com/GPX/1/1"><trk><trkseg><trkpt lat="43.6151287" lon="10.6259239"><ele>24.0</ele><time>2026-04-27T11:14:16.336Z</time></trkpt><trkpt lat="43.615081" lon="10.6260048"><ele>24.0</ele><time>2026-04-27T11:14:18.349Z</time></trkpt><trkpt lat="43.6150407" lon="10.6261104"><ele>24.0</ele><time>2026-04-27T11:14:20.34Z</time></trkpt><trkpt lat="43.6149923" lon="10.6262183"><ele>24.0</ele><time>2026-04-27T11:14:22.348Z</time></trkpt><trkpt lat="43.6149517" lon="10.6263266"><ele>24.0</ele><time>2026-04-27T11:14:24.342Z</time></trkpt><trkpt lat="43.6149057" lon="10.6264332"><ele>24.0</ele><time>2026-04-27T11:14:26.336Z</time></trkpt><trkpt lat="43.6148613" lon="10.6265468"><ele>23.799999999999997</ele><time>2026-04-27T11:14:28.341Z</time></trkpt><trkpt lat="43.614811" lon="10.6266595"><ele>23.599999999999998</ele><time>2026-04-27T11:14:30.321Z</time></trkpt><trkpt lat="43.6147596" lon="10.6267783"><ele>23.4</ele><time>2026-04-27T11:14:32.318Z</time></trkpt><trkpt lat="43.6147076" lon="10.6268985"><ele>23.2</ele><time>2026-04-27T11:14:34.328Z</time></trkpt><trkpt lat="43.6146536" lon="10.6270189"><ele>23.0</ele><time>2026-04-27T11:14:36.317Z</time></trkpt><trkpt lat="43.6146066" lon="10.6271396"><ele>23.0</ele><time>2026-04-27T11:14:38.325Z</time></trkpt><trkpt lat="43.6145566" lon="10.6272667"><ele>23.0</ele><time>2026-04-27T11:14:40.316Z</time></trkpt><trkpt lat="43.6145029" lon="10.6273974"><ele>23.0</ele><time>2026-04-27T11:14:42.317Z</time></trkpt><trkpt lat="43.6144505" lon="10.6275321"><ele>23.0</ele><time>2026-04-27T11:14:44.313Z</time></trkpt><trkpt lat="43.6143981" lon="10.6276644"><ele>23.0</ele><time>2026-04-27T11:14:46.322Z</time></trkpt><trkpt lat="43.614345" lon="10.627798"><ele>23.5</ele><time>2026-04-27T11:14:48.325Z</time></trkpt><trkpt lat="43.614294" lon="10.6279377"><ele>24.0</ele><time>2026-04-27T11:14:50.33Z</time></trkpt><trkpt lat="43.6142416" lon="10.6280815"><ele>24.5</ele><time>2026-04-27T11:14:52.331Z</time></trkpt><trkpt lat="43.6141873" lon="10.6282204"><ele>25.0</ele><time>2026-04-27T11:14:54.327Z</time></trkpt><trkpt lat="43.6141361" lon="10.6283665"><ele>25.0</ele><time>2026-04-27T11:14:56.335Z</time></trkpt><trkpt lat="43.614083" lon="10.6285103"><ele>25.0</ele><time>2026-04-27T11:14:58.332Z</time></trkpt><trkpt lat="43.6140338" lon="10.6286499"><ele>25.0</ele><time>2026-04-27T11:15:00.327Z</time></trkpt><trkpt lat="43.6139864" lon="10.6287941"><ele>25.0</ele><time>2026-04-27T11:15:02.319Z</time></trkpt><trkpt lat="43.613936" lon="10.6289325"><ele>24.8</ele><time>2026-04-27T11:15:04.318Z</time></trkpt><trkpt lat="43.6138837" lon="10.6290824"><ele>24.6</ele><time>2026-04-27T11:15:06.318Z</time></trkpt><trkpt lat="43.6138274" lon="10.6292337"><ele>24.4</ele><time>2026-04-27T11:15:08.333Z</time></trkpt><trkpt lat="43.6137735" lon="10.6293871"><ele>24.2</ele><time>2026-04-27T11:15:10.333Z</time></trkpt><trkpt lat="43.6137474" lon="10.6294672"><ele>24.0</ele><time>2026-04-27T11:15:11.331Z</time></trkpt><trkpt lat="43.6136892" lon="10.6296175"><ele>24.166666666666668</ele><time>2026-04-27T11:15:13.32Z</time></trkpt><trkpt lat="43.6136406" lon="10.6297716"><ele>24.333333333333336</ele><time>2026-04-27T11:15:15.333Z</time></trkpt><trkpt lat="43.613582" lon="10.6299192"><ele>24.5</ele><time>2026-04-27T11:15:17.328Z</time></trkpt><trkpt lat="43.6135542" lon="10.6299974"><ele>24.666666666666668</ele><time>2026-04-27T11:15:18.332Z</time></trkpt><trkpt lat="43.6135271" lon="10.6300767"><ele>24.833333333333336</ele><time>2026-04-27T11:15:19.325Z</time></trkpt><trkpt lat="43.6134932" lon="10.6301512"><ele>25.0</ele><time>2026-04-27T11:15:20.331Z</time></trkpt><trkpt lat="43.6134626" lon="10.6302292"><ele>24.833333333333336</ele><time>2026-04-27T11:15:21.318Z</time></trkpt><trkpt lat="43.6134123" lon="10.6303876"><ele>24.666666666666668</ele><time>2026-04-27T11:15:23.322Z</time></trkpt><trkpt lat="43.6133723" lon="10.6305487"><ele>24.5</ele><time>2026-04-27T11:15:25.344Z</time></trkpt><trkpt lat="43.6133559" lon="10.6306341"><ele>24.333333333333336</ele><time>2026-04-27T11:15:26.328Z</time></trkpt><trkpt lat="43.6133376" lon="10.6307192"><ele>24.166666666666668</ele><time>2026-04-27T11:15:27.331Z</time></trkpt><trkpt lat="43.6133145" lon="10.6308016"><ele>24.0</ele><time>2026-04-27T11:15:28.326Z</time></trkpt><trkpt lat="43.6132892" lon="10.6308857"><ele>24.0</ele><time>2026-04-27T11:15:29.325Z</time></trkpt><trkpt lat="43.6132716" lon="10.6309714"><ele>24.0</ele><time>2026-04-27T11:15:30.322Z</time></trkpt><trkpt lat="43.6132512" lon="10.6310557"><ele>24.0</ele><time>2026-04-27T11:15:31.322Z</time></trkpt><trkpt lat="43.6132329" lon="10.6311415"><ele>24.0</ele><time>2026-04-27T11:15:32.326Z</time></trkpt><trkpt lat="43.6132119" lon="10.6312288"><ele>24.0</ele><time>2026-04-27T11:15:33.328Z</time></trkpt><trkpt lat="43.6131748" lon="10.6313923"><ele>24.0</ele><time>2026-04-27T11:15:35.338Z</time></trkpt><trkpt lat="43.6131467" lon="10.6315566"><ele>24.2</ele><time>2026-04-27T11:15:37.329Z</time></trkpt><trkpt lat="43.6131285" lon="10.6316414"><ele>24.4</ele><time>2026-04-27T11:15:38.343Z</time></trkpt><trkpt lat="43.6131072" lon="10.631724"><ele>24.6</ele><time>2026-04-27T11:15:39.33Z</time></trkpt><trkpt lat="43.6130625" lon="10.6318884"><ele>24.8</ele><time>2026-04-27T11:15:41.334Z</time></trkpt><trkpt lat="43.6130321" lon="10.6320522"><ele>25.0</ele><time>2026-04-27T11:15:43.315Z</time></trkpt><trkpt lat="43.6129942" lon="10.63222"><ele>25.0</ele><time>2026-04-27T11:15:45.333Z</time></trkpt><trkpt lat="43.6129704" lon="10.632303"><ele>25.0</ele><time>2026-04-27T11:15:46.317Z</time></trkpt><trkpt lat="43.6129318" lon="10.6324597"><ele>25.0</ele><time>2026-04-27T11:15:48.327Z</time></trkpt><trkpt lat="43.6128961" lon="10.6325981"><ele>25.0</ele><time>2026-04-27T11:15:50.321Z</time></trkpt><trkpt lat="43.6128854" lon="10.6326973"><ele>25.0</ele><time>2026-04-27T11:15:54.333Z</time></trkpt><trkpt lat="43.6129583" lon="10.6327627"><ele>25.0</ele><time>2026-04-27T11:15:57.341Z</time></trkpt><trkpt lat="43.6130458" lon="10.6327774"><ele>25.0</ele><time>2026-04-27T11:15:59.332Z</time></trkpt><trkpt lat="43.6131453" lon="10.6327919"><ele>25.0</ele><time>2026-04-27T11:16:01.327Z</time></trkpt><trkpt lat="43.6132411" lon="10.6328166"><ele>25.0</ele><time>2026-04-27T11:16:03.317Z</time></trkpt><trkpt lat="43.6133481" lon="10.6328452"><ele>25.0</ele><time>2026-04-27T11:16:05.328Z</time></trkpt><trkpt lat="43.6134605" lon="10.6328636"><ele>24.75</ele><time>2026-04-27T11:16:07.326Z</time></trkpt><trkpt lat="43.613579" lon="10.6328778"><ele>24.5</ele><time>2026-04-27T11:16:09.327Z</time></trkpt><trkpt lat="43.6137035" lon="10.6328888"><ele>24.25</ele><time>2026-04-27T11:16:11.33Z</time></trkpt><trkpt lat="43.6138253" lon="10.6328977"><ele>24.0</ele><time>2026-04-27T11:16:13.331Z</time></trkpt><trkpt lat="43.6139484" lon="10.6329042"><ele>24.0</ele><time>2026-04-27T11:16:15.33Z</time></trkpt><trkpt lat="43.6140689" lon="10.632905"><ele>24.0</ele><time>2026-04-27T11:16:17.325Z</time></trkpt><trkpt lat="43.614186" lon="10.6329035"><ele>24.0</ele><time>2026-04-27T11:16:19.321Z</time></trkpt><trkpt lat="43.6143061" lon="10.6328904"><ele>24.0</ele><time>2026-04-27T11:16:21.321Z</time></trkpt><trkpt lat="43.6144298" lon="10.6328905"><ele>23.799999999999997</ele><time>2026-04-27T11:16:23.323Z</time></trkpt><trkpt lat="43.6144936" lon="10.6328874"><ele>23.599999999999998</ele><time>2026-04-27T11:16:24.321Z</time></trkpt><trkpt lat="43.6146123" lon="10.6328805"><ele>23.4</ele><time>2026-04-27T11:16:26.316Z</time></trkpt><trkpt lat="43.6147309" lon="10.6328823"><ele>23.2</ele><time>2026-04-27T11:16:28.321Z</time></trkpt><trkpt lat="43.6148533" lon="10.632882"><ele>23.0</ele><time>2026-04-27T11:16:30.321Z</time></trkpt><trkpt lat="43.6149761" lon="10.6328947"><ele>23.0</ele><time>2026-04-27T11:16:32.319Z</time></trkpt><trkpt lat="43.6151001" lon="10.6329138"><ele>23.0</ele><time>2026-04-27T11:16:34.327Z</time></trkpt><trkpt lat="43.6151637" lon="10.6329207"><ele>23.0</ele><time>2026-04-27T11:16:35.325Z</time></trkpt><trkpt lat="43.6152287" lon="10.6329294"><ele>23.0</ele><time>2026-04-27T11:16:36.32Z</time></trkpt><trkpt lat="43.6153518" lon="10.6329469"><ele>23.0</ele><time>2026-04-27T11:16:38.324Z</time></trkpt><trkpt lat="43.6154155" lon="10.6329532"><ele>23.0</ele><time>2026-04-27T11:16:39.319Z</time></trkpt><trkpt lat="43.6154798" lon="10.6329644"><ele>23.0</ele><time>2026-04-27T11:16:40.318Z</time></trkpt><trkpt lat="43.6156074" lon="10.6329878"><ele>23.0</ele><time>2026-04-27T11:16:42.327Z</time></trkpt><trkpt lat="43.6156743" lon="10.6329936"><ele>23.0</ele><time>2026-04-27T11:16:43.323Z</time></trkpt><trkpt lat="43.6157405" lon="10.6329996"><ele>23.0</ele><time>2026-04-27T11:16:44.315Z</time></trkpt><trkpt lat="43.6158069" lon="10.6330045"><ele>23.0</ele><time>2026-04-27T11:16:45.323Z</time></trkpt><trkpt lat="43.6158747" lon="10.6330097"><ele>23.0</ele><time>2026-04-27T11:16:46.322Z</time></trkpt><trkpt lat="43.615941" lon="10.6330169"><ele>23.0</ele><time>2026-04-27T11:16:47.322Z</time></trkpt><trkpt lat="43.6160062" lon="10.6330232"><ele>23.0</ele><time>2026-04-27T11:16:48.323Z</time></trkpt><trkpt lat="43.6160699" lon="10.6330387"><ele>23.0</ele><time>2026-04-27T11:16:49.322Z</time></trkpt><trkpt lat="43.6161913" lon="10.6330831"><ele>23.0</ele><time>2026-04-27T11:16:51.321Z</time></trkpt><trkpt lat="43.616311" lon="10.6331347"><ele>23.0</ele><time>2026-04-27T11:16:53.318Z</time></trkpt><trkpt lat="43.6163726" lon="10.6331589"><ele>23.0</ele><time>2026-04-27T11:16:54.32Z</time></trkpt><trkpt lat="43.6164372" lon="10.6331822"><ele>23.142857142857142</ele><time>2026-04-27T11:16:55.323Z</time></trkpt><trkpt lat="43.6165026" lon="10.6332059"><ele>23.285714285714285</ele><time>2026-04-27T11:16:56.32Z</time></trkpt><trkpt lat="43.6165679" lon="10.6332344"><ele>23.428571428571427</ele><time>2026-04-27T11:16:57.324Z</time></trkpt><trkpt lat="43.6166346" lon="10.6332577"><ele>23.57142857142857</ele><time>2026-04-27T11:16:58.322Z</time></trkpt><trkpt lat="43.6167007" lon="10.6332863"><ele>23.714285714285715</ele><time>2026-04-27T11:16:59.32Z</time></trkpt><trkpt lat="43.6167658" lon="10.633311"><ele>23.857142857142854</ele><time>2026-04-27T11:17:00.316Z</time></trkpt><trkpt lat="43.6168336" lon="10.6333364"><ele>24.0</ele><time>2026-04-27T11:17:01.316Z</time></trkpt><trkpt lat="43.6169002" lon="10.6333576"><ele>23.999999999999996</ele><time>2026-04-27T11:17:02.318Z</time></trkpt><trkpt lat="43.6169649" lon="10.6333776"><ele>24.0</ele><time>2026-04-27T11:17:03.317Z</time></trkpt><trkpt lat="43.6170281" lon="10.6333928"><ele>24.0</ele><time>2026-04-27T11:17:04.318Z</time></trkpt><trkpt lat="43.6171544" lon="10.6334098"><ele>24.0</ele><time>2026-04-27T11:17:06.317Z</time></trkpt><trkpt lat="43.6172175" lon="10.6334149"><ele>24.0</ele><time>2026-04-27T11:17:07.308Z</time></trkpt><trkpt lat="43.6172816" lon="10.6334159"><ele>23.999999999999996</ele><time>2026-04-27T11:17:08.317Z</time></trkpt><trkpt lat="43.6173447" lon="10.6334117"><ele>24.0</ele><time>2026-04-27T11:17:09.315Z</time></trkpt><trkpt lat="43.6174679" lon="10.633407"><ele>24.0</ele><time>2026-04-27T11:17:11.315Z</time></trkpt><trkpt lat="43.61759" lon="10.6334032"><ele>24.0</ele><time>2026-04-27T11:17:13.318Z</time></trkpt><trkpt lat="43.6176541" lon="10.6333973"><ele>24.0</ele><time>2026-04-27T11:17:14.314Z</time></trkpt><trkpt lat="43.6177203" lon="10.6333925"><ele>24.0</ele><time>2026-04-27T11:17:15.315Z</time></trkpt><trkpt lat="43.6177882" lon="10.6333869"><ele>24.0</ele><time>2026-04-27T11:17:16.314Z</time></trkpt><trkpt lat="43.617852" lon="10.6333824"><ele>24.0</ele><time>2026-04-27T11:17:17.322Z</time></trkpt><trkpt lat="43.6179754" lon="10.6333729"><ele>23.6</ele><time>2026-04-27T11:17:19.312Z</time></trkpt><trkpt lat="43.6180973" lon="10.633376"><ele>23.2</ele><time>2026-04-27T11:17:21.31Z</time></trkpt><trkpt lat="43.6181605" lon="10.6333765"><ele>22.8</ele><time>2026-04-27T11:17:22.315Z</time></trkpt><trkpt lat="43.6182271" lon="10.6333699"><ele>22.400000000000002</ele><time>2026-04-27T11:17:23.318Z</time></trkpt><trkpt lat="43.6183484" lon="10.6333497"><ele>22.0</ele><time>2026-04-27T11:17:25.315Z</time></trkpt><trkpt lat="43.618475" lon="10.6333485"><ele>22.0</ele><time>2026-04-27T11:17:27.31Z</time></trkpt><trkpt lat="43.6185389" lon="10.6333483"><ele>22.0</ele><time>2026-04-27T11:17:28.313Z</time></trkpt><trkpt lat="43.6186582" lon="10.6333442"><ele>22.0</ele><time>2026-04-27T11:17:30.321Z</time></trkpt><trkpt lat="43.6187841" lon="10.6333432"><ele>22.0</ele><time>2026-04-27T11:17:32.311Z</time></trkpt><trkpt lat="43.6188514" lon="10.6333389"><ele>22.0</ele><time>2026-04-27T11:17:33.308Z</time></trkpt><trkpt lat="43.6189167" lon="10.633337"><ele>22.0</ele><time>2026-04-27T11:17:34.318Z</time></trkpt><trkpt lat="43.6189813" lon="10.6333391"><ele>22.200000000000003</ele><time>2026-04-27T11:17:35.313Z</time></trkpt><trkpt lat="43.6191027" lon="10.6333281"><ele>22.4</ele><time>2026-04-27T11:17:37.313Z</time></trkpt><trkpt lat="43.6192115" lon="10.6332948"><ele>22.6</ele><time>2026-04-27T11:17:39.334Z</time></trkpt><trkpt lat="43.6193076" lon="10.6332344"><ele>22.799999999999997</ele><time>2026-04-27T11:17:41.32Z</time></trkpt><trkpt lat="43.6194069" lon="10.6332082"><ele>23.0</ele><time>2026-04-27T11:17:43.305Z</time></trkpt><trkpt lat="43.6195056" lon="10.633217"><ele>23.5</ele><time>2026-04-27T11:17:45.305Z</time></trkpt><trkpt lat="43.619587" lon="10.633249"><ele>24.0</ele><time>2026-04-27T11:17:47.31Z</time></trkpt><trkpt lat="43.6196554" lon="10.633283"><ele>24.5</ele><time>2026-04-27T11:17:49.315Z</time></trkpt><trkpt lat="43.6197137" lon="10.6333251"><ele>25.0</ele><time>2026-04-27T11:17:51.314Z</time></trkpt><trkpt lat="43.6197756" lon="10.6333623"><ele>25.499999999999996</ele><time>2026-04-27T11:17:53.315Z</time></trkpt><trkpt lat="43.6198349" lon="10.6334054"><ele>26.0</ele><time>2026-04-27T11:17:59.318Z</time></trkpt><trkpt lat="43.619928" lon="10.6334234"><ele>26.0</ele><time>2026-04-27T11:18:02.314Z</time></trkpt><trkpt lat="43.6200249" lon="10.6334147"><ele>26.0</ele><time>2026-04-27T11:18:04.307Z</time></trkpt><trkpt lat="43.620117" lon="10.6334064"><ele>26.0</ele><time>2026-04-27T11:18:06.31Z</time></trkpt><trkpt lat="43.6202247" lon="10.6334462"><ele>26.0</ele><time>2026-04-27T11:18:08.325Z</time></trkpt><trkpt lat="43.6203432" lon="10.633497"><ele>26.0</ele><time>2026-04-27T11:18:10.307Z</time></trkpt><trkpt lat="43.6204026" lon="10.6335292"><ele>25.833333333333332</ele><time>2026-04-27T11:18:11.315Z</time></trkpt><trkpt lat="43.620522" lon="10.6335952"><ele>25.666666666666664</ele><time>2026-04-27T11:18:13.302Z</time></trkpt><trkpt lat="43.6205868" lon="10.6336198"><ele>25.5</ele><time>2026-04-27T11:18:14.311Z</time></trkpt><trkpt lat="43.6206567" lon="10.6336465"><ele>25.333333333333336</ele><time>2026-04-27T11:18:15.324Z</time></trkpt><trkpt lat="43.6207276" lon="10.6336779"><ele>25.166666666666668</ele><time>2026-04-27T11:18:16.314Z</time></trkpt><trkpt lat="43.6207959" lon="10.6337089"><ele>25.0</ele><time>2026-04-27T11:18:17.319Z</time></trkpt><trkpt lat="43.6208687" lon="10.6337439"><ele>24.857142857142858</ele><time>2026-04-27T11:18:18.314Z</time></trkpt><trkpt lat="43.6209379" lon="10.6337719"><ele>24.714285714285715</ele><time>2026-04-27T11:18:19.314Z</time></trkpt><trkpt lat="43.6210012" lon="10.6338055"><ele>24.57142857142857</ele><time>2026-04-27T11:18:20.308Z</time></trkpt><trkpt lat="43.6210617" lon="10.6338427"><ele>24.42857142857143</ele><time>2026-04-27T11:18:21.316Z</time></trkpt><trkpt lat="43.6211235" lon="10.633871"><ele>24.285714285714285</ele><time>2026-04-27T11:18:22.317Z</time></trkpt><trkpt lat="43.6211893" lon="10.6339012"><ele>24.142857142857142</ele><time>2026-04-27T11:18:23.329Z</time></trkpt><trkpt lat="43.6212543" lon="10.6339259"><ele>24.0</ele><time>2026-04-27T11:18:24.316Z</time></trkpt><trkpt lat="43.6213177" lon="10.6339402"><ele>24.0</ele><time>2026-04-27T11:18:25.313Z</time></trkpt><trkpt lat="43.6214407" lon="10.6339597"><ele>24.0</ele><time>2026-04-27T11:18:27.322Z</time></trkpt><trkpt lat="43.6215026" lon="10.6339756"><ele>24.0</ele><time>2026-04-27T11:18:28.315Z</time></trkpt><trkpt lat="43.6215657" lon="10.633988"><ele>24.0</ele><time>2026-04-27T11:18:29.318Z</time></trkpt><trkpt lat="43.6216302" lon="10.6340005"><ele>24.0</ele><time>2026-04-27T11:18:30.317Z</time></trkpt><trkpt lat="43.6216946" lon="10.6340051"><ele>24.0</ele><time>2026-04-27T11:18:31.317Z</time></trkpt><trkpt lat="43.6218135" lon="10.6340041"><ele>24.0</ele><time>2026-04-27T11:18:33.313Z</time></trkpt><trkpt lat="43.6219353" lon="10.6340312"><ele>24.0</ele><time>2026-04-27T11:18:35.321Z</time></trkpt><trkpt lat="43.6220572" lon="10.6340684"><ele>24.0</ele><time>2026-04-27T11:18:37.322Z</time></trkpt><trkpt lat="43.6221767" lon="10.634099"><ele>24.0</ele><time>2026-04-27T11:18:39.319Z</time></trkpt><trkpt lat="43.6222684" lon="10.634165"><ele>24.0</ele><time>2026-04-27T11:18:41.324Z</time></trkpt><trkpt lat="43.6223679" lon="10.6342422"><ele>24.0</ele><time>2026-04-27T11:18:43.32Z</time></trkpt><trkpt lat="43.6224798" lon="10.6342808"><ele>24.0</ele><time>2026-04-27T11:18:45.331Z</time></trkpt><trkpt lat="43.6225832" lon="10.6343282"><ele>24.0</ele><time>2026-04-27T11:18:47.342Z</time></trkpt><trkpt lat="43.6226668" lon="10.6343574"><ele>24.0</ele><time>2026-04-27T11:18:49.34Z</time></trkpt><trkpt lat="43.6227465" lon="10.6343662"><ele>24.0</ele><time>2026-04-27T11:18:51.341Z</time></trkpt><trkpt lat="43.62283" lon="10.634395"><ele>24.0</ele><time>2026-04-27T11:18:53.338Z</time></trkpt><trkpt lat="43.6229135" lon="10.6344085"><ele>24.0</ele><time>2026-04-27T11:18:55.352Z</time></trkpt><trkpt lat="43.6230027" lon="10.6344191"><ele>24.0</ele><time>2026-04-27T11:18:57.35Z</time></trkpt><trkpt lat="43.6230944" lon="10.6344398"><ele>24.0</ele><time>2026-04-27T11:18:59.343Z</time></trkpt><trkpt lat="43.6231891" lon="10.6344538"><ele>24.0</ele><time>2026-04-27T11:19:01.341Z</time></trkpt><trkpt lat="43.6232757" lon="10.6344704"><ele>24.0</ele><time>2026-04-27T11:19:03.352Z</time></trkpt><trkpt lat="43.6233628" lon="10.6344873"><ele>24.0</ele><time>2026-04-27T11:19:05.352Z</time></trkpt><trkpt lat="43.6234555" lon="10.6344874"><ele>24.0</ele><time>2026-04-27T11:19:07.359Z</time></trkpt><trkpt lat="43.6235475" lon="10.6344451"><ele>24.0</ele><time>2026-04-27T11:19:09.344Z</time></trkpt><trkpt lat="43.6236422" lon="10.6343878"><ele>24.0</ele><time>2026-04-27T11:19:11.342Z</time></trkpt><trkpt lat="43.6237448" lon="10.6343468"><ele>23.6</ele><time>2026-04-27T11:19:13.325Z</time></trkpt><trkpt lat="43.6238503" lon="10.6343274"><ele>23.2</ele><time>2026-04-27T11:19:15.336Z</time></trkpt><trkpt lat="43.6239571" lon="10.6343273"><ele>22.8</ele><time>2026-04-27T11:19:17.351Z</time></trkpt><trkpt lat="43.6240637" lon="10.6343799"><ele>22.400000000000002</ele><time>2026-04-27T11:19:19.329Z</time></trkpt><trkpt lat="43.6241556" lon="10.6344688"><ele>22.0</ele><time>2026-04-27T11:19:21.331Z</time></trkpt><trkpt lat="43.6242369" lon="10.634553"><ele>21.6</ele><time>2026-04-27T11:19:23.327Z</time></trkpt><trkpt lat="43.6243197" lon="10.6346499"><ele>21.200000000000003</ele><time>2026-04-27T11:19:25.325Z</time></trkpt><trkpt lat="43.6244113" lon="10.6347347"><ele>20.8</ele><time>2026-04-27T11:19:27.343Z</time></trkpt><trkpt lat="43.6245052" lon="10.634789"><ele>20.4</ele><time>2026-04-27T11:19:29.327Z</time></trkpt><trkpt lat="43.624606" lon="10.6348125"><ele>20.0</ele><time>2026-04-27T11:19:31.327Z</time></trkpt><trkpt lat="43.6247075" lon="10.634816"><ele>20.0</ele><time>2026-04-27T11:19:33.323Z</time></trkpt><trkpt lat="43.6248185" lon="10.6348017"><ele>20.0</ele><time>2026-04-27T11:19:35.327Z</time></trkpt><trkpt lat="43.6249315" lon="10.6347793"><ele>20.0</ele><time>2026-04-27T11:19:37.335Z</time></trkpt><trkpt lat="43.6250427" lon="10.6347558"><ele>20.0</ele><time>2026-04-27T11:19:39.33Z</time></trkpt><trkpt lat="43.6251552" lon="10.6347349"><ele>20.0</ele><time>2026-04-27T11:19:41.345Z</time></trkpt><trkpt lat="43.6252655" lon="10.6347192"><ele>20.0</ele><time>2026-04-27T11:19:43.34Z</time></trkpt><trkpt lat="43.6253766" lon="10.6347087"><ele>20.0</ele><time>2026-04-27T11:19:45.341Z</time></trkpt><trkpt lat="43.6254852" lon="10.6346908"><ele>20.0</ele><time>2026-04-27T11:19:47.345Z</time></trkpt><trkpt lat="43.6255865" lon="10.6346773"><ele>20.0</ele><time>2026-04-27T11:19:49.335Z</time></trkpt><trkpt lat="43.6256838" lon="10.6346622"><ele>20.0</ele><time>2026-04-27T11:19:51.333Z</time></trkpt><trkpt lat="43.625784" lon="10.6346543"><ele>20.0</ele><time>2026-04-27T11:19:53.333Z</time></trkpt><trkpt lat="43.6258787" lon="10.6346761"><ele>20.0</ele><time>2026-04-27T11:19:55.33Z</time></trkpt><trkpt lat="43.6259695" lon="10.6347232"><ele>20.0</ele><time>2026-04-27T11:19:57.345Z</time></trkpt><trkpt lat="43.6260561" lon="10.6347988"><ele>20.0</ele><time>2026-04-27T11:19:59.332Z</time></trkpt><trkpt lat="43.6261412" lon="10.6348779"><ele>19.8</ele><time>2026-04-27T11:20:01.341Z</time></trkpt><trkpt lat="43.6262244" lon="10.6349538"><ele>19.6</ele><time>2026-04-27T11:20:03.334Z</time></trkpt><trkpt lat="43.6263141" lon="10.6350107"><ele>19.4</ele><time>2026-04-27T11:20:05.332Z</time></trkpt><trkpt lat="43.6264104" lon="10.6350396"><ele>19.2</ele><time>2026-04-27T11:20:07.338Z</time></trkpt><trkpt lat="43.6265101" lon="10.6350394"><ele>19.0</ele><time>2026-04-27T11:20:09.322Z</time></trkpt><trkpt lat="43.6266161" lon="10.6349939"><ele>19.0</ele><time>2026-04-27T11:20:11.328Z</time></trkpt><trkpt lat="43.6267195" lon="10.6349361"><ele>19.0</ele><time>2026-04-27T11:20:13.329Z</time></trkpt><trkpt lat="43.6268133" lon="10.6348651"><ele>19.0</ele><time>2026-04-27T11:20:15.329Z</time></trkpt><trkpt lat="43.6269087" lon="10.6347957"><ele>19.0</ele><time>2026-04-27T11:20:17.33Z</time></trkpt><trkpt lat="43.6270076" lon="10.6347282"><ele>19.0</ele><time>2026-04-27T11:20:19.342Z</time></trkpt><trkpt lat="43.6271025" lon="10.6346742"><ele>19.0</ele><time>2026-04-27T11:20:21.33Z</time></trkpt><trkpt lat="43.627205" lon="10.6346077"><ele>19.0</ele><time>2026-04-27T11:20:23.327Z</time></trkpt><trkpt lat="43.6273066" lon="10.6345524"><ele>19.0</ele><time>2026-04-27T11:20:25.324Z</time></trkpt><trkpt lat="43.6274001" lon="10.6345031"><ele>19.0</ele><time>2026-04-27T11:20:27.326Z</time></trkpt><trkpt lat="43.6274976" lon="10.634457"><ele>19.0</ele><time>2026-04-27T11:20:29.335Z</time></trkpt><trkpt lat="43.6275952" lon="10.6344118"><ele>19.2</ele><time>2026-04-27T11:20:31.329Z</time></trkpt><trkpt lat="43.6277" lon="10.6343802"><ele>19.4</ele><time>2026-04-27T11:20:33.332Z</time></trkpt><trkpt lat="43.627814" lon="10.634381"><ele>19.6</ele><time>2026-04-27T11:20:35.327Z</time></trkpt><trkpt lat="43.6279247" lon="10.6344061"><ele>19.8</ele><time>2026-04-27T11:20:37.325Z</time></trkpt><trkpt lat="43.6280319" lon="10.634439"><ele>20.0</ele><time>2026-04-27T11:20:39.318Z</time></trkpt><trkpt lat="43.6281431" lon="10.6344715"><ele>20.0</ele><time>2026-04-27T11:20:41.324Z</time></trkpt><trkpt lat="43.6282474" lon="10.6345127"><ele>20.0</ele><time>2026-04-27T11:20:43.328Z</time></trkpt><trkpt lat="43.6283434" lon="10.6345638"><ele>20.0</ele><time>2026-04-27T11:20:45.329Z</time></trkpt><trkpt lat="43.628441" lon="10.6346124"><ele>20.0</ele><time>2026-04-27T11:20:47.328Z</time></trkpt><trkpt lat="43.6285392" lon="10.6346568"><ele>20.0</ele><time>2026-04-27T11:20:49.325Z</time></trkpt><trkpt lat="43.628641" lon="10.6347004"><ele>20.2</ele><time>2026-04-27T11:20:51.331Z</time></trkpt><trkpt lat="43.6287427" lon="10.6347377"><ele>20.4</ele><time>2026-04-27T11:20:53.328Z</time></trkpt><trkpt lat="43.6288444" lon="10.6347761"><ele>20.6</ele><time>2026-04-27T11:20:55.329Z</time></trkpt><trkpt lat="43.6289478" lon="10.6348212"><ele>20.8</ele><time>2026-04-27T11:20:57.334Z</time></trkpt><trkpt lat="43.6290519" lon="10.6348732"><ele>21.0</ele><time>2026-04-27T11:20:59.336Z</time></trkpt><trkpt lat="43.6291534" lon="10.6349292"><ele>21.0</ele><time>2026-04-27T11:21:01.33Z</time></trkpt><trkpt lat="43.6292554" lon="10.6349825"><ele>21.0</ele><time>2026-04-27T11:21:03.329Z</time></trkpt><trkpt lat="43.6293542" lon="10.6350493"><ele>21.0</ele><time>2026-04-27T11:21:05.334Z</time></trkpt><trkpt lat="43.6294508" lon="10.6351138"><ele>21.0</ele><time>2026-04-27T11:21:07.33Z</time></trkpt><trkpt lat="43.6295494" lon="10.635174"><ele>21.0</ele><time>2026-04-27T11:21:09.333Z</time></trkpt><trkpt lat="43.6296512" lon="10.6352339"><ele>20.8</ele><time>2026-04-27T11:21:11.332Z</time></trkpt><trkpt lat="43.6297557" lon="10.6352897"><ele>20.6</ele><time>2026-04-27T11:21:13.325Z</time></trkpt><trkpt lat="43.6298589" lon="10.6353467"><ele>20.4</ele><time>2026-04-27T11:21:15.325Z</time></trkpt><trkpt lat="43.6299594" lon="10.6354112"><ele>20.2</ele><time>2026-04-27T11:21:17.327Z</time></trkpt><trkpt lat="43.6300563" lon="10.6354924"><ele>20.0</ele><time>2026-04-27T11:21:19.324Z</time></trkpt><trkpt lat="43.6301388" lon="10.6355913"><ele>20.0</ele><time>2026-04-27T11:21:21.341Z</time></trkpt><trkpt lat="43.6302038" lon="10.6357122"><ele>20.0</ele><time>2026-04-27T11:21:23.325Z</time></trkpt><trkpt lat="43.630253" lon="10.6358536"><ele>20.0</ele><time>2026-04-27T11:21:25.325Z</time></trkpt><trkpt lat="43.6302875" lon="10.6360091"><ele>20.0</ele><time>2026-04-27T11:21:27.326Z</time></trkpt><trkpt lat="43.6303216" lon="10.6361646"><ele>20.0</ele><time>2026-04-27T11:21:29.325Z</time></trkpt><trkpt lat="43.6303691" lon="10.6363137"><ele>20.0</ele><time>2026-04-27T11:21:31.323Z</time></trkpt><trkpt lat="43.6304378" lon="10.6364344"><ele>20.0</ele><time>2026-04-27T11:21:33.329Z</time></trkpt><trkpt lat="43.630535" lon="10.6365292"><ele>20.0</ele><time>2026-04-27T11:21:35.321Z</time></trkpt><trkpt lat="43.6306456" lon="10.6365791"><ele>20.0</ele><time>2026-04-27T11:21:37.329Z</time></trkpt><trkpt lat="43.6307557" lon="10.6365866"><ele>20.0</ele><time>2026-04-27T11:21:39.325Z</time></trkpt><trkpt lat="43.6308715" lon="10.6365403"><ele>20.0</ele><time>2026-04-27T11:21:41.327Z</time></trkpt><trkpt lat="43.6309763" lon="10.6364831"><ele>20.0</ele><time>2026-04-27T11:21:43.318Z</time></trkpt><trkpt lat="43.6310858" lon="10.636415"><ele>20.0</ele><time>2026-04-27T11:21:45.328Z</time></trkpt><trkpt lat="43.6311443" lon="10.6363826"><ele>20.0</ele><time>2026-04-27T11:21:46.327Z</time></trkpt><trkpt lat="43.631206" lon="10.6363553"><ele>20.0</ele><time>2026-04-27T11:21:47.322Z</time></trkpt><trkpt lat="43.631323" lon="10.6363033"><ele>20.0</ele><time>2026-04-27T11:21:49.333Z</time></trkpt><trkpt lat="43.6313837" lon="10.6362782"><ele>20.0</ele><time>2026-04-27T11:21:50.336Z</time></trkpt><trkpt lat="43.6314433" lon="10.6362495"><ele>20.0</ele><time>2026-04-27T11:21:51.336Z</time></trkpt><trkpt lat="43.6315553" lon="10.6361928"><ele>20.0</ele><time>2026-04-27T11:21:53.336Z</time></trkpt><trkpt lat="43.631666" lon="10.6361427"><ele>20.0</ele><time>2026-04-27T11:21:55.337Z</time></trkpt><trkpt lat="43.6317782" lon="10.6360874"><ele>20.0</ele><time>2026-04-27T11:21:57.344Z</time></trkpt><trkpt lat="43.6318888" lon="10.6360317"><ele>20.0</ele><time>2026-04-27T11:21:59.346Z</time></trkpt><trkpt lat="43.631999" lon="10.6359792"><ele>19.75</ele><time>2026-04-27T11:22:01.324Z</time></trkpt><trkpt lat="43.632105" lon="10.6359336"><ele>19.5</ele><time>2026-04-27T11:22:03.336Z</time></trkpt><trkpt lat="43.632213" lon="10.6358834"><ele>19.25</ele><time>2026-04-27T11:22:05.328Z</time></trkpt><trkpt lat="43.6323211" lon="10.6358254"><ele>19.0</ele><time>2026-04-27T11:22:07.333Z</time></trkpt><trkpt lat="43.6324273" lon="10.6357701"><ele>19.0</ele><time>2026-04-27T11:22:09.332Z</time></trkpt><trkpt lat="43.6325294" lon="10.635722"><ele>19.0</ele><time>2026-04-27T11:22:11.329Z</time></trkpt><trkpt lat="43.6326356" lon="10.6356811"><ele>19.0</ele><time>2026-04-27T11:22:13.334Z</time></trkpt><trkpt lat="43.6327468" lon="10.6356664"><ele>19.0</ele><time>2026-04-27T11:22:15.332Z</time></trkpt><trkpt lat="43.6328599" lon="10.635671"><ele>19.0</ele><time>2026-04-27T11:22:17.333Z</time></trkpt><trkpt lat="43.6329632" lon="10.6356872"><ele>19.0</ele><time>2026-04-27T11:22:19.323Z</time></trkpt><trkpt lat="43.633063" lon="10.6357218"><ele>19.0</ele><time>2026-04-27T11:22:21.324Z</time></trkpt><trkpt lat="43.633171" lon="10.6357651"><ele>19.0</ele><time>2026-04-27T11:22:23.328Z</time></trkpt><trkpt lat="43.6332784" lon="10.6358279"><ele>19.0</ele><time>2026-04-27T11:22:25.315Z</time></trkpt><trkpt lat="43.6333874" lon="10.6358908"><ele>19.0</ele><time>2026-04-27T11:22:27.324Z</time></trkpt><trkpt lat="43.6334909" lon="10.6359507"><ele>19.0</ele><time>2026-04-27T11:22:29.325Z</time></trkpt><trkpt lat="43.6335966" lon="10.6360046"><ele>19.0</ele><time>2026-04-27T11:22:31.322Z</time></trkpt><trkpt lat="43.6337035" lon="10.636062"><ele>19.0</ele><time>2026-04-27T11:22:33.323Z</time></trkpt><trkpt lat="43.6338076" lon="10.6361101"><ele>19.0</ele><time>2026-04-27T11:22:35.326Z</time></trkpt><trkpt lat="43.6339149" lon="10.6361625"><ele>18.5</ele><time>2026-04-27T11:22:37.335Z</time></trkpt><trkpt lat="43.6340259" lon="10.6362101"><ele>18.0</ele><time>2026-04-27T11:22:39.323Z</time></trkpt><trkpt lat="43.634136" lon="10.6362641"><ele>17.5</ele><time>2026-04-27T11:22:41.325Z</time></trkpt><trkpt lat="43.6342424" lon="10.6363304"><ele>17.0</ele><time>2026-04-27T11:22:43.326Z</time></trkpt><trkpt lat="43.6343454" lon="10.636384"><ele>17.0</ele><time>2026-04-27T11:22:45.325Z</time></trkpt><trkpt lat="43.6344487" lon="10.6364491"><ele>17.0</ele><time>2026-04-27T11:22:47.33Z</time></trkpt><trkpt lat="43.6345446" lon="10.636522"><ele>17.0</ele><time>2026-04-27T11:22:49.327Z</time></trkpt><trkpt lat="43.6346419" lon="10.6366128"><ele>17.0</ele><time>2026-04-27T11:22:51.328Z</time></trkpt><trkpt lat="43.6347356" lon="10.6367049"><ele>17.25</ele><time>2026-04-27T11:22:53.337Z</time></trkpt><trkpt lat="43.6348315" lon="10.6368008"><ele>17.5</ele><time>2026-04-27T11:22:55.329Z</time></trkpt><trkpt lat="43.6349284" lon="10.6368866"><ele>17.75</ele><time>2026-04-27T11:22:57.33Z</time></trkpt><trkpt lat="43.6350366" lon="10.6369494"><ele>18.0</ele><time>2026-04-27T11:22:59.338Z</time></trkpt><trkpt lat="43.6351476" lon="10.6369739"><ele>18.25</ele><time>2026-04-27T11:23:01.334Z</time></trkpt><trkpt lat="43.6352587" lon="10.6369725"><ele>18.5</ele><time>2026-04-27T11:23:03.321Z</time></trkpt><trkpt lat="43.6353706" lon="10.6369453"><ele>18.75</ele><time>2026-04-27T11:23:05.322Z</time></trkpt><trkpt lat="43.635482" lon="10.6369108"><ele>19.0</ele><time>2026-04-27T11:23:07.325Z</time></trkpt><trkpt lat="43.635592" lon="10.6368773"><ele>19.0</ele><time>2026-04-27T11:23:09.324Z</time></trkpt><trkpt lat="43.6357097" lon="10.6368415"><ele>19.0</ele><time>2026-04-27T11:23:11.334Z</time></trkpt><trkpt lat="43.6358212" lon="10.6368148"><ele>19.0</ele><time>2026-04-27T11:23:13.332Z</time></trkpt><trkpt lat="43.6359348" lon="10.6367842"><ele>19.0</ele><time>2026-04-27T11:23:15.353Z</time></trkpt><trkpt lat="43.6360508" lon="10.6367602"><ele>18.75</ele><time>2026-04-27T11:23:17.346Z</time></trkpt><trkpt lat="43.6361687" lon="10.6367349"><ele>18.5</ele><time>2026-04-27T11:23:19.327Z</time></trkpt><trkpt lat="43.6362857" lon="10.636712"><ele>18.25</ele><time>2026-04-27T11:23:21.337Z</time></trkpt><trkpt lat="43.6364065" lon="10.6366885"><ele>18.0</ele><time>2026-04-27T11:23:23.332Z</time></trkpt><trkpt lat="43.6365235" lon="10.6366635"><ele>18.0</ele><time>2026-04-27T11:23:25.331Z</time></trkpt><trkpt lat="43.6366383" lon="10.6366391"><ele>18.0</ele><time>2026-04-27T11:23:27.326Z</time></trkpt><trkpt lat="43.636757" lon="10.6366162"><ele>18.0</ele><time>2026-04-27T11:23:29.33Z</time></trkpt><trkpt lat="43.6368779" lon="10.6366028"><ele>18.0</ele><time>2026-04-27T11:23:31.331Z</time></trkpt><trkpt lat="43.6369882" lon="10.6365809"><ele>18.0</ele><time>2026-04-27T11:23:33.327Z</time></trkpt><trkpt lat="43.6370995" lon="10.6365487"><ele>18.0</ele><time>2026-04-27T11:23:35.333Z</time></trkpt><trkpt lat="43.6372111" lon="10.6365189"><ele>18.0</ele><time>2026-04-27T11:23:37.342Z</time></trkpt><trkpt lat="43.6373227" lon="10.6364901"><ele>18.0</ele><time>2026-04-27T11:23:39.334Z</time></trkpt><trkpt lat="43.6374355" lon="10.6364667"><ele>18.0</ele><time>2026-04-27T11:23:41.344Z</time></trkpt><trkpt lat="43.6375445" lon="10.6364402"><ele>18.0</ele><time>2026-04-27T11:23:43.34Z</time></trkpt><trkpt lat="43.637651" lon="10.636419"><ele>18.0</ele><time>2026-04-27T11:23:45.339Z</time></trkpt><trkpt lat="43.6377611" lon="10.6364017"><ele>18.0</ele><time>2026-04-27T11:23:47.337Z</time></trkpt><trkpt lat="43.6378645" lon="10.6363836"><ele>18.0</ele><time>2026-04-27T11:23:49.337Z</time></trkpt><trkpt lat="43.6379668" lon="10.6363559"><ele>17.8</ele><time>2026-04-27T11:23:51.346Z</time></trkpt><trkpt lat="43.6380702" lon="10.6363286"><ele>17.6</ele><time>2026-04-27T11:23:53.338Z</time></trkpt><trkpt lat="43.6381808" lon="10.6363059"><ele>17.4</ele><time>2026-04-27T11:23:55.344Z</time></trkpt><trkpt lat="43.6382837" lon="10.6362792"><ele>17.2</ele><time>2026-04-27T11:23:57.342Z</time></trkpt><trkpt lat="43.6383869" lon="10.6362582"><ele>17.0</ele><time>2026-04-27T11:23:59.344Z</time></trkpt><trkpt lat="43.6384924" lon="10.6362433"><ele>17.0</ele><time>2026-04-27T11:24:01.343Z</time></trkpt><trkpt lat="43.6386" lon="10.6362263"><ele>17.0</ele><time>2026-04-27T11:24:03.345Z</time></trkpt><trkpt lat="43.638711" lon="10.6362178"><ele>17.0</ele><time>2026-04-27T11:24:05.343Z</time></trkpt><trkpt lat="43.638818" lon="10.6362006"><ele>17.0</ele><time>2026-04-27T11:24:07.359Z</time></trkpt><trkpt lat="43.6389279" lon="10.6361855"><ele>17.0</ele><time>2026-04-27T11:24:09.347Z</time></trkpt><trkpt lat="43.6390369" lon="10.6361698"><ele>17.0</ele><time>2026-04-27T11:24:11.339Z</time></trkpt><trkpt lat="43.6391463" lon="10.636158"><ele>17.0</ele><time>2026-04-27T11:24:13.342Z</time></trkpt><trkpt lat="43.6392526" lon="10.6361351"><ele>17.0</ele><time>2026-04-27T11:24:15.343Z</time></trkpt><trkpt lat="43.6393575" lon="10.6361167"><ele>17.0</ele><time>2026-04-27T11:24:17.347Z</time></trkpt><trkpt lat="43.6394577" lon="10.6361049"><ele>17.0</ele><time>2026-04-27T11:24:19.343Z</time></trkpt><trkpt lat="43.6395621" lon="10.6360921"><ele>17.2</ele><time>2026-04-27T11:24:21.335Z</time></trkpt><trkpt lat="43.6396688" lon="10.6360765"><ele>17.4</ele><time>2026-04-27T11:24:23.34Z</time></trkpt><trkpt lat="43.6397817" lon="10.6360669"><ele>17.6</ele><time>2026-04-27T11:24:25.335Z</time></trkpt><trkpt lat="43.6398926" lon="10.6360518"><ele>17.8</ele><time>2026-04-27T11:24:27.342Z</time></trkpt><trkpt lat="43.6399997" lon="10.6360283"><ele>18.0</ele><time>2026-04-27T11:24:29.337Z</time></trkpt><trkpt lat="43.6401073" lon="10.6360106"><ele>18.0</ele><time>2026-04-27T11:24:31.326Z</time></trkpt><trkpt lat="43.6402144" lon="10.6359886"><ele>18.0</ele><time>2026-04-27T11:24:33.331Z</time></trkpt><trkpt lat="43.6403168" lon="10.6359741"><ele>18.0</ele><time>2026-04-27T11:24:35.339Z</time></trkpt><trkpt lat="43.6404162" lon="10.6359481"><ele>18.0</ele><time>2026-04-27T11:24:37.33Z</time></trkpt><trkpt lat="43.6405232" lon="10.6359295"><ele>18.0</ele><time>2026-04-27T11:24:39.34Z</time></trkpt><trkpt lat="43.64063" lon="10.6359095"><ele>18.0</ele><time>2026-04-27T11:24:41.345Z</time></trkpt><trkpt lat="43.6407321" lon="10.6358876"><ele>18.0</ele><time>2026-04-27T11:24:43.333Z</time></trkpt><trkpt lat="43.6408367" lon="10.6358732"><ele>18.0</ele><time>2026-04-27T11:24:45.35Z</time></trkpt><trkpt lat="43.6409383" lon="10.6358542"><ele>18.0</ele><time>2026-04-27T11:24:47.342Z</time></trkpt><trkpt lat="43.6410392" lon="10.6358194"><ele>18.0</ele><time>2026-04-27T11:24:49.338Z</time></trkpt><trkpt lat="43.6411381" lon="10.6357753"><ele>17.6</ele><time>2026-04-27T11:24:51.344Z</time></trkpt><trkpt lat="43.6412387" lon="10.6357245"><ele>17.200000000000003</ele><time>2026-04-27T11:24:53.346Z</time></trkpt><trkpt lat="43.6413322" lon="10.6356705"><ele>16.8</ele><time>2026-04-27T11:24:55.328Z</time></trkpt><trkpt lat="43.64142" lon="10.6356024"><ele>16.400000000000002</ele><time>2026-04-27T11:24:57.339Z</time></trkpt><trkpt lat="43.6415021" lon="10.6355184"><ele>16.0</ele><time>2026-04-27T11:24:59.329Z</time></trkpt><trkpt lat="43.6415818" lon="10.6354286"><ele>16.0</ele><time>2026-04-27T11:25:01.333Z</time></trkpt><trkpt lat="43.6416628" lon="10.6353358"><ele>16.0</ele><time>2026-04-27T11:25:03.332Z</time></trkpt><trkpt lat="43.6417463" lon="10.635243"><ele>16.0</ele><time>2026-04-27T11:25:05.331Z</time></trkpt><trkpt lat="43.6418296" lon="10.6351517"><ele>16.0</ele><time>2026-04-27T11:25:07.333Z</time></trkpt><trkpt lat="43.6419119" lon="10.6350597"><ele>16.0</ele><time>2026-04-27T11:25:09.338Z</time></trkpt><trkpt lat="43.6419975" lon="10.6349713"><ele>16.0</ele><time>2026-04-27T11:25:11.333Z</time></trkpt><trkpt lat="43.6420794" lon="10.6348791"><ele>16.0</ele><time>2026-04-27T11:25:13.332Z</time></trkpt><trkpt lat="43.6421638" lon="10.6347926"><ele>16.0</ele><time>2026-04-27T11:25:15.332Z</time></trkpt><trkpt lat="43.6422524" lon="10.6347091"><ele>16.0</ele><time>2026-04-27T11:25:17.341Z</time></trkpt><trkpt lat="43.6423442" lon="10.6346411"><ele>16.0</ele><time>2026-04-27T11:25:19.332Z</time></trkpt><trkpt lat="43.6424433" lon="10.6345752"><ele>16.0</ele><time>2026-04-27T11:25:21.336Z</time></trkpt><trkpt lat="43.6425412" lon="10.6345174"><ele>16.0</ele><time>2026-04-27T11:25:23.341Z</time></trkpt><trkpt lat="43.6426388" lon="10.6344757"><ele>16.0</ele><time>2026-04-27T11:25:25.334Z</time></trkpt><trkpt lat="43.6427399" lon="10.6344437"><ele>16.0</ele><time>2026-04-27T11:25:27.34Z</time></trkpt><trkpt lat="43.6428434" lon="10.6344182"><ele>16.0</ele><time>2026-04-27T11:25:29.341Z</time></trkpt><trkpt lat="43.6429472" lon="10.6343905"><ele>16.400000000000002</ele><time>2026-04-27T11:25:31.346Z</time></trkpt><trkpt lat="43.6430523" lon="10.6343579"><ele>16.8</ele><time>2026-04-27T11:25:33.333Z</time></trkpt><trkpt lat="43.643146" lon="10.6343203"><ele>17.200000000000003</ele><time>2026-04-27T11:25:35.338Z</time></trkpt><trkpt lat="43.6432407" lon="10.6342712"><ele>17.6</ele><time>2026-04-27T11:25:37.343Z</time></trkpt><trkpt lat="43.6433327" lon="10.6342015"><ele>18.0</ele><time>2026-04-27T11:25:39.327Z</time></trkpt><trkpt lat="43.6434085" lon="10.6341118"><ele>18.0</ele><time>2026-04-27T11:25:41.326Z</time></trkpt><trkpt lat="43.6434616" lon="10.6339883"><ele>18.0</ele><time>2026-04-27T11:25:43.339Z</time></trkpt><trkpt lat="43.6435014" lon="10.6338475"><ele>18.0</ele><time>2026-04-27T11:25:45.337Z</time></trkpt><trkpt lat="43.6435318" lon="10.6336951"><ele>18.0</ele><time>2026-04-27T11:25:47.336Z</time></trkpt><trkpt lat="43.643569" lon="10.6335496"><ele>18.0</ele><time>2026-04-27T11:25:49.334Z</time></trkpt><trkpt lat="43.6436054" lon="10.6334104"><ele>17.8</ele><time>2026-04-27T11:25:51.336Z</time></trkpt><trkpt lat="43.6436466" lon="10.6332692"><ele>17.6</ele><time>2026-04-27T11:25:53.337Z</time></trkpt><trkpt lat="43.6436829" lon="10.6331315"><ele>17.4</ele><time>2026-04-27T11:25:55.339Z</time></trkpt><trkpt lat="43.6437189" lon="10.6329947"><ele>17.2</ele><time>2026-04-27T11:25:57.338Z</time></trkpt><trkpt lat="43.643752" lon="10.6328602"><ele>17.0</ele><time>2026-04-27T11:25:59.344Z</time></trkpt><trkpt lat="43.6437828" lon="10.6327231"><ele>17.0</ele><time>2026-04-27T11:26:01.339Z</time></trkpt><trkpt lat="43.6438195" lon="10.6325835"><ele>17.0</ele><time>2026-04-27T11:26:03.335Z</time></trkpt><trkpt lat="43.6438558" lon="10.6324514"><ele>17.0</ele><time>2026-04-27T11:26:05.333Z</time></trkpt><trkpt lat="43.643892" lon="10.6323194"><ele>17.0</ele><time>2026-04-27T11:26:07.333Z</time></trkpt><trkpt lat="43.643922" lon="10.6321872"><ele>17.0</ele><time>2026-04-27T11:26:09.334Z</time></trkpt><trkpt lat="43.6439542" lon="10.6320536"><ele>17.0</ele><time>2026-04-27T11:26:11.335Z</time></trkpt><trkpt lat="43.6439912" lon="10.6319208"><ele>17.0</ele><time>2026-04-27T11:26:13.334Z</time></trkpt><trkpt lat="43.6440279" lon="10.6317827"><ele>17.0</ele><time>2026-04-27T11:26:15.339Z</time></trkpt><trkpt lat="43.6440631" lon="10.6316459"><ele>17.0</ele><time>2026-04-27T11:26:17.337Z</time></trkpt><trkpt lat="43.6440931" lon="10.6315099"><ele>17.0</ele><time>2026-04-27T11:26:19.337Z</time></trkpt><trkpt lat="43.6441272" lon="10.6313734"><ele>17.0</ele><time>2026-04-27T11:26:21.336Z</time></trkpt><trkpt lat="43.6441643" lon="10.6312301"><ele>17.0</ele><time>2026-04-27T11:26:23.334Z</time></trkpt><trkpt lat="43.6442003" lon="10.6310869"><ele>17.0</ele><time>2026-04-27T11:26:25.33Z</time></trkpt><trkpt lat="43.6442355" lon="10.630944"><ele>17.0</ele><time>2026-04-27T11:26:27.332Z</time></trkpt><trkpt lat="43.6442726" lon="10.6308065"><ele>17.0</ele><time>2026-04-27T11:26:29.332Z</time></trkpt><trkpt lat="43.6443126" lon="10.6306688"><ele>17.2</ele><time>2026-04-27T11:26:31.336Z</time></trkpt><trkpt lat="43.6443489" lon="10.6305352"><ele>17.4</ele><time>2026-04-27T11:26:33.335Z</time></trkpt><trkpt lat="43.64443" lon="10.6304761"><ele>17.6</ele><time>2026-04-27T11:26:35.335Z</time></trkpt><trkpt lat="43.6445474" lon="10.6305061"><ele>17.8</ele><time>2026-04-27T11:26:37.337Z</time></trkpt><trkpt lat="43.6446609" lon="10.6305367"><ele>18.0</ele><time>2026-04-27T11:26:39.328Z</time></trkpt><trkpt lat="43.6447716" lon="10.630565"><ele>18.0</ele><time>2026-04-27T11:26:41.33Z</time></trkpt><trkpt lat="43.6448793" lon="10.6305833"><ele>18.0</ele><time>2026-04-27T11:26:43.334Z</time></trkpt><trkpt lat="43.6449898" lon="10.6305995"><ele>18.0</ele><time>2026-04-27T11:26:45.334Z</time></trkpt><trkpt lat="43.6450998" lon="10.6306107"><ele>18.0</ele><time>2026-04-27T11:26:47.336Z</time></trkpt><trkpt lat="43.64521" lon="10.6306283"><ele>18.0</ele><time>2026-04-27T11:26:49.334Z</time></trkpt><trkpt lat="43.6453171" lon="10.630652"><ele>17.6</ele><time>2026-04-27T11:26:51.334Z</time></trkpt><trkpt lat="43.6454174" lon="10.6306708"><ele>17.200000000000003</ele><time>2026-04-27T11:26:53.343Z</time></trkpt><trkpt lat="43.6455227" lon="10.6306861"><ele>16.8</ele><time>2026-04-27T11:26:55.337Z</time></trkpt><trkpt lat="43.64563" lon="10.6306973"><ele>16.400000000000002</ele><time>2026-04-27T11:26:57.336Z</time></trkpt><trkpt lat="43.6457415" lon="10.6307059"><ele>16.0</ele><time>2026-04-27T11:26:59.333Z</time></trkpt><trkpt lat="43.6458498" lon="10.6307149"><ele>16.0</ele><time>2026-04-27T11:27:01.347Z</time></trkpt><trkpt lat="43.645963" lon="10.6307194"><ele>16.0</ele><time>2026-04-27T11:27:03.335Z</time></trkpt><trkpt lat="43.6460774" lon="10.6307195"><ele>16.0</ele><time>2026-04-27T11:27:05.339Z</time></trkpt><trkpt lat="43.6461922" lon="10.6307134"><ele>16.0</ele><time>2026-04-27T11:27:07.335Z</time></trkpt><trkpt lat="43.6463028" lon="10.6307145"><ele>16.400000000000002</ele><time>2026-04-27T11:27:09.352Z</time></trkpt><trkpt lat="43.6464137" lon="10.6307087"><ele>16.8</ele><time>2026-04-27T11:27:11.336Z</time></trkpt><trkpt lat="43.6465163" lon="10.630704"><ele>17.200000000000003</ele><time>2026-04-27T11:27:13.338Z</time></trkpt><trkpt lat="43.6466242" lon="10.630696"><ele>17.6</ele><time>2026-04-27T11:27:15.336Z</time></trkpt><trkpt lat="43.6467297" lon="10.6306893"><ele>18.0</ele><time>2026-04-27T11:27:17.336Z</time></trkpt><trkpt lat="43.6468384" lon="10.6306811"><ele>18.0</ele><time>2026-04-27T11:27:19.345Z</time></trkpt><trkpt lat="43.6469393" lon="10.6306738"><ele>18.0</ele><time>2026-04-27T11:27:21.328Z</time></trkpt><trkpt lat="43.647041" lon="10.630671"><ele>18.0</ele><time>2026-04-27T11:27:23.328Z</time></trkpt><trkpt lat="43.6471377" lon="10.6306621"><ele>18.0</ele><time>2026-04-27T11:27:25.327Z</time></trkpt><trkpt lat="43.6472333" lon="10.6306571"><ele>18.0</ele><time>2026-04-27T11:27:27.331Z</time></trkpt><trkpt lat="43.6473259" lon="10.6306686"><ele>18.0</ele><time>2026-04-27T11:27:29.347Z</time></trkpt><trkpt lat="43.6474284" lon="10.6306664"><ele>18.0</ele><time>2026-04-27T11:27:31.332Z</time></trkpt><trkpt lat="43.6475321" lon="10.6306669"><ele>18.0</ele><time>2026-04-27T11:27:33.336Z</time></trkpt><trkpt lat="43.6476337" lon="10.6306618"><ele>18.0</ele><time>2026-04-27T11:27:35.333Z</time></trkpt><trkpt lat="43.647731" lon="10.6306611"><ele>18.0</ele><time>2026-04-27T11:27:37.333Z</time></trkpt><trkpt lat="43.6478354" lon="10.6306583"><ele>17.8</ele><time>2026-04-27T11:27:39.347Z</time></trkpt><trkpt lat="43.6479358" lon="10.6306504"><ele>17.6</ele><time>2026-04-27T11:27:41.334Z</time></trkpt><trkpt lat="43.6480362" lon="10.6306469"><ele>17.4</ele><time>2026-04-27T11:27:43.337Z</time></trkpt><trkpt lat="43.6481408" lon="10.6306453"><ele>17.2</ele><time>2026-04-27T11:27:45.337Z</time></trkpt><trkpt lat="43.6482301" lon="10.63071"><ele>17.0</ele><time>2026-04-27T11:27:47.335Z</time></trkpt><trkpt lat="43.6482483" lon="10.6308737"><ele>17.0</ele><time>2026-04-27T11:27:49.346Z</time></trkpt><trkpt lat="43.6482421" lon="10.6310214"><ele>17.0</ele><time>2026-04-27T11:27:51.341Z</time></trkpt><trkpt lat="43.6482351" lon="10.631168"><ele>17.0</ele><time>2026-04-27T11:27:53.335Z</time></trkpt><trkpt lat="43.6482242" lon="10.6313188"><ele>17.0</ele><time>2026-04-27T11:27:55.333Z</time></trkpt><trkpt lat="43.6482129" lon="10.6314663"><ele>17.0</ele><time>2026-04-27T11:27:57.332Z</time></trkpt><trkpt lat="43.6482034" lon="10.6316141"><ele>17.0</ele><time>2026-04-27T11:27:59.342Z</time></trkpt><trkpt lat="43.648194" lon="10.6317604"><ele>17.0</ele><time>2026-04-27T11:28:01.329Z</time></trkpt><trkpt lat="43.6481847" lon="10.6319047"><ele>17.0</ele><time>2026-04-27T11:28:03.339Z</time></trkpt><trkpt lat="43.648178" lon="10.632053"><ele>17.0</ele><time>2026-04-27T11:28:05.345Z</time></trkpt><trkpt lat="43.6481729" lon="10.6322028"><ele>17.0</ele><time>2026-04-27T11:28:07.337Z</time></trkpt><trkpt lat="43.6481658" lon="10.6323514"><ele>17.0</ele><time>2026-04-27T11:28:09.352Z</time></trkpt><trkpt lat="43.6481607" lon="10.6325049"><ele>17.0</ele><time>2026-04-27T11:28:11.335Z</time></trkpt><trkpt lat="43.6481579" lon="10.6326515"><ele>17.0</ele><time>2026-04-27T11:28:13.331Z</time></trkpt><trkpt lat="43.6481516" lon="10.6328012"><ele>17.0</ele><time>2026-04-27T11:28:15.327Z</time></trkpt><trkpt lat="43.6481442" lon="10.6329461"><ele>17.0</ele><time>2026-04-27T11:28:17.328Z</time></trkpt><trkpt lat="43.6481325" lon="10.6330922"><ele>17.0</ele><time>2026-04-27T11:28:19.338Z</time></trkpt><trkpt lat="43.6481401" lon="10.6332292"><ele>17.0</ele><time>2026-04-27T11:28:21.318Z</time></trkpt><trkpt lat="43.6481934" lon="10.633334"><ele>17.0</ele><time>2026-04-27T11:28:23.319Z</time></trkpt><trkpt lat="43.6482885" lon="10.6333822"><ele>17.0</ele><time>2026-04-27T11:28:25.333Z</time></trkpt><trkpt lat="43.6483912" lon="10.6334405"><ele>17.0</ele><time>2026-04-27T11:28:27.322Z</time></trkpt><trkpt lat="43.6484917" lon="10.6335028"><ele>17.0</ele><time>2026-04-27T11:28:29.322Z</time></trkpt><trkpt lat="43.6485905" lon="10.6335655"><ele>17.0</ele><time>2026-04-27T11:28:31.325Z</time></trkpt><trkpt lat="43.6486897" lon="10.6336292"><ele>17.0</ele><time>2026-04-27T11:28:33.325Z</time></trkpt><trkpt lat="43.6487869" lon="10.6336926"><ele>17.0</ele><time>2026-04-27T11:28:35.327Z</time></trkpt><trkpt lat="43.6488775" lon="10.63376"><ele>17.0</ele><time>2026-04-27T11:28:37.325Z</time></trkpt><trkpt lat="43.6489729" lon="10.6338231"><ele>16.6</ele><time>2026-04-27T11:28:39.332Z</time></trkpt><trkpt lat="43.6490734" lon="10.6338853"><ele>16.2</ele><time>2026-04-27T11:28:41.332Z</time></trkpt><trkpt lat="43.6491719" lon="10.6339558"><ele>15.8</ele><time>2026-04-27T11:28:43.325Z</time></trkpt><trkpt lat="43.6492662" lon="10.634026"><ele>15.4</ele><time>2026-04-27T11:28:45.326Z</time></trkpt><trkpt lat="43.6493577" lon="10.6340966"><ele>15.0</ele><time>2026-04-27T11:28:47.325Z</time></trkpt><trkpt lat="43.6494558" lon="10.6341606"><ele>15.0</ele><time>2026-04-27T11:28:49.319Z</time></trkpt><trkpt lat="43.6495485" lon="10.6342277"><ele>15.0</ele><time>2026-04-27T11:28:51.326Z</time></trkpt><trkpt lat="43.6496437" lon="10.6343032"><ele>15.0</ele><time>2026-04-27T11:28:53.325Z</time></trkpt><trkpt lat="43.6497463" lon="10.6343668"><ele>15.0</ele><time>2026-04-27T11:28:55.318Z</time></trkpt><trkpt lat="43.6498463" lon="10.6344245"><ele>15.0</ele><time>2026-04-27T11:28:57.32Z</time></trkpt><trkpt lat="43.6499481" lon="10.6344877"><ele>15.0</ele><time>2026-04-27T11:28:59.321Z</time></trkpt><trkpt lat="43.6500456" lon="10.6345528"><ele>15.0</ele><time>2026-04-27T11:29:01.316Z</time></trkpt><trkpt lat="43.6501478" lon="10.6346153"><ele>15.0</ele><time>2026-04-27T11:29:03.32Z</time></trkpt><trkpt lat="43.6502514" lon="10.6346806"><ele>15.0</ele><time>2026-04-27T11:29:05.325Z</time></trkpt><trkpt lat="43.6503549" lon="10.6347487"><ele>15.0</ele><time>2026-04-27T11:29:07.321Z</time></trkpt><trkpt lat="43.6504565" lon="10.6348128"><ele>15.0</ele><time>2026-04-27T11:29:09.337Z</time></trkpt><trkpt lat="43.650547" lon="10.6348946"><ele>15.0</ele><time>2026-04-27T11:29:11.327Z</time></trkpt><trkpt lat="43.650639" lon="10.6349669"><ele>15.0</ele><time>2026-04-27T11:29:13.33Z</time></trkpt><trkpt lat="43.6507294" lon="10.6350442"><ele>15.0</ele><time>2026-04-27T11:29:15.326Z</time></trkpt><trkpt lat="43.6508182" lon="10.6351387"><ele>15.0</ele><time>2026-04-27T11:29:17.322Z</time></trkpt><trkpt lat="43.6509033" lon="10.6352332"><ele>15.0</ele><time>2026-04-27T11:29:19.321Z</time></trkpt><trkpt lat="43.6509888" lon="10.6353257"><ele>15.0</ele><time>2026-04-27T11:29:21.33Z</time></trkpt><trkpt lat="43.6510691" lon="10.6354268"><ele>15.0</ele><time>2026-04-27T11:29:23.32Z</time></trkpt><trkpt lat="43.6511455" lon="10.6355353"><ele>15.0</ele><time>2026-04-27T11:29:25.322Z</time></trkpt><trkpt lat="43.6512224" lon="10.6356456"><ele>15.0</ele><time>2026-04-27T11:29:27.317Z</time></trkpt><trkpt lat="43.6512855" lon="10.635769"><ele>15.0</ele><time>2026-04-27T11:29:29.318Z</time></trkpt><trkpt lat="43.651352" lon="10.6358954"><ele>15.0</ele><time>2026-04-27T11:29:31.319Z</time></trkpt><trkpt lat="43.651416" lon="10.6360253"><ele>15.0</ele><time>2026-04-27T11:29:33.321Z</time></trkpt><trkpt lat="43.6514739" lon="10.6361612"><ele>15.0</ele><time>2026-04-27T11:29:35.317Z</time></trkpt><trkpt lat="43.6515323" lon="10.6362973"><ele>15.0</ele><time>2026-04-27T11:29:37.321Z</time></trkpt><trkpt lat="43.6515846" lon="10.6364351"><ele>15.0</ele><time>2026-04-27T11:29:39.321Z</time></trkpt><trkpt lat="43.6516361" lon="10.6365712"><ele>15.0</ele><time>2026-04-27T11:29:41.318Z</time></trkpt><trkpt lat="43.6516825" lon="10.6367137"><ele>15.0</ele><time>2026-04-27T11:29:43.319Z</time></trkpt><trkpt lat="43.6517251" lon="10.6368597"><ele>14.75</ele><time>2026-04-27T11:29:45.325Z</time></trkpt><trkpt lat="43.6517575" lon="10.6370125"><ele>14.5</ele><time>2026-04-27T11:29:47.321Z</time></trkpt><trkpt lat="43.6517816" lon="10.6371674"><ele>14.25</ele><time>2026-04-27T11:29:49.317Z</time></trkpt><trkpt lat="43.6518012" lon="10.6373227"><ele>14.0</ele><time>2026-04-27T11:29:51.326Z</time></trkpt><trkpt lat="43.6518107" lon="10.6374829"><ele>14.0</ele><time>2026-04-27T11:29:53.322Z</time></trkpt><trkpt lat="43.6518167" lon="10.6376452"><ele>14.0</ele><time>2026-04-27T11:29:55.324Z</time></trkpt><trkpt lat="43.6518204" lon="10.637812"><ele>14.0</ele><time>2026-04-27T11:29:57.331Z</time></trkpt><trkpt lat="43.651818" lon="10.637982"><ele>14.0</ele><time>2026-04-27T11:29:59.328Z</time></trkpt><trkpt lat="43.6518159" lon="10.6381521"><ele>13.75</ele><time>2026-04-27T11:30:01.331Z</time></trkpt><trkpt lat="43.6518117" lon="10.6383187"><ele>13.5</ele><time>2026-04-27T11:30:03.325Z</time></trkpt><trkpt lat="43.6518019" lon="10.6384848"><ele>13.25</ele><time>2026-04-27T11:30:05.328Z</time></trkpt><trkpt lat="43.651787" lon="10.638649"><ele>13.0</ele><time>2026-04-27T11:30:07.342Z</time></trkpt><trkpt lat="43.6517789" lon="10.6388113"><ele>13.0</ele><time>2026-04-27T11:30:09.336Z</time></trkpt><trkpt lat="43.6517688" lon="10.6389716"><ele>13.0</ele><time>2026-04-27T11:30:11.33Z</time></trkpt><trkpt lat="43.6517594" lon="10.6391344"><ele>13.0</ele><time>2026-04-27T11:30:13.329Z</time></trkpt><trkpt lat="43.6517528" lon="10.6392928"><ele>13.0</ele><time>2026-04-27T11:30:15.343Z</time></trkpt><trkpt lat="43.6517436" lon="10.6394509"><ele>13.0</ele><time>2026-04-27T11:30:17.345Z</time></trkpt><trkpt lat="43.6517361" lon="10.6396159"><ele>13.0</ele><time>2026-04-27T11:30:19.332Z</time></trkpt><trkpt lat="43.6517287" lon="10.6397786"><ele>13.0</ele><time>2026-04-27T11:30:21.328Z</time></trkpt><trkpt lat="43.6517149" lon="10.6399377"><ele>13.0</ele><time>2026-04-27T11:30:23.332Z</time></trkpt><trkpt lat="43.6516929" lon="10.6400916"><ele>13.0</ele><time>2026-04-27T11:30:25.329Z</time></trkpt><trkpt lat="43.6516675" lon="10.6402356"><ele>13.0</ele><time>2026-04-27T11:30:27.334Z</time></trkpt><trkpt lat="43.6516384" lon="10.6403745"><ele>13.0</ele><time>2026-04-27T11:30:29.33Z</time></trkpt><trkpt lat="43.651611" lon="10.6405126"><ele>13.0</ele><time>2026-04-27T11:30:31.332Z</time></trkpt><trkpt lat="43.651585" lon="10.6406607"><ele>13.0</ele><time>2026-04-27T11:30:33.33Z</time></trkpt><trkpt lat="43.6515594" lon="10.6408107"><ele>13.0</ele><time>2026-04-27T11:30:35.33Z</time></trkpt><trkpt lat="43.651534" lon="10.6409616"><ele>13.0</ele><time>2026-04-27T11:30:37.329Z</time></trkpt><trkpt lat="43.6515105" lon="10.641114"><ele>13.0</ele><time>2026-04-27T11:30:39.333Z</time></trkpt><trkpt lat="43.6514964" lon="10.6412717"><ele>13.0</ele><time>2026-04-27T11:30:41.327Z</time></trkpt><trkpt lat="43.6515384" lon="10.641422"><ele>13.333333333333332</ele><time>2026-04-27T11:30:43.329Z</time></trkpt><trkpt lat="43.6515969" lon="10.6414621"><ele>13.666666666666666</ele><time>2026-04-27T11:30:44.326Z</time></trkpt><trkpt lat="43.6516617" lon="10.641477"><ele>14.0</ele><time>2026-04-27T11:30:45.321Z</time></trkpt><trkpt lat="43.6517263" lon="10.6414809"><ele>14.333333333333332</ele><time>2026-04-27T11:30:46.325Z</time></trkpt><trkpt lat="43.6517899" lon="10.6414884"><ele>14.666666666666666</ele><time>2026-04-27T11:30:47.324Z</time></trkpt><trkpt lat="43.6519124" lon="10.641503"><ele>15.0</ele><time>2026-04-27T11:30:49.331Z</time></trkpt><trkpt lat="43.6520281" lon="10.6415161"><ele>15.0</ele><time>2026-04-27T11:30:51.325Z</time></trkpt><trkpt lat="43.6521455" lon="10.6415253"><ele>15.0</ele><time>2026-04-27T11:30:53.328Z</time></trkpt><trkpt lat="43.6522611" lon="10.6415366"><ele>15.0</ele><time>2026-04-27T11:30:55.32Z</time></trkpt><trkpt lat="43.6523665" lon="10.6415331"><ele>15.0</ele><time>2026-04-27T11:30:57.325Z</time></trkpt><trkpt lat="43.6524739" lon="10.6415058"><ele>15.0</ele><time>2026-04-27T11:30:59.327Z</time></trkpt><trkpt lat="43.6525777" lon="10.6414492"><ele>15.0</ele><time>2026-04-27T11:31:01.332Z</time></trkpt><trkpt lat="43.6526766" lon="10.6413677"><ele>15.0</ele><time>2026-04-27T11:31:03.342Z</time></trkpt><trkpt lat="43.6527686" lon="10.6412686"><ele>15.0</ele><time>2026-04-27T11:31:05.333Z</time></trkpt><trkpt lat="43.652866" lon="10.6411773"><ele>15.0</ele><time>2026-04-27T11:31:07.34Z</time></trkpt><trkpt lat="43.6529549" lon="10.6410914"><ele>14.8</ele><time>2026-04-27T11:31:09.337Z</time></trkpt><trkpt lat="43.6530441" lon="10.6409978"><ele>14.6</ele><time>2026-04-27T11:31:11.34Z</time></trkpt><trkpt lat="43.6531372" lon="10.6409116"><ele>14.399999999999999</ele><time>2026-04-27T11:31:13.329Z</time></trkpt><trkpt lat="43.6532269" lon="10.6408256"><ele>14.2</ele><time>2026-04-27T11:31:15.332Z</time></trkpt><trkpt lat="43.6533189" lon="10.6407349"><ele>14.0</ele><time>2026-04-27T11:31:17.334Z</time></trkpt><trkpt lat="43.6534069" lon="10.6406428"><ele>14.0</ele><time>2026-04-27T11:31:19.335Z</time></trkpt><trkpt lat="43.6534943" lon="10.6405456"><ele>13.999999999999998</ele><time>2026-04-27T11:31:21.341Z</time></trkpt><trkpt lat="43.6535845" lon="10.6404592"><ele>13.999999999999998</ele><time>2026-04-27T11:31:23.34Z</time></trkpt><trkpt lat="43.6536834" lon="10.6403868"><ele>14.0</ele><time>2026-04-27T11:31:25.334Z</time></trkpt><trkpt lat="43.6537831" lon="10.6403331"><ele>14.0</ele><time>2026-04-27T11:31:27.337Z</time></trkpt><trkpt lat="43.6538765" lon="10.6402752"><ele>14.6</ele><time>2026-04-27T11:31:29.34Z</time></trkpt><trkpt lat="43.653978" lon="10.6402305"><ele>15.2</ele><time>2026-04-27T11:31:31.326Z</time></trkpt><trkpt lat="43.6540713" lon="10.6401818"><ele>15.799999999999999</ele><time>2026-04-27T11:31:33.329Z</time></trkpt><trkpt lat="43.6541658" lon="10.6401533"><ele>16.4</ele><time>2026-04-27T11:31:35.328Z</time></trkpt><trkpt lat="43.6542641" lon="10.6401215"><ele>17.0</ele><time>2026-04-27T11:31:37.331Z</time></trkpt><trkpt lat="43.6543599" lon="10.6400919"><ele>16.4</ele><time>2026-04-27T11:31:39.331Z</time></trkpt><trkpt lat="43.6544677" lon="10.6400789"><ele>15.799999999999999</ele><time>2026-04-27T11:31:41.334Z</time></trkpt><trkpt lat="43.6545781" lon="10.6400761"><ele>15.2</ele><time>2026-04-27T11:31:43.331Z</time></trkpt><trkpt lat="43.6546905" lon="10.6400811"><ele>14.6</ele><time>2026-04-27T11:31:45.333Z</time></trkpt><trkpt lat="43.6548038" lon="10.640102"><ele>14.0</ele><time>2026-04-27T11:31:47.329Z</time></trkpt><trkpt lat="43.6549154" lon="10.6401226"><ele>14.0</ele><time>2026-04-27T11:31:49.332Z</time></trkpt><trkpt lat="43.6550291" lon="10.6401397"><ele>13.999999999999998</ele><time>2026-04-27T11:31:51.331Z</time></trkpt><trkpt lat="43.65514" lon="10.6401544"><ele>13.999999999999998</ele><time>2026-04-27T11:31:53.329Z</time></trkpt><trkpt lat="43.655249" lon="10.640166"><ele>14.0</ele><time>2026-04-27T11:31:55.328Z</time></trkpt><trkpt lat="43.6553578" lon="10.6401654"><ele>14.0</ele><time>2026-04-27T11:31:57.329Z</time></trkpt><trkpt lat="43.6554702" lon="10.640155"><ele>14.5</ele><time>2026-04-27T11:31:59.329Z</time></trkpt><trkpt lat="43.6555838" lon="10.6401399"><ele>15.0</ele><time>2026-04-27T11:32:01.334Z</time></trkpt><trkpt lat="43.6556921" lon="10.6401262"><ele>15.5</ele><time>2026-04-27T11:32:03.332Z</time></trkpt><trkpt lat="43.6558051" lon="10.6401048"><ele>16.0</ele><time>2026-04-27T11:32:05.325Z</time></trkpt><trkpt lat="43.6559187" lon="10.6400897"><ele>16.0</ele><time>2026-04-27T11:32:07.336Z</time></trkpt><trkpt lat="43.6560237" lon="10.6400721"><ele>16.0</ele><time>2026-04-27T11:32:09.333Z</time></trkpt><trkpt lat="43.6561361" lon="10.6400601"><ele>16.0</ele><time>2026-04-27T11:32:11.344Z</time></trkpt><trkpt lat="43.6562497" lon="10.6400468"><ele>16.0</ele><time>2026-04-27T11:32:13.324Z</time></trkpt><trkpt lat="43.6563654" lon="10.6400341"><ele>16.0</ele><time>2026-04-27T11:32:15.328Z</time></trkpt><trkpt lat="43.6564767" lon="10.6400299"><ele>16.25</ele><time>2026-04-27T11:32:17.319Z</time></trkpt><trkpt lat="43.6565894" lon="10.6400267"><ele>16.5</ele><time>2026-04-27T11:32:19.325Z</time></trkpt><trkpt lat="43.6567086" lon="10.6400178"><ele>16.75</ele><time>2026-04-27T11:32:21.331Z</time></trkpt><trkpt lat="43.6568269" lon="10.6400109"><ele>17.0</ele><time>2026-04-27T11:32:23.344Z</time></trkpt><trkpt lat="43.6569439" lon="10.6400006"><ele>16.8</ele><time>2026-04-27T11:32:25.329Z</time></trkpt><trkpt lat="43.6570644" lon="10.6399974"><ele>16.6</ele><time>2026-04-27T11:32:27.327Z</time></trkpt><trkpt lat="43.6571276" lon="10.6400005"><ele>16.400000000000002</ele><time>2026-04-27T11:32:28.332Z</time></trkpt><trkpt lat="43.6572484" lon="10.6400013"><ele>16.2</ele><time>2026-04-27T11:32:30.337Z</time></trkpt><trkpt lat="43.6573615" lon="10.6399921"><ele>16.0</ele><time>2026-04-27T11:32:32.324Z</time></trkpt><trkpt lat="43.6574699" lon="10.6399828"><ele>16.0</ele><time>2026-04-27T11:32:34.327Z</time></trkpt><trkpt lat="43.6575773" lon="10.6399644"><ele>16.0</ele><time>2026-04-27T11:32:36.335Z</time></trkpt><trkpt lat="43.6576897" lon="10.6399546"><ele>16.0</ele><time>2026-04-27T11:32:38.331Z</time></trkpt><trkpt lat="43.657803" lon="10.6399435"><ele>16.0</ele><time>2026-04-27T11:32:40.342Z</time></trkpt><trkpt lat="43.6579179" lon="10.6399312"><ele>15.75</ele><time>2026-04-27T11:32:42.345Z</time></trkpt><trkpt lat="43.6580353" lon="10.6399237"><ele>15.5</ele><time>2026-04-27T11:32:44.342Z</time></trkpt><trkpt lat="43.6581506" lon="10.6399109"><ele>15.25</ele><time>2026-04-27T11:32:46.337Z</time></trkpt><trkpt lat="43.6582648" lon="10.6398935"><ele>15.0</ele><time>2026-04-27T11:32:48.327Z</time></trkpt><trkpt lat="43.6583837" lon="10.639886"><ele>15.0</ele><time>2026-04-27T11:32:50.347Z</time></trkpt><trkpt lat="43.6584975" lon="10.6398804"><ele>15.0</ele><time>2026-04-27T11:32:52.346Z</time></trkpt><trkpt lat="43.6586098" lon="10.6398759"><ele>15.0</ele><time>2026-04-27T11:32:54.332Z</time></trkpt><trkpt lat="43.6587213" lon="10.6398686"><ele>15.0</ele><time>2026-04-27T11:32:56.333Z</time></trkpt><trkpt lat="43.6588284" lon="10.6398602"><ele>15.0</ele><time>2026-04-27T11:32:58.333Z</time></trkpt><trkpt lat="43.6589316" lon="10.639854"><ele>15.0</ele><time>2026-04-27T11:33:00.333Z</time></trkpt><trkpt lat="43.6590305" lon="10.63985"><ele>15.0</ele><time>2026-04-27T11:33:02.33Z</time></trkpt><trkpt lat="43.659121" lon="10.639844"><ele>15.0</ele><time>2026-04-27T11:33:04.328Z</time></trkpt><trkpt lat="43.6592038" lon="10.6398295"><ele>15.0</ele><time>2026-04-27T11:33:06.351Z</time></trkpt><trkpt lat="43.6592915" lon="10.6398161"><ele>15.0</ele><time>2026-04-27T11:33:08.338Z</time></trkpt><trkpt lat="43.659385" lon="10.6398244"><ele>15.2</ele><time>2026-04-27T11:33:10.334Z</time></trkpt><trkpt lat="43.6594853" lon="10.6398181"><ele>15.4</ele><time>2026-04-27T11:33:12.334Z</time></trkpt><trkpt lat="43.6595945" lon="10.6398067"><ele>15.600000000000001</ele><time>2026-04-27T11:33:14.325Z</time></trkpt><trkpt lat="43.6597043" lon="10.6397973"><ele>15.8</ele><time>2026-04-27T11:33:16.334Z</time></trkpt><trkpt lat="43.6598172" lon="10.6397864"><ele>16.0</ele><time>2026-04-27T11:33:18.331Z</time></trkpt><trkpt lat="43.6599177" lon="10.6397941"><ele>16.0</ele><time>2026-04-27T11:33:20.332Z</time></trkpt><trkpt lat="43.6600133" lon="10.6398051"><ele>16.0</ele><time>2026-04-27T11:33:22.33Z</time></trkpt><trkpt lat="43.6601109" lon="10.639806"><ele>16.0</ele><time>2026-04-27T11:33:24.335Z</time></trkpt><trkpt lat="43.6602072" lon="10.639806"><ele>16.0</ele><time>2026-04-27T11:33:26.333Z</time></trkpt><trkpt lat="43.6603099" lon="10.6398127"><ele>16.0</ele><time>2026-04-27T11:33:28.334Z</time></trkpt><trkpt lat="43.6604137" lon="10.6398312"><ele>16.166666666666664</ele><time>2026-04-27T11:33:30.335Z</time></trkpt><trkpt lat="43.660519" lon="10.6398381"><ele>16.333333333333332</ele><time>2026-04-27T11:33:32.335Z</time></trkpt><trkpt lat="43.6606033" lon="10.6398489"><ele>16.5</ele><time>2026-04-27T11:33:34.336Z</time></trkpt><trkpt lat="43.6605657" lon="10.639936"><ele>16.666666666666668</ele><time>2026-04-27T11:33:50.341Z</time></trkpt><trkpt lat="43.6604926" lon="10.6399617"><ele>16.833333333333336</ele><time>2026-04-27T11:33:53.338Z</time></trkpt><trkpt lat="43.6605644" lon="10.6400169"><ele>17.0</ele><time>2026-04-27T11:33:57.335Z</time></trkpt><trkpt lat="43.6606294" lon="10.6400283"><ele>17.0</ele><time>2026-04-27T11:34:00.344Z</time></trkpt><trkpt lat="43.6606942" lon="10.6400651"><ele>17.0</ele><time>2026-04-27T11:34:08.338Z</time></trkpt><trkpt lat="43.6607514" lon="10.6401258"><ele>17.0</ele><time>2026-04-27T11:34:12.334Z</time></trkpt><trkpt lat="43.6608308" lon="10.6401146"><ele>17.0</ele><time>2026-04-27T11:34:17.33Z</time></trkpt><trkpt lat="43.6609248" lon="10.6401126"><ele>17.0</ele><time>2026-04-27T11:34:20.332Z</time></trkpt><trkpt lat="43.6610023" lon="10.6401261"><ele>17.0</ele><time>2026-04-27T11:34:22.34Z</time></trkpt><trkpt lat="43.6610869" lon="10.6401258"><ele>16.833333333333336</ele><time>2026-04-27T11:34:24.329Z</time></trkpt><trkpt lat="43.661172" lon="10.6401333"><ele>16.666666666666668</ele><time>2026-04-27T11:34:26.341Z</time></trkpt><trkpt lat="43.6612593" lon="10.6401533"><ele>16.5</ele><time>2026-04-27T11:34:28.334Z</time></trkpt><trkpt lat="43.6613497" lon="10.6401707"><ele>16.333333333333332</ele><time>2026-04-27T11:34:30.335Z</time></trkpt><trkpt lat="43.6614357" lon="10.6401902"><ele>16.166666666666664</ele><time>2026-04-27T11:34:32.334Z</time></trkpt><trkpt lat="43.6615247" lon="10.6402079"><ele>16.0</ele><time>2026-04-27T11:34:34.337Z</time></trkpt><trkpt lat="43.6616124" lon="10.6402257"><ele>16.0</ele><time>2026-04-27T11:34:36.338Z</time></trkpt><trkpt lat="43.6617058" lon="10.6402439"><ele>16.0</ele><time>2026-04-27T11:34:38.331Z</time></trkpt><trkpt lat="43.661798" lon="10.6402631"><ele>16.0</ele><time>2026-04-27T11:34:40.335Z</time></trkpt><trkpt lat="43.6618883" lon="10.640288"><ele>16.0</ele><time>2026-04-27T11:34:42.331Z</time></trkpt><trkpt lat="43.6619817" lon="10.6402818"><ele>16.0</ele><time>2026-04-27T11:34:44.329Z</time></trkpt><trkpt lat="43.6620797" lon="10.6402817"><ele>15.8</ele><time>2026-04-27T11:34:46.331Z</time></trkpt><trkpt lat="43.6621796" lon="10.6402972"><ele>15.600000000000001</ele><time>2026-04-27T11:34:48.329Z</time></trkpt><trkpt lat="43.6622799" lon="10.6403194"><ele>15.4</ele><time>2026-04-27T11:34:50.325Z</time></trkpt><trkpt lat="43.6623855" lon="10.6403358"><ele>15.2</ele><time>2026-04-27T11:34:52.328Z</time></trkpt><trkpt lat="43.6624941" lon="10.640358"><ele>15.0</ele><time>2026-04-27T11:34:54.321Z</time></trkpt><trkpt lat="43.6626021" lon="10.6403726"><ele>15.0</ele><time>2026-04-27T11:34:56.324Z</time></trkpt><trkpt lat="43.662711" lon="10.6403913"><ele>15.0</ele><time>2026-04-27T11:34:58.328Z</time></trkpt><trkpt lat="43.6628173" lon="10.6404161"><ele>15.0</ele><time>2026-04-27T11:35:00.326Z</time></trkpt><trkpt lat="43.6629203" lon="10.6404465"><ele>15.0</ele><time>2026-04-27T11:35:02.324Z</time></trkpt><trkpt lat="43.6630215" lon="10.640469"><ele>15.0</ele><time>2026-04-27T11:35:04.325Z</time></trkpt><trkpt lat="43.6631271" lon="10.6404819"><ele>15.0</ele><time>2026-04-27T11:35:06.324Z</time></trkpt><trkpt lat="43.6632349" lon="10.6404991"><ele>15.0</ele><time>2026-04-27T11:35:08.326Z</time></trkpt><trkpt lat="43.663337" lon="10.6405145"><ele>15.0</ele><time>2026-04-27T11:35:10.326Z</time></trkpt><trkpt lat="43.6634206" lon="10.6405236"><ele>15.0</ele><time>2026-04-27T11:35:12.333Z</time></trkpt><trkpt lat="43.6634838" lon="10.6405261"><ele>15.0</ele><time>2026-04-27T11:35:14.333Z</time></trkpt><trkpt lat="43.6635603" lon="10.6405404"><ele>15.0</ele><time>2026-04-27T11:35:17.332Z</time></trkpt><trkpt lat="43.6636398" lon="10.6405641"><ele>15.166666666666666</ele><time>2026-04-27T11:35:20.339Z</time></trkpt><trkpt lat="43.6637124" lon="10.6406053"><ele>15.333333333333332</ele><time>2026-04-27T11:35:23.332Z</time></trkpt><trkpt lat="43.6637532" lon="10.6407002"><ele>15.5</ele><time>2026-04-27T11:35:27.331Z</time></trkpt><trkpt lat="43.6637499" lon="10.6408106"><ele>15.666666666666666</ele><time>2026-04-27T11:35:30.333Z</time></trkpt><trkpt lat="43.663747" lon="10.6409236"><ele>15.833333333333332</ele><time>2026-04-27T11:35:33.335Z</time></trkpt><trkpt lat="43.6637447" lon="10.6410306"><ele>16.0</ele><time>2026-04-27T11:35:36.348Z</time></trkpt><trkpt lat="43.6637438" lon="10.6411374"><ele>16.166666666666664</ele><time>2026-04-27T11:35:38.335Z</time></trkpt><trkpt lat="43.6637361" lon="10.6412665"><ele>16.333333333333332</ele><time>2026-04-27T11:35:40.345Z</time></trkpt><trkpt lat="43.66374" lon="10.6414065"><ele>16.5</ele><time>2026-04-27T11:35:42.328Z</time></trkpt><trkpt lat="43.6637419" lon="10.6415352"><ele>16.666666666666668</ele><time>2026-04-27T11:35:44.328Z</time></trkpt><trkpt lat="43.6637437" lon="10.6416397"><ele>16.833333333333336</ele><time>2026-04-27T11:38:12.337Z</time></trkpt><trkpt lat="43.6637446" lon="10.6417457"><ele>17.0</ele><time>2026-04-27T11:38:15.324Z</time></trkpt><trkpt lat="43.6636873" lon="10.6417821"><ele>17.0</ele><time>2026-04-27T11:38:17.323Z</time></trkpt><trkpt lat="43.6635796" lon="10.6417683"><ele>17.0</ele><time>2026-04-27T11:38:19.321Z</time></trkpt><trkpt lat="43.6634689" lon="10.6417533"><ele>17.0</ele><time>2026-04-27T11:38:21.34Z</time></trkpt><trkpt lat="43.6633514" lon="10.6417547"><ele>17.0</ele><time>2026-04-27T11:38:23.317Z</time></trkpt><trkpt lat="43.6632371" lon="10.641759"><ele>17.0</ele><time>2026-04-27T11:38:25.314Z</time></trkpt><trkpt lat="43.6631312" lon="10.6417497"><ele>17.0</ele><time>2026-04-27T11:38:27.312Z</time></trkpt><trkpt lat="43.6630305" lon="10.6417395"><ele>17.0</ele><time>2026-04-27T11:38:29.314Z</time></trkpt><trkpt lat="43.6629302" lon="10.6417301"><ele>17.0</ele><time>2026-04-27T11:38:31.307Z</time></trkpt><trkpt lat="43.6628218" lon="10.6417188"><ele>17.0</ele><time>2026-04-27T11:38:33.301Z</time></trkpt><trkpt lat="43.6627122" lon="10.6417098"><ele>17.0</ele><time>2026-04-27T11:38:35.305Z</time></trkpt><trkpt lat="43.662607" lon="10.641691"><ele>17.0</ele><time>2026-04-27T11:38:37.308Z</time></trkpt><trkpt lat="43.6624987" lon="10.6416718"><ele>17.0</ele><time>2026-04-27T11:38:39.309Z</time></trkpt><trkpt lat="43.6623875" lon="10.6416618"><ele>17.0</ele><time>2026-04-27T11:38:41.311Z</time></trkpt><trkpt lat="43.6622756" lon="10.6416394"><ele>17.0</ele><time>2026-04-27T11:38:43.314Z</time></trkpt><trkpt lat="43.6621578" lon="10.6416197"><ele>17.0</ele><time>2026-04-27T11:38:45.31Z</time></trkpt><trkpt lat="43.6620441" lon="10.6415929"><ele>17.0</ele><time>2026-04-27T11:38:47.311Z</time></trkpt><trkpt lat="43.6619342" lon="10.6415591"><ele>17.0</ele><time>2026-04-27T11:38:49.316Z</time></trkpt><trkpt lat="43.6618196" lon="10.6415302"><ele>17.0</ele><time>2026-04-27T11:38:51.327Z</time></trkpt><trkpt lat="43.6617045" lon="10.6415079"><ele>17.0</ele><time>2026-04-27T11:38:53.327Z</time></trkpt><trkpt lat="43.6615984" lon="10.64148"><ele>17.0</ele><time>2026-04-27T11:38:55.315Z</time></trkpt><trkpt lat="43.6614959" lon="10.6414464"><ele>17.0</ele><time>2026-04-27T11:38:57.317Z</time></trkpt><trkpt lat="43.6613938" lon="10.6414236"><ele>17.0</ele><time>2026-04-27T11:38:59.32Z</time></trkpt><trkpt lat="43.6613026" lon="10.6414018"><ele>17.0</ele><time>2026-04-27T11:39:01.323Z</time></trkpt><trkpt lat="43.6612091" lon="10.6413825"><ele>16.8</ele><time>2026-04-27T11:39:03.324Z</time></trkpt><trkpt lat="43.6611152" lon="10.6413673"><ele>16.6</ele><time>2026-04-27T11:39:05.329Z</time></trkpt><trkpt lat="43.6610183" lon="10.6413485"><ele>16.400000000000002</ele><time>2026-04-27T11:39:07.325Z</time></trkpt><trkpt lat="43.6608988" lon="10.641329"><ele>16.2</ele><time>2026-04-27T11:39:09.312Z</time></trkpt><trkpt lat="43.6608326" lon="10.6413185"><ele>16.0</ele><time>2026-04-27T11:39:10.316Z</time></trkpt><trkpt lat="43.6607591" lon="10.6413079"><ele>15.999999999999998</ele><time>2026-04-27T11:39:11.317Z</time></trkpt><trkpt lat="43.6606806" lon="10.6412895"><ele>16.0</ele><time>2026-04-27T11:39:12.323Z</time></trkpt><trkpt lat="43.6606037" lon="10.6412721"><ele>16.0</ele><time>2026-04-27T11:39:13.301Z</time></trkpt><trkpt lat="43.6605261" lon="10.6412598"><ele>16.0</ele><time>2026-04-27T11:39:14.309Z</time></trkpt><trkpt lat="43.66045" lon="10.6412467"><ele>15.999999999999998</ele><time>2026-04-27T11:39:15.306Z</time></trkpt><trkpt lat="43.660374" lon="10.6412333"><ele>16.0</ele><time>2026-04-27T11:39:16.31Z</time></trkpt><trkpt lat="43.6603065" lon="10.6412232"><ele>15.4</ele><time>2026-04-27T11:39:17.315Z</time></trkpt><trkpt lat="43.6601914" lon="10.6412001"><ele>14.8</ele><time>2026-04-27T11:39:19.313Z</time></trkpt><trkpt lat="43.6600847" lon="10.6411886"><ele>14.200000000000001</ele><time>2026-04-27T11:39:21.321Z</time></trkpt><trkpt lat="43.6599923" lon="10.6411787"><ele>13.600000000000001</ele><time>2026-04-27T11:39:23.33Z</time></trkpt><trkpt lat="43.6599086" lon="10.6411629"><ele>13.0</ele><time>2026-04-27T11:39:25.326Z</time></trkpt><trkpt lat="43.6598269" lon="10.6411406"><ele>13.2</ele><time>2026-04-27T11:39:27.337Z</time></trkpt><trkpt lat="43.6597388" lon="10.6411179"><ele>13.4</ele><time>2026-04-27T11:39:29.333Z</time></trkpt><trkpt lat="43.6596428" lon="10.6410967"><ele>13.599999999999998</ele><time>2026-04-27T11:39:31.324Z</time></trkpt><trkpt lat="43.6595481" lon="10.6410803"><ele>13.799999999999999</ele><time>2026-04-27T11:39:33.327Z</time></trkpt><trkpt lat="43.6594467" lon="10.6410636"><ele>14.0</ele><time>2026-04-27T11:39:35.324Z</time></trkpt><trkpt lat="43.6593487" lon="10.6410429"><ele>14.0</ele><time>2026-04-27T11:39:37.326Z</time></trkpt><trkpt lat="43.6592487" lon="10.6410179"><ele>13.999999999999998</ele><time>2026-04-27T11:39:39.325Z</time></trkpt><trkpt lat="43.6591487" lon="10.6409974"><ele>13.999999999999998</ele><time>2026-04-27T11:39:41.329Z</time></trkpt><trkpt lat="43.6590442" lon="10.6409838"><ele>14.0</ele><time>2026-04-27T11:39:43.331Z</time></trkpt><trkpt lat="43.6589368" lon="10.640964"><ele>14.0</ele><time>2026-04-27T11:39:45.332Z</time></trkpt><trkpt lat="43.658829" lon="10.64095"><ele>14.0</ele><time>2026-04-27T11:39:47.328Z</time></trkpt><trkpt lat="43.6587302" lon="10.6409325"><ele>13.999999999999998</ele><time>2026-04-27T11:39:49.333Z</time></trkpt><trkpt lat="43.6586256" lon="10.6409161"><ele>13.999999999999998</ele><time>2026-04-27T11:39:51.339Z</time></trkpt><trkpt lat="43.6585138" lon="10.6408936"><ele>14.0</ele><time>2026-04-27T11:39:53.334Z</time></trkpt><trkpt lat="43.6584054" lon="10.6408745"><ele>14.0</ele><time>2026-04-27T11:39:55.348Z</time></trkpt><trkpt lat="43.6582948" lon="10.6408551"><ele>14.0</ele><time>2026-04-27T11:39:57.333Z</time></trkpt><trkpt lat="43.6581875" lon="10.640841"><ele>13.999999999999998</ele><time>2026-04-27T11:39:59.332Z</time></trkpt><trkpt lat="43.6580822" lon="10.6408313"><ele>13.999999999999998</ele><time>2026-04-27T11:40:01.331Z</time></trkpt><trkpt lat="43.6579785" lon="10.6408249"><ele>14.0</ele><time>2026-04-27T11:40:03.328Z</time></trkpt><trkpt lat="43.6578708" lon="10.6408209"><ele>14.0</ele><time>2026-04-27T11:40:05.332Z</time></trkpt><trkpt lat="43.6577645" lon="10.6408283"><ele>14.0</ele><time>2026-04-27T11:40:07.333Z</time></trkpt><trkpt lat="43.6576579" lon="10.6408446"><ele>13.999999999999998</ele><time>2026-04-27T11:40:09.331Z</time></trkpt><trkpt lat="43.6575525" lon="10.6408684"><ele>13.999999999999998</ele><time>2026-04-27T11:40:11.342Z</time></trkpt><trkpt lat="43.6574459" lon="10.6408913"><ele>14.0</ele><time>2026-04-27T11:40:13.343Z</time></trkpt><trkpt lat="43.6573392" lon="10.640922"><ele>14.0</ele><time>2026-04-27T11:40:15.336Z</time></trkpt><trkpt lat="43.6572379" lon="10.6409535"><ele>14.0</ele><time>2026-04-27T11:40:17.337Z</time></trkpt><trkpt lat="43.6571378" lon="10.6409833"><ele>13.999999999999998</ele><time>2026-04-27T11:40:19.333Z</time></trkpt><trkpt lat="43.6570325" lon="10.6410091"><ele>13.999999999999998</ele><time>2026-04-27T11:40:21.33Z</time></trkpt><trkpt lat="43.6569276" lon="10.6410387"><ele>14.0</ele><time>2026-04-27T11:40:23.334Z</time></trkpt><trkpt lat="43.6568266" lon="10.64107"><ele>14.0</ele><time>2026-04-27T11:40:25.34Z</time></trkpt><trkpt lat="43.6567401" lon="10.64109"><ele>13.833333333333334</ele><time>2026-04-27T11:40:27.347Z</time></trkpt><trkpt lat="43.6566619" lon="10.6411098"><ele>13.666666666666668</ele><time>2026-04-27T11:40:29.346Z</time></trkpt><trkpt lat="43.6565872" lon="10.6411341"><ele>13.5</ele><time>2026-04-27T11:40:31.344Z</time></trkpt><trkpt lat="43.6565304" lon="10.6411892"><ele>13.333333333333332</ele><time>2026-04-27T11:40:33.353Z</time></trkpt><trkpt lat="43.6565282" lon="10.6413199"><ele>13.166666666666666</ele><time>2026-04-27T11:40:35.345Z</time></trkpt><trkpt lat="43.6565385" lon="10.6414853"><ele>13.0</ele><time>2026-04-27T11:40:37.329Z</time></trkpt><trkpt lat="43.6565419" lon="10.6415787"><ele>13.0</ele><time>2026-04-27T11:40:38.336Z</time></trkpt><trkpt lat="43.6565453" lon="10.6416744"><ele>13.0</ele><time>2026-04-27T11:40:39.338Z</time></trkpt><trkpt lat="43.6565463" lon="10.6417731"><ele>13.0</ele><time>2026-04-27T11:40:40.336Z</time></trkpt><trkpt lat="43.6565371" lon="10.6418744"><ele>13.0</ele><time>2026-04-27T11:40:41.345Z</time></trkpt><trkpt lat="43.6565185" lon="10.6419725"><ele>13.0</ele><time>2026-04-27T11:40:42.334Z</time></trkpt><trkpt lat="43.6564947" lon="10.6420663"><ele>13.0</ele><time>2026-04-27T11:40:43.331Z</time></trkpt><trkpt lat="43.6564692" lon="10.6421607"><ele>13.0</ele><time>2026-04-27T11:40:44.328Z</time></trkpt><trkpt lat="43.6564439" lon="10.6422486"><ele>13.0</ele><time>2026-04-27T11:40:45.328Z</time></trkpt><trkpt lat="43.6564145" lon="10.6423345"><ele>13.0</ele><time>2026-04-27T11:40:46.328Z</time></trkpt><trkpt lat="43.6563863" lon="10.6424245"><ele>13.0</ele><time>2026-04-27T11:40:47.328Z</time></trkpt><trkpt lat="43.656358" lon="10.6425114"><ele>13.0</ele><time>2026-04-27T11:40:48.331Z</time></trkpt><trkpt lat="43.6563226" lon="10.6425975"><ele>13.0</ele><time>2026-04-27T11:40:49.332Z</time></trkpt><trkpt lat="43.65629" lon="10.6426853"><ele>13.0</ele><time>2026-04-27T11:40:50.331Z</time></trkpt><trkpt lat="43.656263" lon="10.642773"><ele>13.0</ele><time>2026-04-27T11:40:51.342Z</time></trkpt><trkpt lat="43.6562401" lon="10.6428614"><ele>13.0</ele><time>2026-04-27T11:40:52.331Z</time></trkpt><trkpt lat="43.6562165" lon="10.6429492"><ele>13.0</ele><time>2026-04-27T11:40:53.33Z</time></trkpt><trkpt lat="43.6561954" lon="10.6430386"><ele>13.0</ele><time>2026-04-27T11:40:54.326Z</time></trkpt><trkpt lat="43.6561774" lon="10.6431254"><ele>13.0</ele><time>2026-04-27T11:40:55.34Z</time></trkpt><trkpt lat="43.6561628" lon="10.6432141"><ele>13.0</ele><time>2026-04-27T11:40:56.338Z</time></trkpt><trkpt lat="43.6561498" lon="10.6433037"><ele>13.0</ele><time>2026-04-27T11:40:57.329Z</time></trkpt><trkpt lat="43.6561397" lon="10.6433925"><ele>13.0</ele><time>2026-04-27T11:40:58.331Z</time></trkpt><trkpt lat="43.6561317" lon="10.643481"><ele>13.75</ele><time>2026-04-27T11:40:59.336Z</time></trkpt><trkpt lat="43.6561155" lon="10.6436459"><ele>14.5</ele><time>2026-04-27T11:41:01.345Z</time></trkpt><trkpt lat="43.6560915" lon="10.6438085"><ele>15.25</ele><time>2026-04-27T11:41:03.326Z</time></trkpt><trkpt lat="43.6560695" lon="10.6439551"><ele>16.0</ele><time>2026-04-27T11:41:05.331Z</time></trkpt><trkpt lat="43.6560473" lon="10.6441097"><ele>16.0</ele><time>2026-04-27T11:41:07.331Z</time></trkpt><trkpt lat="43.6560207" lon="10.6442722"><ele>16.0</ele><time>2026-04-27T11:41:09.337Z</time></trkpt><trkpt lat="43.6560056" lon="10.6444394"><ele>16.0</ele><time>2026-04-27T11:41:11.339Z</time></trkpt><trkpt lat="43.6559855" lon="10.6446061"><ele>16.0</ele><time>2026-04-27T11:41:13.333Z</time></trkpt><trkpt lat="43.6559641" lon="10.6447755"><ele>16.0</ele><time>2026-04-27T11:41:15.326Z</time></trkpt><trkpt lat="43.6559436" lon="10.6449471"><ele>16.0</ele><time>2026-04-27T11:41:17.327Z</time></trkpt><trkpt lat="43.6559318" lon="10.6450331"><ele>16.0</ele><time>2026-04-27T11:41:18.327Z</time></trkpt><trkpt lat="43.6559102" lon="10.6452044"><ele>16.0</ele><time>2026-04-27T11:41:20.33Z</time></trkpt><trkpt lat="43.6558976" lon="10.6452922"><ele>16.0</ele><time>2026-04-27T11:41:21.345Z</time></trkpt><trkpt lat="43.6558726" lon="10.6454623"><ele>15.833333333333332</ele><time>2026-04-27T11:41:23.326Z</time></trkpt><trkpt lat="43.6558613" lon="10.6455488"><ele>15.666666666666666</ele><time>2026-04-27T11:41:24.329Z</time></trkpt><trkpt lat="43.6558401" lon="10.6457153"><ele>15.5</ele><time>2026-04-27T11:41:26.326Z</time></trkpt><trkpt lat="43.6558208" lon="10.6458854"><ele>15.333333333333332</ele><time>2026-04-27T11:41:28.33Z</time></trkpt><trkpt lat="43.65581" lon="10.6459716"><ele>15.166666666666666</ele><time>2026-04-27T11:41:29.325Z</time></trkpt><trkpt lat="43.6557984" lon="10.6460573"><ele>15.0</ele><time>2026-04-27T11:41:30.327Z</time></trkpt><trkpt lat="43.6557795" lon="10.6462284"><ele>14.833333333333334</ele><time>2026-04-27T11:41:32.328Z</time></trkpt><trkpt lat="43.6557684" lon="10.6463152"><ele>14.666666666666668</ele><time>2026-04-27T11:41:33.332Z</time></trkpt><trkpt lat="43.6557551" lon="10.6464017"><ele>14.5</ele><time>2026-04-27T11:41:34.327Z</time></trkpt><trkpt lat="43.6557366" lon="10.6464874"><ele>14.333333333333334</ele><time>2026-04-27T11:41:35.325Z</time></trkpt><trkpt lat="43.655718" lon="10.6465707"><ele>14.166666666666668</ele><time>2026-04-27T11:41:36.323Z</time></trkpt><trkpt lat="43.6556781" lon="10.646732"><ele>14.0</ele><time>2026-04-27T11:41:38.332Z</time></trkpt><trkpt lat="43.655631" lon="10.64689"><ele>14.333333333333334</ele><time>2026-04-27T11:41:40.344Z</time></trkpt><trkpt lat="43.6556" lon="10.6469683"><ele>14.666666666666668</ele><time>2026-04-27T11:41:41.355Z</time></trkpt><trkpt lat="43.6555718" lon="10.6470462"><ele>15.0</ele><time>2026-04-27T11:41:42.342Z</time></trkpt><trkpt lat="43.6555433" lon="10.647124"><ele>15.333333333333332</ele><time>2026-04-27T11:41:43.346Z</time></trkpt><trkpt lat="43.655498" lon="10.6472834"><ele>15.666666666666666</ele><time>2026-04-27T11:41:45.336Z</time></trkpt><trkpt lat="43.6554748" lon="10.6474536"><ele>16.0</ele><time>2026-04-27T11:41:47.329Z</time></trkpt><trkpt lat="43.6554758" lon="10.6476239"><ele>16.0</ele><time>2026-04-27T11:41:49.33Z</time></trkpt><trkpt lat="43.655498" lon="10.6477815"><ele>16.0</ele><time>2026-04-27T11:41:51.343Z</time></trkpt><trkpt lat="43.6555309" lon="10.6479404"><ele>16.0</ele><time>2026-04-27T11:41:53.329Z</time></trkpt><trkpt lat="43.6555619" lon="10.6480987"><ele>16.0</ele><time>2026-04-27T11:41:55.33Z</time></trkpt><trkpt lat="43.6555852" lon="10.6482532"><ele>16.400000000000002</ele><time>2026-04-27T11:41:57.329Z</time></trkpt><trkpt lat="43.6556079" lon="10.6484048"><ele>16.8</ele><time>2026-04-27T11:41:59.338Z</time></trkpt><trkpt lat="43.6556203" lon="10.6485568"><ele>17.200000000000003</ele><time>2026-04-27T11:42:01.347Z</time></trkpt><trkpt lat="43.6556293" lon="10.6487052"><ele>17.6</ele><time>2026-04-27T11:42:03.339Z</time></trkpt><trkpt lat="43.6556294" lon="10.6488513"><ele>18.0</ele><time>2026-04-27T11:42:05.335Z</time></trkpt><trkpt lat="43.6556242" lon="10.6489958"><ele>18.0</ele><time>2026-04-27T11:42:07.343Z</time></trkpt><trkpt lat="43.6556123" lon="10.6491384"><ele>18.0</ele><time>2026-04-27T11:42:09.346Z</time></trkpt><trkpt lat="43.6555979" lon="10.649273"><ele>18.0</ele><time>2026-04-27T11:42:11.344Z</time></trkpt><trkpt lat="43.6555816" lon="10.6494071"><ele>18.0</ele><time>2026-04-27T11:42:13.339Z</time></trkpt><trkpt lat="43.6555584" lon="10.6495363"><ele>18.0</ele><time>2026-04-27T11:42:15.345Z</time></trkpt><trkpt lat="43.6555491" lon="10.6496625"><ele>18.0</ele><time>2026-04-27T11:42:17.349Z</time></trkpt><trkpt lat="43.6555329" lon="10.6497924"><ele>18.0</ele><time>2026-04-27T11:42:19.33Z</time></trkpt><trkpt lat="43.6555113" lon="10.6499216"><ele>18.0</ele><time>2026-04-27T11:42:21.325Z</time></trkpt><trkpt lat="43.6554925" lon="10.6500586"><ele>18.0</ele><time>2026-04-27T11:42:23.344Z</time></trkpt><trkpt lat="43.6554791" lon="10.6501902"><ele>18.0</ele><time>2026-04-27T11:42:25.351Z</time></trkpt><trkpt lat="43.6554712" lon="10.65031"><ele>18.0</ele><time>2026-04-27T11:42:27.341Z</time></trkpt><trkpt lat="43.6554614" lon="10.6504269"><ele>18.0</ele><time>2026-04-27T11:42:29.351Z</time></trkpt><trkpt lat="43.6554461" lon="10.6505514"><ele>18.0</ele><time>2026-04-27T11:42:31.341Z</time></trkpt><trkpt lat="43.655434" lon="10.6506872"><ele>18.0</ele><time>2026-04-27T11:42:33.345Z</time></trkpt><trkpt lat="43.6554168" lon="10.650838"><ele>18.0</ele><time>2026-04-27T11:42:35.338Z</time></trkpt><trkpt lat="43.6554052" lon="10.6509937"><ele>17.2</ele><time>2026-04-27T11:42:37.341Z</time></trkpt><trkpt lat="43.6553881" lon="10.651143"><ele>16.4</ele><time>2026-04-27T11:42:39.342Z</time></trkpt><trkpt lat="43.6553576" lon="10.6512996"><ele>15.599999999999998</ele><time>2026-04-27T11:42:41.353Z</time></trkpt><trkpt lat="43.655322" lon="10.6514627"><ele>14.799999999999999</ele><time>2026-04-27T11:42:43.335Z</time></trkpt><trkpt lat="43.6553046" lon="10.6515467"><ele>14.0</ele><time>2026-04-27T11:42:44.339Z</time></trkpt><trkpt lat="43.6552873" lon="10.6516322"><ele>14.6</ele><time>2026-04-27T11:42:45.341Z</time></trkpt><trkpt lat="43.6552685" lon="10.6517178"><ele>15.2</ele><time>2026-04-27T11:42:46.329Z</time></trkpt><trkpt lat="43.6552491" lon="10.6518061"><ele>15.799999999999999</ele><time>2026-04-27T11:42:47.343Z</time></trkpt><trkpt lat="43.6552143" lon="10.6519703"><ele>16.4</ele><time>2026-04-27T11:42:49.331Z</time></trkpt><trkpt lat="43.6551802" lon="10.6521342"><ele>17.0</ele><time>2026-04-27T11:42:51.333Z</time></trkpt><trkpt lat="43.6551381" lon="10.6522992"><ele>16.999999999999996</ele><time>2026-04-27T11:42:53.354Z</time></trkpt><trkpt lat="43.6551146" lon="10.652381"><ele>17.0</ele><time>2026-04-27T11:42:54.343Z</time></trkpt><trkpt lat="43.6550858" lon="10.6524598"><ele>17.0</ele><time>2026-04-27T11:42:55.332Z</time></trkpt><trkpt lat="43.6550578" lon="10.6525394"><ele>17.0</ele><time>2026-04-27T11:42:56.339Z</time></trkpt><trkpt lat="43.6550279" lon="10.6526242"><ele>17.0</ele><time>2026-04-27T11:42:57.345Z</time></trkpt><trkpt lat="43.6550061" lon="10.6527097"><ele>16.999999999999996</ele><time>2026-04-27T11:42:58.343Z</time></trkpt><trkpt lat="43.6549828" lon="10.6527959"><ele>17.0</ele><time>2026-04-27T11:42:59.334Z</time></trkpt><trkpt lat="43.6549416" lon="10.6529576"><ele>17.0</ele><time>2026-04-27T11:43:01.334Z</time></trkpt><trkpt lat="43.6549032" lon="10.6531214"><ele>17.0</ele><time>2026-04-27T11:43:03.334Z</time></trkpt><trkpt lat="43.6548733" lon="10.6532822"><ele>17.0</ele><time>2026-04-27T11:43:05.338Z</time></trkpt><trkpt lat="43.6548344" lon="10.6534428"><ele>17.0</ele><time>2026-04-27T11:43:07.329Z</time></trkpt><trkpt lat="43.6548178" lon="10.6535291"><ele>17.0</ele><time>2026-04-27T11:43:08.33Z</time></trkpt><trkpt lat="43.6547825" lon="10.65369"><ele>17.25</ele><time>2026-04-27T11:43:10.322Z</time></trkpt><trkpt lat="43.654755" lon="10.653848"><ele>17.5</ele><time>2026-04-27T11:43:12.343Z</time></trkpt><trkpt lat="43.6547336" lon="10.6540014"><ele>17.75</ele><time>2026-04-27T11:43:14.346Z</time></trkpt><trkpt lat="43.6547025" lon="10.654164"><ele>18.0</ele><time>2026-04-27T11:43:16.346Z</time></trkpt><trkpt lat="43.6546614" lon="10.6543026"><ele>18.0</ele><time>2026-04-27T11:43:18.37Z</time></trkpt><trkpt lat="43.6546139" lon="10.6544398"><ele>18.0</ele><time>2026-04-27T11:43:20.345Z</time></trkpt><trkpt lat="43.6546008" lon="10.6545859"><ele>18.0</ele><time>2026-04-27T11:43:22.343Z</time></trkpt><trkpt lat="43.6546405" lon="10.6547301"><ele>18.0</ele><time>2026-04-27T11:43:24.341Z</time></trkpt><trkpt lat="43.654717" lon="10.6548547"><ele>18.0</ele><time>2026-04-27T11:43:26.335Z</time></trkpt><trkpt lat="43.6548081" lon="10.6549753"><ele>17.8</ele><time>2026-04-27T11:43:28.344Z</time></trkpt><trkpt lat="43.6548527" lon="10.6550382"><ele>17.6</ele><time>2026-04-27T11:43:29.344Z</time></trkpt><trkpt lat="43.6549005" lon="10.6551027"><ele>17.4</ele><time>2026-04-27T11:43:30.339Z</time></trkpt><trkpt lat="43.654971" lon="10.6552366"><ele>17.2</ele><time>2026-04-27T11:43:32.332Z</time></trkpt><trkpt lat="43.6549332" lon="10.6553337"><ele>17.0</ele><time>2026-04-27T11:43:34.341Z</time></trkpt><trkpt lat="43.6548214" lon="10.6552558"><ele>16.999999999999996</ele><time>2026-04-27T11:43:36.335Z</time></trkpt><trkpt lat="43.6547655" lon="10.6552037"><ele>17.0</ele><time>2026-04-27T11:43:37.33Z</time></trkpt><trkpt lat="43.6547124" lon="10.6551512"><ele>17.0</ele><time>2026-04-27T11:43:38.331Z</time></trkpt><trkpt lat="43.6546592" lon="10.6550967"><ele>17.0</ele><time>2026-04-27T11:43:39.346Z</time></trkpt><trkpt lat="43.6546062" lon="10.6550425"><ele>17.0</ele><time>2026-04-27T11:43:40.343Z</time></trkpt><trkpt lat="43.6545561" lon="10.6549859"><ele>16.999999999999996</ele><time>2026-04-27T11:43:41.342Z</time></trkpt><trkpt lat="43.6544568" lon="10.6549009"><ele>17.0</ele><time>2026-04-27T11:43:43.346Z</time></trkpt><trkpt lat="43.6543401" lon="10.654849"><ele>16.71428571428571</ele><time>2026-04-27T11:43:45.345Z</time></trkpt><trkpt lat="43.6542735" lon="10.6548508"><ele>16.428571428571427</ele><time>2026-04-27T11:43:46.348Z</time></trkpt><trkpt lat="43.654206" lon="10.654871"><ele>16.142857142857142</ele><time>2026-04-27T11:43:47.344Z</time></trkpt><trkpt lat="43.654135" lon="10.654902"><ele>15.857142857142856</ele><time>2026-04-27T11:43:48.336Z</time></trkpt><trkpt lat="43.6540692" lon="10.6549479"><ele>15.57142857142857</ele><time>2026-04-27T11:43:49.339Z</time></trkpt><trkpt lat="43.6540117" lon="10.6550097"><ele>15.285714285714286</ele><time>2026-04-27T11:43:50.339Z</time></trkpt><trkpt lat="43.6539601" lon="10.6550815"><ele>15.0</ele><time>2026-04-27T11:43:51.346Z</time></trkpt><trkpt lat="43.6539079" lon="10.6551528"><ele>15.0</ele><time>2026-04-27T11:43:52.344Z</time></trkpt><trkpt lat="43.6538494" lon="10.6551976"><ele>15.0</ele><time>2026-04-27T11:43:53.342Z</time></trkpt><trkpt lat="43.6537225" lon="10.6552115"><ele>15.0</ele><time>2026-04-27T11:43:55.342Z</time></trkpt><trkpt lat="43.6536097" lon="10.6551754"><ele>15.0</ele><time>2026-04-27T11:43:57.348Z</time></trkpt><trkpt lat="43.6535027" lon="10.6551395"><ele>15.0</ele><time>2026-04-27T11:43:59.349Z</time></trkpt><trkpt lat="43.6534044" lon="10.6551041"><ele>15.666666666666666</ele><time>2026-04-27T11:44:01.339Z</time></trkpt><trkpt lat="43.6533115" lon="10.6550828"><ele>16.333333333333332</ele><time>2026-04-27T11:44:03.348Z</time></trkpt><trkpt lat="43.6532219" lon="10.655075"><ele>17.0</ele><time>2026-04-27T11:44:05.349Z</time></trkpt><trkpt lat="43.6531299" lon="10.6550798"><ele>17.666666666666664</ele><time>2026-04-27T11:44:07.341Z</time></trkpt><trkpt lat="43.6530403" lon="10.6550789"><ele>18.333333333333332</ele><time>2026-04-27T11:44:09.352Z</time></trkpt><trkpt lat="43.652962" lon="10.6550694"><ele>19.0</ele><time>2026-04-27T11:44:11.348Z</time></trkpt><trkpt lat="43.6528842" lon="10.6550697"><ele>19.0</ele><time>2026-04-27T11:44:13.357Z</time></trkpt><trkpt lat="43.6528024" lon="10.6550914"><ele>19.0</ele><time>2026-04-27T11:44:15.362Z</time></trkpt><trkpt lat="43.6527237" lon="10.6551147"><ele>19.0</ele><time>2026-04-27T11:44:17.363Z</time></trkpt><trkpt lat="43.6526415" lon="10.6551244"><ele>19.0</ele><time>2026-04-27T11:44:19.37Z</time></trkpt><trkpt lat="43.6525663" lon="10.6551434"><ele>19.0</ele><time>2026-04-27T11:44:21.358Z</time></trkpt><trkpt lat="43.65249" lon="10.6551723"><ele>19.0</ele><time>2026-04-27T11:44:23.357Z</time></trkpt><trkpt lat="43.6524189" lon="10.6552055"><ele>19.5</ele><time>2026-04-27T11:44:25.353Z</time></trkpt><trkpt lat="43.6523493" lon="10.6552389"><ele>20.0</ele><time>2026-04-27T11:44:27.364Z</time></trkpt><trkpt lat="43.6522846" lon="10.6552641"><ele>20.5</ele><time>2026-04-27T11:44:29.357Z</time></trkpt><trkpt lat="43.6522218" lon="10.6552952"><ele>21.0</ele><time>2026-04-27T11:44:31.357Z</time></trkpt><trkpt lat="43.6521581" lon="10.6553226"><ele>21.5</ele><time>2026-04-27T11:44:33.36Z</time></trkpt><trkpt lat="43.6520689" lon="10.6553558"><ele>22.0</ele><time>2026-04-27T11:44:36.355Z</time></trkpt><trkpt lat="43.6519922" lon="10.655402"><ele>22.666666666666664</ele><time>2026-04-27T11:44:39.36Z</time></trkpt><trkpt lat="43.6519171" lon="10.6554391"><ele>23.333333333333332</ele><time>2026-04-27T11:44:42.357Z</time></trkpt><trkpt lat="43.651833" lon="10.6554678"><ele>24.0</ele><time>2026-04-27T11:44:45.357Z</time></trkpt><trkpt lat="43.6517598" lon="10.6555037"><ele>24.666666666666664</ele><time>2026-04-27T11:44:48.356Z</time></trkpt><trkpt lat="43.6516917" lon="10.6555334"><ele>25.333333333333332</ele><time>2026-04-27T11:44:51.347Z</time></trkpt><trkpt lat="43.651625" lon="10.6555695"><ele>26.0</ele><time>2026-04-27T11:44:54.348Z</time></trkpt><trkpt lat="43.6515548" lon="10.655602"><ele>25.999999999999996</ele><time>2026-04-27T11:44:57.354Z</time></trkpt><trkpt lat="43.6514827" lon="10.6556419"><ele>26.0</ele><time>2026-04-27T11:45:00.34Z</time></trkpt><trkpt lat="43.6514189" lon="10.6556874"><ele>26.0</ele><time>2026-04-27T11:45:03.342Z</time></trkpt><trkpt lat="43.6513542" lon="10.6557241"><ele>26.0</ele><time>2026-04-27T11:45:06.337Z</time></trkpt><trkpt lat="43.6512895" lon="10.6557551"><ele>25.999999999999996</ele><time>2026-04-27T11:45:09.343Z</time></trkpt><trkpt lat="43.6512123" lon="10.6557858"><ele>26.0</ele><time>2026-04-27T11:45:12.539Z</time></trkpt><trkpt lat="43.6511283" lon="10.6558196"><ele>26.285714285714285</ele><time>2026-04-27T11:45:15.346Z</time></trkpt><trkpt lat="43.6510639" lon="10.6558447"><ele>26.571428571428573</ele><time>2026-04-27T11:45:17.332Z</time></trkpt><trkpt lat="43.6510019" lon="10.6558749"><ele>26.857142857142858</ele><time>2026-04-27T11:45:19.337Z</time></trkpt><trkpt lat="43.6509409" lon="10.6559065"><ele>27.142857142857142</ele><time>2026-04-27T11:45:21.331Z</time></trkpt><trkpt lat="43.6508683" lon="10.6559375"><ele>27.42857142857143</ele><time>2026-04-27T11:45:23.335Z</time></trkpt><trkpt lat="43.6507911" lon="10.6559826"><ele>27.714285714285715</ele><time>2026-04-27T11:45:25.336Z</time></trkpt><trkpt lat="43.6507082" lon="10.6560285"><ele>28.0</ele><time>2026-04-27T11:45:27.345Z</time></trkpt><trkpt lat="43.6506075" lon="10.6560665"><ele>28.0</ele><time>2026-04-27T11:45:29.317Z</time></trkpt><trkpt lat="43.650506" lon="10.6560882"><ele>27.999999999999996</ele><time>2026-04-27T11:45:31.326Z</time></trkpt><trkpt lat="43.6503976" lon="10.6561088"><ele>27.999999999999996</ele><time>2026-04-27T11:45:33.319Z</time></trkpt><trkpt lat="43.6502917" lon="10.6561315"><ele>28.0</ele><time>2026-04-27T11:45:35.33Z</time></trkpt><trkpt lat="43.6501819" lon="10.6561453"><ele>28.0</ele><time>2026-04-27T11:45:37.316Z</time></trkpt><trkpt lat="43.6500749" lon="10.6561469"><ele>28.4</ele><time>2026-04-27T11:45:39.324Z</time></trkpt><trkpt lat="43.6499644" lon="10.6561402"><ele>28.799999999999997</ele><time>2026-04-27T11:45:41.322Z</time></trkpt><trkpt lat="43.6498509" lon="10.6561385"><ele>29.2</ele><time>2026-04-27T11:45:43.323Z</time></trkpt><trkpt lat="43.6497417" lon="10.6561311"><ele>29.6</ele><time>2026-04-27T11:45:45.322Z</time></trkpt><trkpt lat="43.6496407" lon="10.6561147"><ele>30.0</ele><time>2026-04-27T11:45:47.322Z</time></trkpt><trkpt lat="43.6495365" lon="10.6560939"><ele>29.6</ele><time>2026-04-27T11:45:49.323Z</time></trkpt><trkpt lat="43.6494346" lon="10.656071"><ele>29.2</ele><time>2026-04-27T11:45:51.324Z</time></trkpt><trkpt lat="43.6493349" lon="10.6560465"><ele>28.799999999999997</ele><time>2026-04-27T11:45:53.324Z</time></trkpt><trkpt lat="43.649236" lon="10.6560224"><ele>28.4</ele><time>2026-04-27T11:45:55.324Z</time></trkpt><trkpt lat="43.6491305" lon="10.6559985"><ele>28.0</ele><time>2026-04-27T11:45:57.325Z</time></trkpt><trkpt lat="43.6490285" lon="10.6559784"><ele>28.0</ele><time>2026-04-27T11:45:59.323Z</time></trkpt><trkpt lat="43.6489293" lon="10.6559583"><ele>27.999999999999996</ele><time>2026-04-27T11:46:01.325Z</time></trkpt><trkpt lat="43.6488301" lon="10.6559404"><ele>27.999999999999996</ele><time>2026-04-27T11:46:03.322Z</time></trkpt><trkpt lat="43.6487271" lon="10.655927"><ele>28.0</ele><time>2026-04-27T11:46:05.32Z</time></trkpt><trkpt lat="43.6486266" lon="10.6559123"><ele>28.0</ele><time>2026-04-27T11:46:07.32Z</time></trkpt><trkpt lat="43.6485268" lon="10.6558891"><ele>28.599999999999998</ele><time>2026-04-27T11:46:09.32Z</time></trkpt><trkpt lat="43.6484287" lon="10.6558698"><ele>29.199999999999996</ele><time>2026-04-27T11:46:11.319Z</time></trkpt><trkpt lat="43.648329" lon="10.6558436"><ele>29.8</ele><time>2026-04-27T11:46:13.317Z</time></trkpt><trkpt lat="43.6482277" lon="10.6558167"><ele>30.4</ele><time>2026-04-27T11:46:15.314Z</time></trkpt><trkpt lat="43.6481363" lon="10.6557745"><ele>31.0</ele><time>2026-04-27T11:46:17.306Z</time></trkpt><trkpt lat="43.6480492" lon="10.655746"><ele>31.000000000000004</ele><time>2026-04-27T11:46:19.311Z</time></trkpt><trkpt lat="43.6479706" lon="10.6557108"><ele>31.0</ele><time>2026-04-27T11:46:21.322Z</time></trkpt><trkpt lat="43.6479027" lon="10.6556621"><ele>31.0</ele><time>2026-04-27T11:46:23.324Z</time></trkpt><trkpt lat="43.6478345" lon="10.6556166"><ele>31.0</ele><time>2026-04-27T11:46:25.318Z</time></trkpt><trkpt lat="43.6477615" lon="10.6555646"><ele>31.000000000000004</ele><time>2026-04-27T11:46:27.32Z</time></trkpt><trkpt lat="43.647676" lon="10.6555204"><ele>31.0</ele><time>2026-04-27T11:46:29.319Z</time></trkpt><trkpt lat="43.6475751" lon="10.6554789"><ele>31.0</ele><time>2026-04-27T11:46:31.314Z</time></trkpt><trkpt lat="43.6474698" lon="10.6554361"><ele>31.0</ele><time>2026-04-27T11:46:33.318Z</time></trkpt><trkpt lat="43.6473643" lon="10.6553812"><ele>31.0</ele><time>2026-04-27T11:46:35.322Z</time></trkpt><trkpt lat="43.6472628" lon="10.6553052"><ele>31.0</ele><time>2026-04-27T11:46:37.323Z</time></trkpt><trkpt lat="43.6471577" lon="10.6552768"><ele>31.0</ele><time>2026-04-27T11:46:39.318Z</time></trkpt><trkpt lat="43.6470716" lon="10.6553796"><ele>31.000000000000004</ele><time>2026-04-27T11:46:41.319Z</time></trkpt><trkpt lat="43.6470222" lon="10.6555011"><ele>31.0</ele><time>2026-04-27T11:46:43.331Z</time></trkpt><trkpt lat="43.6469791" lon="10.6555917"><ele>31.0</ele><time>2026-04-27T11:46:45.325Z</time></trkpt><trkpt lat="43.6469328" lon="10.6556673"><ele>31.0</ele><time>2026-04-27T11:46:47.329Z</time></trkpt><trkpt lat="43.6468868" lon="10.6557306"><ele>31.000000000000004</ele><time>2026-04-27T11:46:49.332Z</time></trkpt><trkpt lat="43.6468398" lon="10.6557933"><ele>31.0</ele><time>2026-04-27T11:46:51.328Z</time></trkpt><trkpt lat="43.6467771" lon="10.6558784"><ele>31.666666666666668</ele><time>2026-04-27T11:46:54.33Z</time></trkpt><trkpt lat="43.6467188" lon="10.6559726"><ele>32.333333333333336</ele><time>2026-04-27T11:46:57.328Z</time></trkpt><trkpt lat="43.6466913" lon="10.6560703"><ele>33.0</ele><time>2026-04-27T11:47:00.338Z</time></trkpt><trkpt lat="43.6466748" lon="10.6561689"><ele>33.666666666666664</ele><time>2026-04-27T11:47:03.33Z</time></trkpt><trkpt lat="43.6466567" lon="10.6562689"><ele>34.33333333333333</ele><time>2026-04-27T11:47:06.33Z</time></trkpt><trkpt lat="43.646632" lon="10.656364"><ele>35.0</ele><time>2026-04-27T11:47:09.341Z</time></trkpt><trkpt lat="43.6465987" lon="10.6564649"><ele>35.33333333333333</ele><time>2026-04-27T11:47:12.337Z</time></trkpt><trkpt lat="43.6465524" lon="10.6565504"><ele>35.666666666666664</ele><time>2026-04-27T11:47:15.346Z</time></trkpt><trkpt lat="43.6465019" lon="10.6566293"><ele>36.0</ele><time>2026-04-27T11:47:19.339Z</time></trkpt><trkpt lat="43.646438" lon="10.6566963"><ele>36.333333333333336</ele><time>2026-04-27T11:47:23.338Z</time></trkpt><trkpt lat="43.6463825" lon="10.6567547"><ele>36.66666666666667</ele><time>2026-04-27T11:47:26.327Z</time></trkpt><trkpt lat="43.6463108" lon="10.656828"><ele>37.0</ele><time>2026-04-27T11:47:29.335Z</time></trkpt><trkpt lat="43.6462521" lon="10.6568839"><ele>37.0</ele><time>2026-04-27T11:47:31.328Z</time></trkpt><trkpt lat="43.64618" lon="10.656947"><ele>37.0</ele><time>2026-04-27T11:47:33.324Z</time></trkpt><trkpt lat="43.646104" lon="10.657008"><ele>37.0</ele><time>2026-04-27T11:47:35.322Z</time></trkpt><trkpt lat="43.6460318" lon="10.6570733"><ele>37.0</ele><time>2026-04-27T11:47:37.319Z</time></trkpt><trkpt lat="43.645959" lon="10.657133"><ele>37.0</ele><time>2026-04-27T11:47:39.334Z</time></trkpt><trkpt lat="43.6458925" lon="10.6571888"><ele>37.0</ele><time>2026-04-27T11:47:41.328Z</time></trkpt><trkpt lat="43.6458263" lon="10.6572427"><ele>37.833333333333336</ele><time>2026-04-27T11:47:43.321Z</time></trkpt><trkpt lat="43.6457642" lon="10.6572946"><ele>38.66666666666667</ele><time>2026-04-27T11:47:45.326Z</time></trkpt><trkpt lat="43.6457053" lon="10.6573462"><ele>39.5</ele><time>2026-04-27T11:47:47.325Z</time></trkpt><trkpt lat="43.6456419" lon="10.6573975"><ele>40.333333333333336</ele><time>2026-04-27T11:47:49.324Z</time></trkpt><trkpt lat="43.6455792" lon="10.6574484"><ele>41.166666666666664</ele><time>2026-04-27T11:47:51.325Z</time></trkpt><trkpt lat="43.6455176" lon="10.6574979"><ele>42.0</ele><time>2026-04-27T11:47:53.324Z</time></trkpt><trkpt lat="43.6454404" lon="10.6575657"><ele>42.0</ele><time>2026-04-27T11:47:56.323Z</time></trkpt><trkpt lat="43.6453651" lon="10.6576417"><ele>42.0</ele><time>2026-04-27T11:47:59.318Z</time></trkpt><trkpt lat="43.6453113" lon="10.6576972"><ele>42.0</ele><time>2026-04-27T11:48:01.322Z</time></trkpt><trkpt lat="43.6452502" lon="10.6577615"><ele>42.0</ele><time>2026-04-27T11:48:03.322Z</time></trkpt><trkpt lat="43.6451722" lon="10.6578365"><ele>42.0</ele><time>2026-04-27T11:48:05.317Z</time></trkpt><trkpt lat="43.6450814" lon="10.6579309"><ele>42.0</ele><time>2026-04-27T11:48:07.307Z</time></trkpt><trkpt lat="43.6450239" lon="10.6579842"><ele>42.0</ele><time>2026-04-27T11:48:08.318Z</time></trkpt><trkpt lat="43.6449694" lon="10.6580346"><ele>42.0</ele><time>2026-04-27T11:48:09.304Z</time></trkpt><trkpt lat="43.6449074" lon="10.6580874"><ele>42.0</ele><time>2026-04-27T11:48:10.312Z</time></trkpt><trkpt lat="43.6448434" lon="10.6581458"><ele>42.0</ele><time>2026-04-27T11:48:11.308Z</time></trkpt><trkpt lat="43.6447791" lon="10.6581927"><ele>42.0</ele><time>2026-04-27T11:48:12.303Z</time></trkpt><trkpt lat="43.644708" lon="10.6582492"><ele>42.0</ele><time>2026-04-27T11:48:13.301Z</time></trkpt><trkpt lat="43.644633" lon="10.6582966"><ele>42.0</ele><time>2026-04-27T11:48:14.309Z</time></trkpt><trkpt lat="43.6445615" lon="10.6583452"><ele>42.0</ele><time>2026-04-27T11:48:15.309Z</time></trkpt><trkpt lat="43.6444953" lon="10.6583927"><ele>42.0</ele><time>2026-04-27T11:48:16.316Z</time></trkpt><trkpt lat="43.6444278" lon="10.6584493"><ele>42.0</ele><time>2026-04-27T11:48:17.31Z</time></trkpt><trkpt lat="43.6443636" lon="10.6585093"><ele>42.0</ele><time>2026-04-27T11:48:18.32Z</time></trkpt><trkpt lat="43.6442989" lon="10.6585668"><ele>42.0</ele><time>2026-04-27T11:48:19.312Z</time></trkpt><trkpt lat="43.6442337" lon="10.6586242"><ele>41.5</ele><time>2026-04-27T11:48:20.311Z</time></trkpt><trkpt lat="43.6441706" lon="10.6586785"><ele>41.0</ele><time>2026-04-27T11:48:21.316Z</time></trkpt><trkpt lat="43.6441119" lon="10.6587364"><ele>40.5</ele><time>2026-04-27T11:48:22.32Z</time></trkpt><trkpt lat="43.6440544" lon="10.658793"><ele>40.0</ele><time>2026-04-27T11:48:23.322Z</time></trkpt><trkpt lat="43.6440019" lon="10.6588453"><ele>39.5</ele><time>2026-04-27T11:48:24.314Z</time></trkpt><trkpt lat="43.6439138" lon="10.6589391"><ele>39.0</ele><time>2026-04-27T11:48:26.324Z</time></trkpt><trkpt lat="43.643834" lon="10.6590161"><ele>39.0</ele><time>2026-04-27T11:48:28.324Z</time></trkpt><trkpt lat="43.6437506" lon="10.6590717"><ele>39.0</ele><time>2026-04-27T11:48:30.325Z</time></trkpt><trkpt lat="43.6436783" lon="10.6591301"><ele>39.0</ele><time>2026-04-27T11:48:32.343Z</time></trkpt><trkpt lat="43.6435968" lon="10.6591864"><ele>39.0</ele><time>2026-04-27T11:48:34.338Z</time></trkpt><trkpt lat="43.6435212" lon="10.6592532"><ele>39.0</ele><time>2026-04-27T11:48:36.334Z</time></trkpt><trkpt lat="43.6434443" lon="10.6593109"><ele>39.0</ele><time>2026-04-27T11:48:38.344Z</time></trkpt><trkpt lat="43.6433666" lon="10.6593744"><ele>39.333333333333336</ele><time>2026-04-27T11:48:40.337Z</time></trkpt><trkpt lat="43.6432935" lon="10.659434"><ele>39.666666666666664</ele><time>2026-04-27T11:48:42.343Z</time></trkpt><trkpt lat="43.6432173" lon="10.6594805"><ele>40.0</ele><time>2026-04-27T11:48:44.342Z</time></trkpt><trkpt lat="43.6431502" lon="10.6595301"><ele>40.33333333333333</ele><time>2026-04-27T11:48:46.337Z</time></trkpt><trkpt lat="43.6430885" lon="10.6595796"><ele>40.666666666666664</ele><time>2026-04-27T11:48:48.35Z</time></trkpt><trkpt lat="43.643029" lon="10.6596459"><ele>41.0</ele><time>2026-04-27T11:48:50.335Z</time></trkpt><trkpt lat="43.6429698" lon="10.6597037"><ele>41.666666666666664</ele><time>2026-04-27T11:48:52.331Z</time></trkpt><trkpt lat="43.6429121" lon="10.6597819"><ele>42.33333333333333</ele><time>2026-04-27T11:48:54.337Z</time></trkpt><trkpt lat="43.6428742" lon="10.6598832"><ele>43.0</ele><time>2026-04-27T11:48:56.325Z</time></trkpt><trkpt lat="43.6428459" lon="10.6599853"><ele>43.666666666666664</ele><time>2026-04-27T11:48:58.346Z</time></trkpt><trkpt lat="43.6428254" lon="10.6601096"><ele>44.333333333333336</ele><time>2026-04-27T11:49:00.341Z</time></trkpt><trkpt lat="43.6428264" lon="10.6602254"><ele>45.0</ele><time>2026-04-27T11:49:02.339Z</time></trkpt><trkpt lat="43.6428442" lon="10.6603388"><ele>45.666666666666664</ele><time>2026-04-27T11:49:04.344Z</time></trkpt><trkpt lat="43.64285" lon="10.6604609"><ele>46.33333333333333</ele><time>2026-04-27T11:49:06.346Z</time></trkpt><trkpt lat="43.6428345" lon="10.6605729"><ele>47.0</ele><time>2026-04-27T11:49:08.35Z</time></trkpt><trkpt lat="43.6428175" lon="10.66068"><ele>47.666666666666664</ele><time>2026-04-27T11:49:10.342Z</time></trkpt><trkpt lat="43.6427952" lon="10.6607827"><ele>48.33333333333333</ele><time>2026-04-27T11:49:12.345Z</time></trkpt><trkpt lat="43.6427471" lon="10.6608801"><ele>49.0</ele><time>2026-04-27T11:49:14.345Z</time></trkpt><trkpt lat="43.6426948" lon="10.6609576"><ele>48.99999999999999</ele><time>2026-04-27T11:49:16.332Z</time></trkpt><trkpt lat="43.6426362" lon="10.6610303"><ele>49.0</ele><time>2026-04-27T11:49:18.335Z</time></trkpt><trkpt lat="43.6425674" lon="10.661107"><ele>49.0</ele><time>2026-04-27T11:49:20.335Z</time></trkpt><trkpt lat="43.6425012" lon="10.6611788"><ele>49.0</ele><time>2026-04-27T11:49:22.339Z</time></trkpt><trkpt lat="43.6424412" lon="10.6612518"><ele>48.99999999999999</ele><time>2026-04-27T11:49:24.326Z</time></trkpt><trkpt lat="43.6423782" lon="10.6613229"><ele>49.0</ele><time>2026-04-27T11:49:26.331Z</time></trkpt><trkpt lat="43.6423173" lon="10.6613892"><ele>49.142857142857146</ele><time>2026-04-27T11:49:28.321Z</time></trkpt><trkpt lat="43.642258" lon="10.6614532"><ele>49.285714285714285</ele><time>2026-04-27T11:49:30.323Z</time></trkpt><trkpt lat="43.6422014" lon="10.6615219"><ele>49.42857142857143</ele><time>2026-04-27T11:49:32.326Z</time></trkpt><trkpt lat="43.6421486" lon="10.6616008"><ele>49.57142857142857</ele><time>2026-04-27T11:49:34.33Z</time></trkpt><trkpt lat="43.6420958" lon="10.6616674"><ele>49.714285714285715</ele><time>2026-04-27T11:49:36.326Z</time></trkpt><trkpt lat="43.6420474" lon="10.6617371"><ele>49.85714285714286</ele><time>2026-04-27T11:49:38.331Z</time></trkpt><trkpt lat="43.6420002" lon="10.661804"><ele>50.0</ele><time>2026-04-27T11:49:40.338Z</time></trkpt><trkpt lat="43.6419546" lon="10.6618678"><ele>50.00000000000001</ele><time>2026-04-27T11:49:42.328Z</time></trkpt><trkpt lat="43.6419044" lon="10.6619237"><ele>50.0</ele><time>2026-04-27T11:49:44.319Z</time></trkpt><trkpt lat="43.6418395" lon="10.6620161"><ele>50.0</ele><time>2026-04-27T11:49:47.322Z</time></trkpt><trkpt lat="43.6417874" lon="10.6620782"><ele>50.0</ele><time>2026-04-27T11:49:49.316Z</time></trkpt><trkpt lat="43.6417381" lon="10.6621409"><ele>50.00000000000001</ele><time>2026-04-27T11:49:51.314Z</time></trkpt><trkpt lat="43.641692" lon="10.6622033"><ele>50.0</ele><time>2026-04-27T11:49:53.317Z</time></trkpt><trkpt lat="43.6416261" lon="10.6622943"><ele>50.333333333333336</ele><time>2026-04-27T11:49:56.328Z</time></trkpt><trkpt lat="43.6415582" lon="10.6623743"><ele>50.66666666666667</ele><time>2026-04-27T11:49:59.32Z</time></trkpt><trkpt lat="43.6414952" lon="10.6624497"><ele>51.0</ele><time>2026-04-27T11:50:02.322Z</time></trkpt><trkpt lat="43.6414372" lon="10.6625135"><ele>51.33333333333333</ele><time>2026-04-27T11:50:05.325Z</time></trkpt><trkpt lat="43.6413786" lon="10.6625852"><ele>51.666666666666664</ele><time>2026-04-27T11:50:08.333Z</time></trkpt><trkpt lat="43.641329" lon="10.6626547"><ele>52.0</ele><time>2026-04-27T11:50:11.326Z</time></trkpt><trkpt lat="43.6412749" lon="10.6627388"><ele>52.166666666666664</ele><time>2026-04-27T11:50:14.33Z</time></trkpt><trkpt lat="43.6412269" lon="10.6628223"><ele>52.33333333333333</ele><time>2026-04-27T11:50:17.328Z</time></trkpt><trkpt lat="43.6411809" lon="10.6629087"><ele>52.5</ele><time>2026-04-27T11:50:20.315Z</time></trkpt><trkpt lat="43.6411312" lon="10.6630008"><ele>52.66666666666667</ele><time>2026-04-27T11:50:23.321Z</time></trkpt><trkpt lat="43.6410755" lon="10.6630676"><ele>52.833333333333336</ele><time>2026-04-27T11:50:26.316Z</time></trkpt><trkpt lat="43.6410127" lon="10.6631163"><ele>53.0</ele><time>2026-04-27T11:50:29.316Z</time></trkpt><trkpt lat="43.6409364" lon="10.6631393"><ele>53.00000000000001</ele><time>2026-04-27T11:50:32.318Z</time></trkpt><trkpt lat="43.6408759" lon="10.6631936"><ele>53.0</ele><time>2026-04-27T11:50:35.334Z</time></trkpt><trkpt lat="43.6408234" lon="10.6632432"><ele>53.0</ele><time>2026-04-27T11:50:38.332Z</time></trkpt><trkpt lat="43.640753" lon="10.6632927"><ele>53.0</ele><time>2026-04-27T11:50:41.328Z</time></trkpt><trkpt lat="43.6406857" lon="10.6633392"><ele>53.00000000000001</ele><time>2026-04-27T11:50:44.314Z</time></trkpt><trkpt lat="43.6406128" lon="10.6633827"><ele>53.0</ele><time>2026-04-27T11:50:47.319Z</time></trkpt><trkpt lat="43.6405432" lon="10.6634515"><ele>53.0</ele><time>2026-04-27T11:50:50.321Z</time></trkpt><trkpt lat="43.640469" lon="10.6635182"><ele>53.0</ele><time>2026-04-27T11:50:53.325Z</time></trkpt><trkpt lat="43.640398" lon="10.6635572"><ele>53.0</ele><time>2026-04-27T11:50:56.319Z</time></trkpt><trkpt lat="43.6403446" lon="10.6636051"><ele>53.0</ele><time>2026-04-27T11:50:58.319Z</time></trkpt><trkpt lat="43.6402893" lon="10.663652"><ele>53.0</ele><time>2026-04-27T11:51:00.321Z</time></trkpt><trkpt lat="43.6402344" lon="10.6636953"><ele>53.0</ele><time>2026-04-27T11:51:02.322Z</time></trkpt><trkpt lat="43.6401652" lon="10.6637601"><ele>53.0</ele><time>2026-04-27T11:51:05.318Z</time></trkpt><trkpt lat="43.640094" lon="10.6638137"><ele>53.333333333333336</ele><time>2026-04-27T11:51:08.315Z</time></trkpt><trkpt lat="43.6400208" lon="10.6638627"><ele>53.66666666666667</ele><time>2026-04-27T11:51:11.317Z</time></trkpt><trkpt lat="43.6399467" lon="10.6638878"><ele>54.0</ele><time>2026-04-27T11:51:14.34Z</time></trkpt><trkpt lat="43.6398727" lon="10.6639189"><ele>54.33333333333333</ele><time>2026-04-27T11:51:17.331Z</time></trkpt><trkpt lat="43.6397924" lon="10.6639479"><ele>54.666666666666664</ele><time>2026-04-27T11:51:20.335Z</time></trkpt><trkpt lat="43.639725" lon="10.6639606"><ele>55.0</ele><time>2026-04-27T11:51:23.326Z</time></trkpt><trkpt lat="43.6396742" lon="10.6638899"><ele>54.99999999999999</ele><time>2026-04-27T11:53:49.332Z</time></trkpt><trkpt lat="43.639656" lon="10.6638023"><ele>55.0</ele><time>2026-04-27T11:53:51.324Z</time></trkpt><trkpt lat="43.639653" lon="10.6636958"><ele>55.0</ele><time>2026-04-27T11:53:53.324Z</time></trkpt><trkpt lat="43.6396373" lon="10.6635841"><ele>55.0</ele><time>2026-04-27T11:53:55.322Z</time></trkpt><trkpt lat="43.6396235" lon="10.6634688"><ele>54.99999999999999</ele><time>2026-04-27T11:53:57.32Z</time></trkpt><trkpt lat="43.6396019" lon="10.6633319"><ele>55.0</ele><time>2026-04-27T11:53:59.314Z</time></trkpt><trkpt lat="43.6395698" lon="10.6631849"><ele>54.6</ele><time>2026-04-27T11:54:01.312Z</time></trkpt><trkpt lat="43.6395485" lon="10.6630276"><ele>54.2</ele><time>2026-04-27T11:54:03.313Z</time></trkpt><trkpt lat="43.6395255" lon="10.6628625"><ele>53.8</ele><time>2026-04-27T11:54:05.313Z</time></trkpt><trkpt lat="43.639498" lon="10.6626941"><ele>53.4</ele><time>2026-04-27T11:54:07.312Z</time></trkpt><trkpt lat="43.6394868" lon="10.6626085"><ele>53.0</ele><time>2026-04-27T11:54:08.319Z</time></trkpt><trkpt lat="43.639471" lon="10.6625235"><ele>53.0</ele><time>2026-04-27T11:54:09.322Z</time></trkpt><trkpt lat="43.639455" lon="10.6624327"><ele>53.0</ele><time>2026-04-27T11:54:10.315Z</time></trkpt><trkpt lat="43.63944" lon="10.6623396"><ele>53.0</ele><time>2026-04-27T11:54:11.32Z</time></trkpt><trkpt lat="43.6394257" lon="10.6622449"><ele>53.0</ele><time>2026-04-27T11:54:12.323Z</time></trkpt><trkpt lat="43.6394106" lon="10.6621507"><ele>53.0</ele><time>2026-04-27T11:54:13.317Z</time></trkpt><trkpt lat="43.639397" lon="10.6620511"><ele>53.0</ele><time>2026-04-27T11:54:14.32Z</time></trkpt><trkpt lat="43.6393813" lon="10.6619541"><ele>53.0</ele><time>2026-04-27T11:54:15.313Z</time></trkpt><trkpt lat="43.639367" lon="10.6618569"><ele>53.00000000000001</ele><time>2026-04-27T11:54:16.316Z</time></trkpt><trkpt lat="43.6393506" lon="10.6617609"><ele>53.0</ele><time>2026-04-27T11:54:17.318Z</time></trkpt><trkpt lat="43.6393341" lon="10.6616682"><ele>53.0</ele><time>2026-04-27T11:54:18.321Z</time></trkpt><trkpt lat="43.6393187" lon="10.6615729"><ele>53.0</ele><time>2026-04-27T11:54:19.317Z</time></trkpt><trkpt lat="43.6393052" lon="10.6614839"><ele>53.00000000000001</ele><time>2026-04-27T11:54:20.319Z</time></trkpt><trkpt lat="43.6392977" lon="10.6613947"><ele>53.0</ele><time>2026-04-27T11:54:21.328Z</time></trkpt><trkpt lat="43.6392828" lon="10.6612314"><ele>53.2</ele><time>2026-04-27T11:54:23.32Z</time></trkpt><trkpt lat="43.6392586" lon="10.6610813"><ele>53.4</ele><time>2026-04-27T11:54:25.324Z</time></trkpt><trkpt lat="43.639236" lon="10.6609305"><ele>53.60000000000001</ele><time>2026-04-27T11:54:27.316Z</time></trkpt><trkpt lat="43.6392048" lon="10.6607895"><ele>53.800000000000004</ele><time>2026-04-27T11:54:29.319Z</time></trkpt><trkpt lat="43.6391763" lon="10.6606488"><ele>54.0</ele><time>2026-04-27T11:54:31.319Z</time></trkpt><trkpt lat="43.6391505" lon="10.6605061"><ele>54.0</ele><time>2026-04-27T11:54:33.319Z</time></trkpt><trkpt lat="43.6391299" lon="10.6603696"><ele>54.00000000000001</ele><time>2026-04-27T11:54:35.313Z</time></trkpt><trkpt lat="43.6391088" lon="10.6602355"><ele>54.00000000000001</ele><time>2026-04-27T11:54:37.313Z</time></trkpt><trkpt lat="43.6390936" lon="10.6601058"><ele>54.0</ele><time>2026-04-27T11:54:39.31Z</time></trkpt><trkpt lat="43.6390751" lon="10.6599691"><ele>54.0</ele><time>2026-04-27T11:54:41.309Z</time></trkpt><trkpt lat="43.6390569" lon="10.6598225"><ele>53.75</ele><time>2026-04-27T11:54:43.322Z</time></trkpt><trkpt lat="43.6390389" lon="10.659666"><ele>53.5</ele><time>2026-04-27T11:54:45.335Z</time></trkpt><trkpt lat="43.6390103" lon="10.6595196"><ele>53.25</ele><time>2026-04-27T11:54:47.331Z</time></trkpt><trkpt lat="43.6389902" lon="10.6593665"><ele>53.0</ele><time>2026-04-27T11:54:49.331Z</time></trkpt><trkpt lat="43.6389678" lon="10.6592087"><ele>52.25</ele><time>2026-04-27T11:54:51.33Z</time></trkpt><trkpt lat="43.6389394" lon="10.6590523"><ele>51.5</ele><time>2026-04-27T11:54:53.328Z</time></trkpt><trkpt lat="43.6389091" lon="10.6588982"><ele>50.75</ele><time>2026-04-27T11:54:55.319Z</time></trkpt><trkpt lat="43.6388849" lon="10.6587417"><ele>50.0</ele><time>2026-04-27T11:54:57.33Z</time></trkpt><trkpt lat="43.6388634" lon="10.6585902"><ele>49.5</ele><time>2026-04-27T11:54:59.326Z</time></trkpt><trkpt lat="43.6388407" lon="10.658434"><ele>49.0</ele><time>2026-04-27T11:55:01.329Z</time></trkpt><trkpt lat="43.6388111" lon="10.6582765"><ele>48.5</ele><time>2026-04-27T11:55:03.318Z</time></trkpt><trkpt lat="43.638789" lon="10.6581251"><ele>48.0</ele><time>2026-04-27T11:55:05.331Z</time></trkpt><trkpt lat="43.6387653" lon="10.6579782"><ele>48.0</ele><time>2026-04-27T11:55:07.33Z</time></trkpt><trkpt lat="43.6387409" lon="10.6578249"><ele>48.0</ele><time>2026-04-27T11:55:09.329Z</time></trkpt><trkpt lat="43.6387205" lon="10.6576783"><ele>48.0</ele><time>2026-04-27T11:55:11.33Z</time></trkpt><trkpt lat="43.6387064" lon="10.6575209"><ele>48.0</ele><time>2026-04-27T11:55:13.334Z</time></trkpt><trkpt lat="43.6386802" lon="10.6573705"><ele>48.0</ele><time>2026-04-27T11:55:15.339Z</time></trkpt><trkpt lat="43.6386577" lon="10.6572125"><ele>47.333333333333336</ele><time>2026-04-27T11:55:17.347Z</time></trkpt><trkpt lat="43.6386269" lon="10.6570516"><ele>46.666666666666664</ele><time>2026-04-27T11:55:19.351Z</time></trkpt><trkpt lat="43.6386074" lon="10.6568938"><ele>46.0</ele><time>2026-04-27T11:55:21.347Z</time></trkpt><trkpt lat="43.6385926" lon="10.6568078"><ele>45.33333333333333</ele><time>2026-04-27T11:55:22.345Z</time></trkpt><trkpt lat="43.6385714" lon="10.6567183"><ele>44.666666666666664</ele><time>2026-04-27T11:55:23.342Z</time></trkpt><trkpt lat="43.638556" lon="10.6566297"><ele>44.0</ele><time>2026-04-27T11:55:24.342Z</time></trkpt><trkpt lat="43.6385458" lon="10.656542"><ele>43.714285714285715</ele><time>2026-04-27T11:55:25.349Z</time></trkpt><trkpt lat="43.6385348" lon="10.6564517"><ele>43.42857142857143</ele><time>2026-04-27T11:55:26.345Z</time></trkpt><trkpt lat="43.6385163" lon="10.6563623"><ele>43.14285714285714</ele><time>2026-04-27T11:55:27.33Z</time></trkpt><trkpt lat="43.6384979" lon="10.6562782"><ele>42.85714285714286</ele><time>2026-04-27T11:55:28.349Z</time></trkpt><trkpt lat="43.6384757" lon="10.6561929"><ele>42.57142857142857</ele><time>2026-04-27T11:55:29.337Z</time></trkpt><trkpt lat="43.638451" lon="10.6561115"><ele>42.285714285714285</ele><time>2026-04-27T11:55:30.341Z</time></trkpt><trkpt lat="43.6384029" lon="10.6559599"><ele>42.0</ele><time>2026-04-27T11:55:32.342Z</time></trkpt><trkpt lat="43.6383642" lon="10.6558038"><ele>41.666666666666664</ele><time>2026-04-27T11:55:34.333Z</time></trkpt><trkpt lat="43.6383332" lon="10.6556347"><ele>41.333333333333336</ele><time>2026-04-27T11:55:36.336Z</time></trkpt><trkpt lat="43.6383209" lon="10.655543"><ele>41.0</ele><time>2026-04-27T11:55:37.337Z</time></trkpt><trkpt lat="43.6383033" lon="10.6554526"><ele>40.66666666666667</ele><time>2026-04-27T11:55:38.334Z</time></trkpt><trkpt lat="43.6382904" lon="10.6553537"><ele>40.333333333333336</ele><time>2026-04-27T11:55:39.333Z</time></trkpt><trkpt lat="43.6382738" lon="10.6552457"><ele>40.0</ele><time>2026-04-27T11:55:40.343Z</time></trkpt><trkpt lat="43.6382539" lon="10.6551337"><ele>39.2</ele><time>2026-04-27T11:55:41.338Z</time></trkpt><trkpt lat="43.6382368" lon="10.6550095"><ele>38.4</ele><time>2026-04-27T11:55:42.339Z</time></trkpt><trkpt lat="43.6382198" lon="10.6548817"><ele>37.6</ele><time>2026-04-27T11:55:43.325Z</time></trkpt><trkpt lat="43.6382017" lon="10.6547433"><ele>36.8</ele><time>2026-04-27T11:55:44.337Z</time></trkpt><trkpt lat="43.6381789" lon="10.6546012"><ele>36.0</ele><time>2026-04-27T11:55:45.337Z</time></trkpt><trkpt lat="43.6381533" lon="10.6544501"><ele>34.75</ele><time>2026-04-27T11:55:46.36Z</time></trkpt><trkpt lat="43.6381326" lon="10.6542914"><ele>33.5</ele><time>2026-04-27T11:55:47.353Z</time></trkpt><trkpt lat="43.6381084" lon="10.6541303"><ele>32.25</ele><time>2026-04-27T11:55:48.362Z</time></trkpt><trkpt lat="43.6380842" lon="10.6539714"><ele>31.0</ele><time>2026-04-27T11:55:49.357Z</time></trkpt><trkpt lat="43.6380624" lon="10.6538201"><ele>31.0</ele><time>2026-04-27T11:55:50.361Z</time></trkpt><trkpt lat="43.6380406" lon="10.6536644"><ele>31.0</ele><time>2026-04-27T11:55:51.354Z</time></trkpt><trkpt lat="43.6380237" lon="10.6535169"><ele>31.0</ele><time>2026-04-27T11:55:52.348Z</time></trkpt><trkpt lat="43.6380076" lon="10.6533764"><ele>31.0</ele><time>2026-04-27T11:55:53.349Z</time></trkpt><trkpt lat="43.6379959" lon="10.6532609"><ele>31.0</ele><time>2026-04-27T11:55:54.36Z</time></trkpt><trkpt lat="43.6379837" lon="10.6531696"><ele>30.666666666666668</ele><time>2026-04-27T11:55:55.347Z</time></trkpt><trkpt lat="43.637965" lon="10.6530165"><ele>30.333333333333336</ele><time>2026-04-27T11:55:57.345Z</time></trkpt><trkpt lat="43.6379491" lon="10.6529209"><ele>30.0</ele><time>2026-04-27T11:55:59.343Z</time></trkpt><trkpt lat="43.6379068" lon="10.6528419"><ele>29.666666666666664</ele><time>2026-04-27T11:56:06.345Z</time></trkpt><trkpt lat="43.6378939" lon="10.652747"><ele>29.333333333333332</ele><time>2026-04-27T11:56:08.339Z</time></trkpt><trkpt lat="43.6378435" lon="10.6526894"><ele>29.0</ele><time>2026-04-27T11:56:10.335Z</time></trkpt><trkpt lat="43.6377655" lon="10.652786"><ele>28.4</ele><time>2026-04-27T11:56:12.326Z</time></trkpt><trkpt lat="43.637717" lon="10.6528982"><ele>27.799999999999997</ele><time>2026-04-27T11:56:14.333Z</time></trkpt><trkpt lat="43.6376603" lon="10.6530024"><ele>27.200000000000003</ele><time>2026-04-27T11:56:16.333Z</time></trkpt><trkpt lat="43.637612" lon="10.6531092"><ele>26.6</ele><time>2026-04-27T11:56:18.335Z</time></trkpt><trkpt lat="43.6375563" lon="10.6532033"><ele>26.0</ele><time>2026-04-27T11:56:20.339Z</time></trkpt><trkpt lat="43.6374983" lon="10.6532938"><ele>26.0</ele><time>2026-04-27T11:56:22.333Z</time></trkpt><trkpt lat="43.6374268" lon="10.6533834"><ele>26.0</ele><time>2026-04-27T11:56:24.332Z</time></trkpt><trkpt lat="43.637353" lon="10.6534719"><ele>26.0</ele><time>2026-04-27T11:56:26.331Z</time></trkpt><trkpt lat="43.6372774" lon="10.6535534"><ele>26.0</ele><time>2026-04-27T11:56:28.333Z</time></trkpt><trkpt lat="43.6372064" lon="10.6536385"><ele>26.0</ele><time>2026-04-27T11:56:30.329Z</time></trkpt><trkpt lat="43.6371341" lon="10.6537125"><ele>26.0</ele><time>2026-04-27T11:56:32.322Z</time></trkpt><trkpt lat="43.6370623" lon="10.6537917"><ele>26.0</ele><time>2026-04-27T11:56:34.327Z</time></trkpt><trkpt lat="43.6369901" lon="10.653867"><ele>26.0</ele><time>2026-04-27T11:56:36.331Z</time></trkpt><trkpt lat="43.6369146" lon="10.6539399"><ele>26.0</ele><time>2026-04-27T11:56:38.328Z</time></trkpt><trkpt lat="43.6368451" lon="10.6540374"><ele>26.0</ele><time>2026-04-27T11:56:40.331Z</time></trkpt><trkpt lat="43.6367866" lon="10.6541431"><ele>25.666666666666664</ele><time>2026-04-27T11:56:42.332Z</time></trkpt><trkpt lat="43.6367263" lon="10.6542382"><ele>25.333333333333332</ele><time>2026-04-27T11:56:44.335Z</time></trkpt><trkpt lat="43.6366952" lon="10.6543237"><ele>25.0</ele><time>2026-04-27T11:56:46.35Z</time></trkpt><trkpt lat="43.6366498" lon="10.6544412"><ele>24.666666666666664</ele><time>2026-04-27T11:56:49.339Z</time></trkpt><trkpt lat="43.6365941" lon="10.654515"><ele>24.333333333333332</ele><time>2026-04-27T11:56:51.342Z</time></trkpt><trkpt lat="43.6365328" lon="10.6546037"><ele>24.0</ele><time>2026-04-27T11:56:53.342Z</time></trkpt><trkpt lat="43.6364558" lon="10.6546981"><ele>24.4</ele><time>2026-04-27T11:56:55.339Z</time></trkpt><trkpt lat="43.6363782" lon="10.6547978"><ele>24.799999999999997</ele><time>2026-04-27T11:56:57.331Z</time></trkpt><trkpt lat="43.6362964" lon="10.6549011"><ele>25.200000000000003</ele><time>2026-04-27T11:56:59.345Z</time></trkpt><trkpt lat="43.6362123" lon="10.6549997"><ele>25.6</ele><time>2026-04-27T11:57:01.342Z</time></trkpt><trkpt lat="43.636131" lon="10.6550988"><ele>26.0</ele><time>2026-04-27T11:57:03.34Z</time></trkpt><trkpt lat="43.6360418" lon="10.6551899"><ele>26.0</ele><time>2026-04-27T11:57:05.329Z</time></trkpt><trkpt lat="43.635948" lon="10.655276"><ele>26.0</ele><time>2026-04-27T11:57:07.333Z</time></trkpt><trkpt lat="43.6358532" lon="10.6553598"><ele>26.0</ele><time>2026-04-27T11:57:09.332Z</time></trkpt><trkpt lat="43.6357483" lon="10.6554417"><ele>26.0</ele><time>2026-04-27T11:57:11.335Z</time></trkpt><trkpt lat="43.635642" lon="10.655524"><ele>26.25</ele><time>2026-04-27T11:57:13.334Z</time></trkpt><trkpt lat="43.6355338" lon="10.6556034"><ele>26.5</ele><time>2026-04-27T11:57:15.336Z</time></trkpt><trkpt lat="43.63543" lon="10.655683"><ele>26.75</ele><time>2026-04-27T11:57:17.338Z</time></trkpt><trkpt lat="43.6353204" lon="10.6557634"><ele>27.0</ele><time>2026-04-27T11:57:19.336Z</time></trkpt><trkpt lat="43.6352153" lon="10.6558438"><ele>27.0</ele><time>2026-04-27T11:57:21.336Z</time></trkpt><trkpt lat="43.6351034" lon="10.6559211"><ele>27.000000000000004</ele><time>2026-04-27T11:57:23.337Z</time></trkpt><trkpt lat="43.6350468" lon="10.6559638"><ele>27.000000000000004</ele><time>2026-04-27T11:57:24.333Z</time></trkpt><trkpt lat="43.63494" lon="10.656046"><ele>27.0</ele><time>2026-04-27T11:57:26.335Z</time></trkpt><trkpt lat="43.6348353" lon="10.6561274"><ele>27.0</ele><time>2026-04-27T11:57:28.336Z</time></trkpt><trkpt lat="43.6347299" lon="10.6562095"><ele>26.75</ele><time>2026-04-27T11:57:30.334Z</time></trkpt><trkpt lat="43.6346267" lon="10.656293"><ele>26.5</ele><time>2026-04-27T11:57:32.332Z</time></trkpt><trkpt lat="43.6345208" lon="10.6563713"><ele>26.25</ele><time>2026-04-27T11:57:34.335Z</time></trkpt><trkpt lat="43.634412" lon="10.6564566"><ele>26.0</ele><time>2026-04-27T11:57:36.346Z</time></trkpt><trkpt lat="43.6343085" lon="10.6565441"><ele>26.0</ele><time>2026-04-27T11:57:38.337Z</time></trkpt><trkpt lat="43.6342539" lon="10.6565878"><ele>26.0</ele><time>2026-04-27T11:57:39.336Z</time></trkpt><trkpt lat="43.634148" lon="10.6566797"><ele>26.0</ele><time>2026-04-27T11:57:41.343Z</time></trkpt><trkpt lat="43.6340931" lon="10.6567238"><ele>26.0</ele><time>2026-04-27T11:57:42.338Z</time></trkpt><trkpt lat="43.6340381" lon="10.6567705"><ele>26.0</ele><time>2026-04-27T11:57:43.342Z</time></trkpt><trkpt lat="43.6339809" lon="10.6568128"><ele>26.0</ele><time>2026-04-27T11:57:44.339Z</time></trkpt><trkpt lat="43.6339245" lon="10.6568588"><ele>26.0</ele><time>2026-04-27T11:57:45.341Z</time></trkpt><trkpt lat="43.6338133" lon="10.6569444"><ele>25.857142857142858</ele><time>2026-04-27T11:57:47.344Z</time></trkpt><trkpt lat="43.633756" lon="10.6569883"><ele>25.714285714285715</ele><time>2026-04-27T11:57:48.342Z</time></trkpt><trkpt lat="43.6336993" lon="10.6570288"><ele>25.571428571428573</ele><time>2026-04-27T11:57:49.338Z</time></trkpt><trkpt lat="43.6336411" lon="10.6570713"><ele>25.42857142857143</ele><time>2026-04-27T11:57:50.348Z</time></trkpt><trkpt lat="43.6335834" lon="10.6571127"><ele>25.285714285714285</ele><time>2026-04-27T11:57:51.347Z</time></trkpt><trkpt lat="43.633526" lon="10.6571509"><ele>25.142857142857146</ele><time>2026-04-27T11:57:52.344Z</time></trkpt><trkpt lat="43.6334683" lon="10.6571951"><ele>25.0</ele><time>2026-04-27T11:57:53.345Z</time></trkpt><trkpt lat="43.6334118" lon="10.6572364"><ele>25.000000000000004</ele><time>2026-04-27T11:57:54.345Z</time></trkpt><trkpt lat="43.6333558" lon="10.65728"><ele>25.0</ele><time>2026-04-27T11:57:55.344Z</time></trkpt><trkpt lat="43.6333007" lon="10.6573235"><ele>25.0</ele><time>2026-04-27T11:57:56.341Z</time></trkpt><trkpt lat="43.633191" lon="10.6574087"><ele>25.0</ele><time>2026-04-27T11:57:58.356Z</time></trkpt><trkpt lat="43.633135" lon="10.6574521"><ele>25.0</ele><time>2026-04-27T11:57:59.345Z</time></trkpt><trkpt lat="43.6330793" lon="10.6574975"><ele>25.000000000000004</ele><time>2026-04-27T11:58:00.347Z</time></trkpt><trkpt lat="43.6330234" lon="10.6575418"><ele>25.0</ele><time>2026-04-27T11:58:01.343Z</time></trkpt><trkpt lat="43.6329678" lon="10.6575843"><ele>25.000000000000004</ele><time>2026-04-27T11:58:02.343Z</time></trkpt><trkpt lat="43.6329119" lon="10.6576275"><ele>25.0</ele><time>2026-04-27T11:58:03.343Z</time></trkpt><trkpt lat="43.6328567" lon="10.6576721"><ele>25.0</ele><time>2026-04-27T11:58:04.345Z</time></trkpt><trkpt lat="43.6327994" lon="10.6577167"><ele>25.0</ele><time>2026-04-27T11:58:05.343Z</time></trkpt><trkpt lat="43.6327418" lon="10.6577636"><ele>25.0</ele><time>2026-04-27T11:58:06.343Z</time></trkpt><trkpt lat="43.632684" lon="10.6578084"><ele>25.000000000000004</ele><time>2026-04-27T11:58:07.344Z</time></trkpt><trkpt lat="43.632626" lon="10.6578548"><ele>25.0</ele><time>2026-04-27T11:58:08.342Z</time></trkpt><trkpt lat="43.6325688" lon="10.6578988"><ele>24.714285714285715</ele><time>2026-04-27T11:58:09.343Z</time></trkpt><trkpt lat="43.6325114" lon="10.6579413"><ele>24.42857142857143</ele><time>2026-04-27T11:58:10.342Z</time></trkpt><trkpt lat="43.6324569" lon="10.6579853"><ele>24.142857142857146</ele><time>2026-04-27T11:58:11.344Z</time></trkpt><trkpt lat="43.6324012" lon="10.6580304"><ele>23.857142857142858</ele><time>2026-04-27T11:58:12.341Z</time></trkpt><trkpt lat="43.6323462" lon="10.6580734"><ele>23.57142857142857</ele><time>2026-04-27T11:58:13.342Z</time></trkpt><trkpt lat="43.6322888" lon="10.658116"><ele>23.28571428571429</ele><time>2026-04-27T11:58:14.347Z</time></trkpt><trkpt lat="43.6322314" lon="10.6581544"><ele>23.0</ele><time>2026-04-27T11:58:15.343Z</time></trkpt><trkpt lat="43.6321728" lon="10.6581951"><ele>23.0</ele><time>2026-04-27T11:58:16.342Z</time></trkpt><trkpt lat="43.6321158" lon="10.6582385"><ele>23.0</ele><time>2026-04-27T11:58:17.346Z</time></trkpt><trkpt lat="43.6320582" lon="10.6582834"><ele>23.0</ele><time>2026-04-27T11:58:18.346Z</time></trkpt><trkpt lat="43.6319978" lon="10.6583255"><ele>23.0</ele><time>2026-04-27T11:58:19.345Z</time></trkpt><trkpt lat="43.6319401" lon="10.658366"><ele>23.0</ele><time>2026-04-27T11:58:20.345Z</time></trkpt><trkpt lat="43.6318805" lon="10.6584061"><ele>23.0</ele><time>2026-04-27T11:58:21.346Z</time></trkpt><trkpt lat="43.6318204" lon="10.6584476"><ele>23.0</ele><time>2026-04-27T11:58:22.341Z</time></trkpt><trkpt lat="43.6317585" lon="10.6584869"><ele>22.857142857142858</ele><time>2026-04-27T11:58:23.342Z</time></trkpt><trkpt lat="43.6316971" lon="10.6585248"><ele>22.71428571428571</ele><time>2026-04-27T11:58:24.343Z</time></trkpt><trkpt lat="43.6316356" lon="10.658561"><ele>22.57142857142857</ele><time>2026-04-27T11:58:25.333Z</time></trkpt><trkpt lat="43.6315736" lon="10.6585954"><ele>22.42857142857143</ele><time>2026-04-27T11:58:26.337Z</time></trkpt><trkpt lat="43.6315117" lon="10.6586318"><ele>22.285714285714285</ele><time>2026-04-27T11:58:27.337Z</time></trkpt><trkpt lat="43.6314528" lon="10.6586721"><ele>22.142857142857142</ele><time>2026-04-27T11:58:28.335Z</time></trkpt><trkpt lat="43.6313931" lon="10.6587087"><ele>22.0</ele><time>2026-04-27T11:58:29.349Z</time></trkpt><trkpt lat="43.6313332" lon="10.6587438"><ele>22.5</ele><time>2026-04-27T11:58:30.342Z</time></trkpt><trkpt lat="43.6312194" lon="10.6588081"><ele>23.0</ele><time>2026-04-27T11:58:32.334Z</time></trkpt><trkpt lat="43.6311021" lon="10.6588688"><ele>23.5</ele><time>2026-04-27T11:58:34.337Z</time></trkpt><trkpt lat="43.6309865" lon="10.6589337"><ele>24.0</ele><time>2026-04-27T11:58:36.337Z</time></trkpt><trkpt lat="43.6308724" lon="10.6589972"><ele>24.0</ele><time>2026-04-27T11:58:38.344Z</time></trkpt><trkpt lat="43.6307601" lon="10.659058"><ele>24.0</ele><time>2026-04-27T11:58:40.336Z</time></trkpt><trkpt lat="43.6306501" lon="10.6591115"><ele>24.0</ele><time>2026-04-27T11:58:42.34Z</time></trkpt><trkpt lat="43.6305443" lon="10.6591567"><ele>24.0</ele><time>2026-04-27T11:58:44.338Z</time></trkpt><trkpt lat="43.630443" lon="10.6591959"><ele>24.0</ele><time>2026-04-27T11:58:46.346Z</time></trkpt><trkpt lat="43.6303395" lon="10.6592399"><ele>24.0</ele><time>2026-04-27T11:58:48.346Z</time></trkpt><trkpt lat="43.6302363" lon="10.6592876"><ele>24.0</ele><time>2026-04-27T11:58:50.342Z</time></trkpt><trkpt lat="43.6301363" lon="10.6593305"><ele>24.0</ele><time>2026-04-27T11:58:52.342Z</time></trkpt><trkpt lat="43.6300376" lon="10.6593749"><ele>24.0</ele><time>2026-04-27T11:58:54.343Z</time></trkpt><trkpt lat="43.6299375" lon="10.6594139"><ele>24.4</ele><time>2026-04-27T11:58:56.34Z</time></trkpt><trkpt lat="43.6298384" lon="10.6594539"><ele>24.799999999999997</ele><time>2026-04-27T11:58:58.351Z</time></trkpt><trkpt lat="43.6297418" lon="10.6594868"><ele>25.200000000000003</ele><time>2026-04-27T11:59:00.35Z</time></trkpt><trkpt lat="43.6296427" lon="10.6595171"><ele>25.6</ele><time>2026-04-27T11:59:02.352Z</time></trkpt><trkpt lat="43.6295425" lon="10.6595523"><ele>26.0</ele><time>2026-04-27T11:59:04.335Z</time></trkpt><trkpt lat="43.6294433" lon="10.6595821"><ele>26.0</ele><time>2026-04-27T11:59:06.336Z</time></trkpt><trkpt lat="43.6293522" lon="10.6596154"><ele>26.0</ele><time>2026-04-27T11:59:08.346Z</time></trkpt><trkpt lat="43.6292563" lon="10.6596401"><ele>26.0</ele><time>2026-04-27T11:59:10.35Z</time></trkpt><trkpt lat="43.6291561" lon="10.659665"><ele>26.0</ele><time>2026-04-27T11:59:12.359Z</time></trkpt><trkpt lat="43.6290609" lon="10.659692"><ele>26.0</ele><time>2026-04-27T11:59:14.342Z</time></trkpt><trkpt lat="43.6289698" lon="10.659714"><ele>25.999999999999996</ele><time>2026-04-27T11:59:16.344Z</time></trkpt><trkpt lat="43.6288812" lon="10.6597347"><ele>26.0</ele><time>2026-04-27T11:59:18.35Z</time></trkpt><trkpt lat="43.6288013" lon="10.6597527"><ele>26.0</ele><time>2026-04-27T11:59:20.356Z</time></trkpt><trkpt lat="43.6287224" lon="10.65977"><ele>26.0</ele><time>2026-04-27T11:59:22.37Z</time></trkpt><trkpt lat="43.6286431" lon="10.6597802"><ele>25.999999999999996</ele><time>2026-04-27T11:59:24.354Z</time></trkpt><trkpt lat="43.6285646" lon="10.6597853"><ele>26.0</ele><time>2026-04-27T11:59:26.368Z</time></trkpt><trkpt lat="43.6284884" lon="10.6597751"><ele>26.142857142857142</ele><time>2026-04-27T11:59:28.375Z</time></trkpt><trkpt lat="43.6284199" lon="10.659762"><ele>26.28571428571429</ele><time>2026-04-27T11:59:30.373Z</time></trkpt><trkpt lat="43.6283593" lon="10.6597209"><ele>26.42857142857143</ele><time>2026-04-27T11:59:32.372Z</time></trkpt><trkpt lat="43.6282991" lon="10.6596659"><ele>26.57142857142857</ele><time>2026-04-27T11:59:34.37Z</time></trkpt><trkpt lat="43.6282437" lon="10.659606"><ele>26.714285714285715</ele><time>2026-04-27T11:59:36.372Z</time></trkpt><trkpt lat="43.6281818" lon="10.6595455"><ele>26.857142857142858</ele><time>2026-04-27T11:59:38.372Z</time></trkpt><trkpt lat="43.628122" lon="10.659486"><ele>27.0</ele><time>2026-04-27T11:59:40.359Z</time></trkpt><trkpt lat="43.6280781" lon="10.659401"><ele>27.166666666666668</ele><time>2026-04-27T11:59:42.367Z</time></trkpt><trkpt lat="43.6280499" lon="10.6592986"><ele>27.333333333333336</ele><time>2026-04-27T11:59:44.361Z</time></trkpt><trkpt lat="43.6280248" lon="10.6591962"><ele>27.5</ele><time>2026-04-27T11:59:46.361Z</time></trkpt><trkpt lat="43.6280069" lon="10.6590926"><ele>27.666666666666668</ele><time>2026-04-27T11:59:48.362Z</time></trkpt><trkpt lat="43.6279898" lon="10.6589936"><ele>27.833333333333336</ele><time>2026-04-27T11:59:50.362Z</time></trkpt><trkpt lat="43.6279742" lon="10.6588976"><ele>28.0</ele><time>2026-04-27T11:59:52.372Z</time></trkpt><trkpt lat="43.627953" lon="10.6588028"><ele>28.0</ele><time>2026-04-27T11:59:54.363Z</time></trkpt><trkpt lat="43.6279335" lon="10.6587101"><ele>28.0</ele><time>2026-04-27T11:59:56.362Z</time></trkpt><trkpt lat="43.6279134" lon="10.6586173"><ele>28.0</ele><time>2026-04-27T11:59:58.363Z</time></trkpt><trkpt lat="43.6278998" lon="10.6585228"><ele>28.0</ele><time>2026-04-27T12:00:00.375Z</time></trkpt><trkpt lat="43.6278844" lon="10.6584278"><ele>28.0</ele><time>2026-04-27T12:00:02.374Z</time></trkpt><trkpt lat="43.6278661" lon="10.6583284"><ele>28.0</ele><time>2026-04-27T12:00:04.364Z</time></trkpt><trkpt lat="43.627849" lon="10.6582293"><ele>28.0</ele><time>2026-04-27T12:00:06.364Z</time></trkpt><trkpt lat="43.6278333" lon="10.6581254"><ele>28.166666666666668</ele><time>2026-04-27T12:00:08.381Z</time></trkpt><trkpt lat="43.6278163" lon="10.6580214"><ele>28.333333333333336</ele><time>2026-04-27T12:00:10.357Z</time></trkpt><trkpt lat="43.6277989" lon="10.6579179"><ele>28.5</ele><time>2026-04-27T12:00:12.37Z</time></trkpt><trkpt lat="43.6277793" lon="10.6578078"><ele>28.666666666666664</ele><time>2026-04-27T12:00:14.352Z</time></trkpt><trkpt lat="43.6277658" lon="10.6576996"><ele>28.833333333333332</ele><time>2026-04-27T12:00:16.353Z</time></trkpt><trkpt lat="43.627751" lon="10.6575957"><ele>29.0</ele><time>2026-04-27T12:00:18.359Z</time></trkpt><trkpt lat="43.6277348" lon="10.6574892"><ele>28.999999999999996</ele><time>2026-04-27T12:00:20.359Z</time></trkpt><trkpt lat="43.6277158" lon="10.6573792"><ele>29.0</ele><time>2026-04-27T12:00:22.369Z</time></trkpt><trkpt lat="43.6276932" lon="10.6572726"><ele>29.0</ele><time>2026-04-27T12:00:24.362Z</time></trkpt><trkpt lat="43.6276686" lon="10.6571641"><ele>29.0</ele><time>2026-04-27T12:00:26.36Z</time></trkpt><trkpt lat="43.6276435" lon="10.6570518"><ele>28.999999999999996</ele><time>2026-04-27T12:00:28.361Z</time></trkpt><trkpt lat="43.6276162" lon="10.6569392"><ele>29.0</ele><time>2026-04-27T12:00:30.379Z</time></trkpt><trkpt lat="43.6275868" lon="10.6568267"><ele>29.2</ele><time>2026-04-27T12:00:32.354Z</time></trkpt><trkpt lat="43.6275536" lon="10.6567074"><ele>29.4</ele><time>2026-04-27T12:00:34.333Z</time></trkpt><trkpt lat="43.6275172" lon="10.6565822"><ele>29.6</ele><time>2026-04-27T12:00:36.349Z</time></trkpt><trkpt lat="43.6274786" lon="10.6564523"><ele>29.8</ele><time>2026-04-27T12:00:38.347Z</time></trkpt><trkpt lat="43.6274361" lon="10.6563138"><ele>30.0</ele><time>2026-04-27T12:00:40.344Z</time></trkpt><trkpt lat="43.6273848" lon="10.656167"><ele>29.666666666666668</ele><time>2026-04-27T12:00:42.343Z</time></trkpt><trkpt lat="43.627329" lon="10.6560125"><ele>29.333333333333336</ele><time>2026-04-27T12:00:44.341Z</time></trkpt><trkpt lat="43.6273011" lon="10.6559337"><ele>29.0</ele><time>2026-04-27T12:00:45.342Z</time></trkpt><trkpt lat="43.62727" lon="10.6558555"><ele>28.666666666666668</ele><time>2026-04-27T12:00:46.344Z</time></trkpt><trkpt lat="43.6272399" lon="10.6557752"><ele>28.333333333333336</ele><time>2026-04-27T12:00:47.343Z</time></trkpt><trkpt lat="43.6272057" lon="10.6556921"><ele>28.0</ele><time>2026-04-27T12:00:48.348Z</time></trkpt><trkpt lat="43.6271707" lon="10.6556073"><ele>28.0</ele><time>2026-04-27T12:00:49.34Z</time></trkpt><trkpt lat="43.6271303" lon="10.6555215"><ele>28.0</ele><time>2026-04-27T12:00:50.342Z</time></trkpt><trkpt lat="43.6270891" lon="10.6554396"><ele>28.0</ele><time>2026-04-27T12:00:51.348Z</time></trkpt><trkpt lat="43.6270476" lon="10.6553586"><ele>28.0</ele><time>2026-04-27T12:00:52.346Z</time></trkpt><trkpt lat="43.6270047" lon="10.6552763"><ele>28.0</ele><time>2026-04-27T12:00:53.344Z</time></trkpt><trkpt lat="43.626962" lon="10.6551965"><ele>28.0</ele><time>2026-04-27T12:00:54.352Z</time></trkpt><trkpt lat="43.6269163" lon="10.6551191"><ele>28.0</ele><time>2026-04-27T12:00:55.344Z</time></trkpt><trkpt lat="43.6268715" lon="10.6550417"><ele>27.571428571428573</ele><time>2026-04-27T12:00:56.346Z</time></trkpt><trkpt lat="43.626825" lon="10.6549659"><ele>27.142857142857142</ele><time>2026-04-27T12:00:57.343Z</time></trkpt><trkpt lat="43.6267792" lon="10.6548901"><ele>26.714285714285715</ele><time>2026-04-27T12:00:58.344Z</time></trkpt><trkpt lat="43.6267349" lon="10.6548143"><ele>26.285714285714285</ele><time>2026-04-27T12:00:59.343Z</time></trkpt><trkpt lat="43.6266906" lon="10.6547389"><ele>25.857142857142858</ele><time>2026-04-27T12:01:00.356Z</time></trkpt><trkpt lat="43.6266452" lon="10.6546662"><ele>25.42857142857143</ele><time>2026-04-27T12:01:01.349Z</time></trkpt><trkpt lat="43.6265988" lon="10.6545957"><ele>25.0</ele><time>2026-04-27T12:01:02.345Z</time></trkpt><trkpt lat="43.6265507" lon="10.6545268"><ele>25.000000000000004</ele><time>2026-04-27T12:01:03.341Z</time></trkpt><trkpt lat="43.6265001" lon="10.6544567"><ele>25.0</ele><time>2026-04-27T12:01:04.357Z</time></trkpt><trkpt lat="43.6264485" lon="10.6543902"><ele>25.0</ele><time>2026-04-27T12:01:05.341Z</time></trkpt><trkpt lat="43.6263967" lon="10.6543248"><ele>25.0</ele><time>2026-04-27T12:01:06.347Z</time></trkpt><trkpt lat="43.6263433" lon="10.6542627"><ele>25.0</ele><time>2026-04-27T12:01:07.35Z</time></trkpt><trkpt lat="43.626292" lon="10.6542022"><ele>25.000000000000004</ele><time>2026-04-27T12:01:08.358Z</time></trkpt><trkpt lat="43.6262379" lon="10.6541463"><ele>25.0</ele><time>2026-04-27T12:01:09.347Z</time></trkpt><trkpt lat="43.6261811" lon="10.6540905"><ele>24.714285714285715</ele><time>2026-04-27T12:01:10.346Z</time></trkpt><trkpt lat="43.6261239" lon="10.6540355"><ele>24.42857142857143</ele><time>2026-04-27T12:01:11.349Z</time></trkpt><trkpt lat="43.6260656" lon="10.6539748"><ele>24.142857142857146</ele><time>2026-04-27T12:01:12.349Z</time></trkpt><trkpt lat="43.6260064" lon="10.6539206"><ele>23.857142857142858</ele><time>2026-04-27T12:01:13.351Z</time></trkpt><trkpt lat="43.6259505" lon="10.6538667"><ele>23.57142857142857</ele><time>2026-04-27T12:01:14.349Z</time></trkpt><trkpt lat="43.6258943" lon="10.6538145"><ele>23.28571428571429</ele><time>2026-04-27T12:01:15.343Z</time></trkpt><trkpt lat="43.6258408" lon="10.653759"><ele>23.0</ele><time>2026-04-27T12:01:16.35Z</time></trkpt><trkpt lat="43.6257884" lon="10.6537068"><ele>23.0</ele><time>2026-04-27T12:01:17.344Z</time></trkpt><trkpt lat="43.6257357" lon="10.6536494"><ele>23.0</ele><time>2026-04-27T12:01:18.345Z</time></trkpt><trkpt lat="43.6256823" lon="10.6535966"><ele>23.0</ele><time>2026-04-27T12:01:19.349Z</time></trkpt><trkpt lat="43.6256288" lon="10.6535436"><ele>23.0</ele><time>2026-04-27T12:01:20.346Z</time></trkpt><trkpt lat="43.6255277" lon="10.6534436"><ele>23.0</ele><time>2026-04-27T12:01:22.352Z</time></trkpt><trkpt lat="43.625431" lon="10.6533417"><ele>23.0</ele><time>2026-04-27T12:01:24.352Z</time></trkpt><trkpt lat="43.6253302" lon="10.6532418"><ele>22.75</ele><time>2026-04-27T12:01:26.345Z</time></trkpt><trkpt lat="43.6252363" lon="10.6531463"><ele>22.5</ele><time>2026-04-27T12:01:28.351Z</time></trkpt><trkpt lat="43.6251516" lon="10.6530471"><ele>22.25</ele><time>2026-04-27T12:01:30.362Z</time></trkpt><trkpt lat="43.6250696" lon="10.6529366"><ele>22.0</ele><time>2026-04-27T12:01:32.345Z</time></trkpt><trkpt lat="43.6249955" lon="10.6528169"><ele>22.0</ele><time>2026-04-27T12:01:34.342Z</time></trkpt><trkpt lat="43.6249253" lon="10.6526898"><ele>22.0</ele><time>2026-04-27T12:01:36.344Z</time></trkpt><trkpt lat="43.6248576" lon="10.6525678"><ele>22.0</ele><time>2026-04-27T12:01:38.345Z</time></trkpt><trkpt lat="43.6247875" lon="10.6524458"><ele>22.0</ele><time>2026-04-27T12:01:40.344Z</time></trkpt><trkpt lat="43.6247129" lon="10.6523218"><ele>22.0</ele><time>2026-04-27T12:01:42.346Z</time></trkpt><trkpt lat="43.6246396" lon="10.6521972"><ele>22.0</ele><time>2026-04-27T12:01:44.349Z</time></trkpt><trkpt lat="43.6245665" lon="10.6520798"><ele>22.0</ele><time>2026-04-27T12:01:46.347Z</time></trkpt><trkpt lat="43.6244968" lon="10.6519651"><ele>22.0</ele><time>2026-04-27T12:01:48.343Z</time></trkpt><trkpt lat="43.6244292" lon="10.6518441"><ele>22.0</ele><time>2026-04-27T12:01:50.342Z</time></trkpt><trkpt lat="43.6243564" lon="10.6517259"><ele>22.200000000000003</ele><time>2026-04-27T12:01:52.353Z</time></trkpt><trkpt lat="43.624286" lon="10.6516097"><ele>22.4</ele><time>2026-04-27T12:01:54.348Z</time></trkpt><trkpt lat="43.6242174" lon="10.6514937"><ele>22.6</ele><time>2026-04-27T12:01:56.341Z</time></trkpt><trkpt lat="43.6241509" lon="10.651378"><ele>22.799999999999997</ele><time>2026-04-27T12:01:58.338Z</time></trkpt><trkpt lat="43.6240835" lon="10.651268"><ele>23.0</ele><time>2026-04-27T12:02:00.367Z</time></trkpt><trkpt lat="43.6240156" lon="10.6511553"><ele>23.0</ele><time>2026-04-27T12:02:02.344Z</time></trkpt><trkpt lat="43.6239501" lon="10.6510488"><ele>23.0</ele><time>2026-04-27T12:02:04.349Z</time></trkpt><trkpt lat="43.6238872" lon="10.650943"><ele>23.0</ele><time>2026-04-27T12:02:06.354Z</time></trkpt><trkpt lat="43.6238253" lon="10.6508359"><ele>23.0</ele><time>2026-04-27T12:02:08.347Z</time></trkpt><trkpt lat="43.6237646" lon="10.6507301"><ele>23.0</ele><time>2026-04-27T12:02:10.346Z</time></trkpt><trkpt lat="43.6237029" lon="10.6506228"><ele>22.799999999999997</ele><time>2026-04-27T12:02:12.345Z</time></trkpt><trkpt lat="43.6236397" lon="10.6505174"><ele>22.6</ele><time>2026-04-27T12:02:14.344Z</time></trkpt><trkpt lat="43.6235766" lon="10.6504078"><ele>22.4</ele><time>2026-04-27T12:02:16.343Z</time></trkpt><trkpt lat="43.6235149" lon="10.6503025"><ele>22.200000000000003</ele><time>2026-04-27T12:02:18.346Z</time></trkpt><trkpt lat="43.6234518" lon="10.6502018"><ele>22.0</ele><time>2026-04-27T12:02:20.342Z</time></trkpt><trkpt lat="43.6233873" lon="10.6500962"><ele>22.0</ele><time>2026-04-27T12:02:22.354Z</time></trkpt><trkpt lat="43.6233184" lon="10.6499881"><ele>22.0</ele><time>2026-04-27T12:02:24.352Z</time></trkpt><trkpt lat="43.6232532" lon="10.6498735"><ele>22.0</ele><time>2026-04-27T12:02:26.338Z</time></trkpt><trkpt lat="43.6231872" lon="10.6497637"><ele>22.0</ele><time>2026-04-27T12:02:28.347Z</time></trkpt><trkpt lat="43.6231203" lon="10.6496551"><ele>22.0</ele><time>2026-04-27T12:02:30.354Z</time></trkpt><trkpt lat="43.6230553" lon="10.6495486"><ele>22.0</ele><time>2026-04-27T12:02:32.343Z</time></trkpt><trkpt lat="43.6229904" lon="10.6494393"><ele>22.0</ele><time>2026-04-27T12:02:34.348Z</time></trkpt><trkpt lat="43.6229278" lon="10.6493328"><ele>22.0</ele><time>2026-04-27T12:02:36.345Z</time></trkpt><trkpt lat="43.6228613" lon="10.6492276"><ele>22.0</ele><time>2026-04-27T12:02:38.346Z</time></trkpt><trkpt lat="43.6228021" lon="10.649123"><ele>22.0</ele><time>2026-04-27T12:02:40.349Z</time></trkpt><trkpt lat="43.622746" lon="10.6490129"><ele>22.0</ele><time>2026-04-27T12:02:42.344Z</time></trkpt><trkpt lat="43.6226835" lon="10.6489051"><ele>22.0</ele><time>2026-04-27T12:02:44.349Z</time></trkpt><trkpt lat="43.6226229" lon="10.6488056"><ele>22.0</ele><time>2026-04-27T12:02:46.344Z</time></trkpt><trkpt lat="43.6225617" lon="10.6487066"><ele>22.0</ele><time>2026-04-27T12:02:48.35Z</time></trkpt><trkpt lat="43.6225006" lon="10.6486054"><ele>22.0</ele><time>2026-04-27T12:02:50.349Z</time></trkpt><trkpt lat="43.6224407" lon="10.6485015"><ele>22.0</ele><time>2026-04-27T12:02:52.35Z</time></trkpt><trkpt lat="43.6223782" lon="10.6484016"><ele>22.0</ele><time>2026-04-27T12:02:54.344Z</time></trkpt><trkpt lat="43.6223142" lon="10.6482968"><ele>22.0</ele><time>2026-04-27T12:02:56.341Z</time></trkpt><trkpt lat="43.6222489" lon="10.6481886"><ele>22.0</ele><time>2026-04-27T12:02:58.338Z</time></trkpt><trkpt lat="43.6221841" lon="10.6480813"><ele>22.0</ele><time>2026-04-27T12:03:00.356Z</time></trkpt><trkpt lat="43.6221183" lon="10.6479709"><ele>22.0</ele><time>2026-04-27T12:03:02.334Z</time></trkpt><trkpt lat="43.6220476" lon="10.6478602"><ele>22.0</ele><time>2026-04-27T12:03:04.343Z</time></trkpt><trkpt lat="43.621982" lon="10.6477494"><ele>22.0</ele><time>2026-04-27T12:03:06.348Z</time></trkpt><trkpt lat="43.6219137" lon="10.6476361"><ele>22.0</ele><time>2026-04-27T12:03:08.351Z</time></trkpt><trkpt lat="43.6218484" lon="10.6475257"><ele>22.0</ele><time>2026-04-27T12:03:10.343Z</time></trkpt><trkpt lat="43.6217849" lon="10.6474105"><ele>21.8</ele><time>2026-04-27T12:03:12.343Z</time></trkpt><trkpt lat="43.6217205" lon="10.6472966"><ele>21.6</ele><time>2026-04-27T12:03:14.352Z</time></trkpt><trkpt lat="43.6216531" lon="10.6471867"><ele>21.400000000000002</ele><time>2026-04-27T12:03:16.347Z</time></trkpt><trkpt lat="43.6215877" lon="10.6470755"><ele>21.200000000000003</ele><time>2026-04-27T12:03:18.347Z</time></trkpt><trkpt lat="43.6215215" lon="10.6469669"><ele>21.0</ele><time>2026-04-27T12:03:20.346Z</time></trkpt><trkpt lat="43.6214541" lon="10.6468601"><ele>21.0</ele><time>2026-04-27T12:03:22.345Z</time></trkpt><trkpt lat="43.621388" lon="10.6467481"><ele>21.0</ele><time>2026-04-27T12:03:24.355Z</time></trkpt><trkpt lat="43.6213217" lon="10.6466396"><ele>21.0</ele><time>2026-04-27T12:03:26.34Z</time></trkpt><trkpt lat="43.6212574" lon="10.6465338"><ele>21.0</ele><time>2026-04-27T12:03:28.342Z</time></trkpt><trkpt lat="43.6211931" lon="10.6464286"><ele>21.0</ele><time>2026-04-27T12:03:30.351Z</time></trkpt><trkpt lat="43.6211285" lon="10.6463252"><ele>21.0</ele><time>2026-04-27T12:03:32.344Z</time></trkpt><trkpt lat="43.6210588" lon="10.6462206"><ele>21.0</ele><time>2026-04-27T12:03:34.353Z</time></trkpt><trkpt lat="43.6209814" lon="10.646125"><ele>21.0</ele><time>2026-04-27T12:03:36.347Z</time></trkpt><trkpt lat="43.6208989" lon="10.6460468"><ele>21.0</ele><time>2026-04-27T12:03:38.342Z</time></trkpt><trkpt lat="43.6208179" lon="10.6459818"><ele>21.0</ele><time>2026-04-27T12:03:40.342Z</time></trkpt><trkpt lat="43.6207381" lon="10.6459185"><ele>21.0</ele><time>2026-04-27T12:03:42.345Z</time></trkpt><trkpt lat="43.6206569" lon="10.6458547"><ele>21.0</ele><time>2026-04-27T12:03:44.355Z</time></trkpt><trkpt lat="43.6205724" lon="10.6458004"><ele>21.0</ele><time>2026-04-27T12:03:46.348Z</time></trkpt><trkpt lat="43.6204876" lon="10.6457523"><ele>21.0</ele><time>2026-04-27T12:03:48.342Z</time></trkpt><trkpt lat="43.6204021" lon="10.645699"><ele>21.0</ele><time>2026-04-27T12:03:50.343Z</time></trkpt><trkpt lat="43.6203174" lon="10.6456412"><ele>21.200000000000003</ele><time>2026-04-27T12:03:52.345Z</time></trkpt><trkpt lat="43.6202322" lon="10.6455857"><ele>21.400000000000002</ele><time>2026-04-27T12:03:54.359Z</time></trkpt><trkpt lat="43.6201451" lon="10.6455289"><ele>21.6</ele><time>2026-04-27T12:03:56.341Z</time></trkpt><trkpt lat="43.6200543" lon="10.6454768"><ele>21.8</ele><time>2026-04-27T12:03:58.344Z</time></trkpt><trkpt lat="43.6199617" lon="10.6454466"><ele>22.0</ele><time>2026-04-27T12:04:00.363Z</time></trkpt><trkpt lat="43.6198754" lon="10.6454045"><ele>22.0</ele><time>2026-04-27T12:04:02.347Z</time></trkpt><trkpt lat="43.6197924" lon="10.6453546"><ele>22.0</ele><time>2026-04-27T12:04:04.355Z</time></trkpt><trkpt lat="43.6197121" lon="10.6452868"><ele>22.0</ele><time>2026-04-27T12:04:06.361Z</time></trkpt><trkpt lat="43.6196468" lon="10.6451843"><ele>22.0</ele><time>2026-04-27T12:04:08.346Z</time></trkpt><trkpt lat="43.6195987" lon="10.6450937"><ele>22.0</ele><time>2026-04-27T12:04:10.361Z</time></trkpt><trkpt lat="43.6195578" lon="10.6449796"><ele>22.0</ele><time>2026-04-27T12:04:13.352Z</time></trkpt><trkpt lat="43.6195452" lon="10.6448569"><ele>22.0</ele><time>2026-04-27T12:04:15.342Z</time></trkpt><trkpt lat="43.6195307" lon="10.644696"><ele>22.0</ele><time>2026-04-27T12:04:17.339Z</time></trkpt><trkpt lat="43.6195194" lon="10.6446077"><ele>22.0</ele><time>2026-04-27T12:04:18.338Z</time></trkpt><trkpt lat="43.6195052" lon="10.6445129"><ele>22.0</ele><time>2026-04-27T12:04:19.334Z</time></trkpt><trkpt lat="43.6194924" lon="10.6444124"><ele>22.0</ele><time>2026-04-27T12:04:20.336Z</time></trkpt><trkpt lat="43.6194731" lon="10.6443092"><ele>22.0</ele><time>2026-04-27T12:04:21.332Z</time></trkpt><trkpt lat="43.6194474" lon="10.6442124"><ele>22.0</ele><time>2026-04-27T12:04:22.33Z</time></trkpt><trkpt lat="43.6194144" lon="10.6441258"><ele>22.0</ele><time>2026-04-27T12:04:23.335Z</time></trkpt><trkpt lat="43.6193725" lon="10.6440479"><ele>22.0</ele><time>2026-04-27T12:04:24.347Z</time></trkpt><trkpt lat="43.6193276" lon="10.6439791"><ele>22.0</ele><time>2026-04-27T12:04:25.33Z</time></trkpt><trkpt lat="43.6192735" lon="10.6439224"><ele>22.0</ele><time>2026-04-27T12:04:26.33Z</time></trkpt><trkpt lat="43.6192116" lon="10.6438781"><ele>22.0</ele><time>2026-04-27T12:04:27.328Z</time></trkpt><trkpt lat="43.6191458" lon="10.6438391"><ele>22.0</ele><time>2026-04-27T12:04:28.329Z</time></trkpt><trkpt lat="43.6190756" lon="10.6438033"><ele>22.0</ele><time>2026-04-27T12:04:29.334Z</time></trkpt><trkpt lat="43.6190026" lon="10.6437707"><ele>22.0</ele><time>2026-04-27T12:04:30.351Z</time></trkpt><trkpt lat="43.6189292" lon="10.6437361"><ele>22.0</ele><time>2026-04-27T12:04:31.341Z</time></trkpt><trkpt lat="43.6188592" lon="10.6437031"><ele>22.0</ele><time>2026-04-27T12:04:32.343Z</time></trkpt><trkpt lat="43.6187902" lon="10.6436716"><ele>22.0</ele><time>2026-04-27T12:04:33.344Z</time></trkpt><trkpt lat="43.6187193" lon="10.6436403"><ele>22.0</ele><time>2026-04-27T12:04:34.355Z</time></trkpt><trkpt lat="43.6186489" lon="10.6436058"><ele>22.0</ele><time>2026-04-27T12:04:35.339Z</time></trkpt><trkpt lat="43.6185798" lon="10.6435694"><ele>22.0</ele><time>2026-04-27T12:04:36.349Z</time></trkpt><trkpt lat="43.61851" lon="10.6435217"><ele>22.0</ele><time>2026-04-27T12:04:37.345Z</time></trkpt><trkpt lat="43.6184495" lon="10.6434593"><ele>22.0</ele><time>2026-04-27T12:04:38.35Z</time></trkpt><trkpt lat="43.6184276" lon="10.6433512"><ele>22.0</ele><time>2026-04-27T12:04:39.348Z</time></trkpt><trkpt lat="43.6184505" lon="10.6432247"><ele>22.0</ele><time>2026-04-27T12:04:40.341Z</time></trkpt><trkpt lat="43.6184781" lon="10.6431051"><ele>22.0</ele><time>2026-04-27T12:04:41.351Z</time></trkpt><trkpt lat="43.6185172" lon="10.6429986"><ele>22.0</ele><time>2026-04-27T12:04:42.333Z</time></trkpt><trkpt lat="43.6185601" lon="10.6429027"><ele>22.0</ele><time>2026-04-27T12:04:43.334Z</time></trkpt><trkpt lat="43.6186041" lon="10.6428101"><ele>22.0</ele><time>2026-04-27T12:04:44.334Z</time></trkpt><trkpt lat="43.6186559" lon="10.6427267"><ele>22.0</ele><time>2026-04-27T12:04:45.33Z</time></trkpt><trkpt lat="43.6187133" lon="10.6426532"><ele>22.0</ele><time>2026-04-27T12:04:46.335Z</time></trkpt><trkpt lat="43.6187689" lon="10.6425857"><ele>22.0</ele><time>2026-04-27T12:04:47.333Z</time></trkpt><trkpt lat="43.6188226" lon="10.6425193"><ele>22.0</ele><time>2026-04-27T12:04:48.335Z</time></trkpt><trkpt lat="43.6188698" lon="10.6424509"><ele>22.0</ele><time>2026-04-27T12:04:49.338Z</time></trkpt><trkpt lat="43.6189153" lon="10.6423814"><ele>22.0</ele><time>2026-04-27T12:04:50.338Z</time></trkpt><trkpt lat="43.6189586" lon="10.6423118"><ele>22.0</ele><time>2026-04-27T12:04:51.335Z</time></trkpt><trkpt lat="43.6190284" lon="10.6421684"><ele>22.0</ele><time>2026-04-27T12:04:53.334Z</time></trkpt><trkpt lat="43.6190691" lon="10.6420128"><ele>22.0</ele><time>2026-04-27T12:04:55.323Z</time></trkpt><trkpt lat="43.6190716" lon="10.6418476"><ele>22.0</ele><time>2026-04-27T12:04:57.334Z</time></trkpt><trkpt lat="43.6190707" lon="10.6417594"><ele>22.0</ele><time>2026-04-27T12:04:58.327Z</time></trkpt><trkpt lat="43.6190692" lon="10.641599"><ele>22.0</ele><time>2026-04-27T12:05:00.336Z</time></trkpt><trkpt lat="43.6190728" lon="10.6414465"><ele>22.25</ele><time>2026-04-27T12:05:02.326Z</time></trkpt><trkpt lat="43.6190789" lon="10.6412932"><ele>22.5</ele><time>2026-04-27T12:05:04.327Z</time></trkpt><trkpt lat="43.619087" lon="10.6411393"><ele>22.75</ele><time>2026-04-27T12:05:06.326Z</time></trkpt><trkpt lat="43.6190904" lon="10.6409853"><ele>23.0</ele><time>2026-04-27T12:05:08.32Z</time></trkpt><trkpt lat="43.6190932" lon="10.6408253"><ele>23.2</ele><time>2026-04-27T12:05:10.321Z</time></trkpt><trkpt lat="43.6190891" lon="10.6406827"><ele>23.4</ele><time>2026-04-27T12:05:12.321Z</time></trkpt><trkpt lat="43.6190861" lon="10.6405435"><ele>23.599999999999998</ele><time>2026-04-27T12:05:14.327Z</time></trkpt><trkpt lat="43.6190905" lon="10.6403907"><ele>23.799999999999997</ele><time>2026-04-27T12:05:16.324Z</time></trkpt><trkpt lat="43.6190935" lon="10.6402394"><ele>24.0</ele><time>2026-04-27T12:05:18.337Z</time></trkpt><trkpt lat="43.6190974" lon="10.6400893"><ele>24.2</ele><time>2026-04-27T12:05:20.331Z</time></trkpt><trkpt lat="43.619106" lon="10.6399466"><ele>24.4</ele><time>2026-04-27T12:05:22.33Z</time></trkpt><trkpt lat="43.6191107" lon="10.6397978"><ele>24.6</ele><time>2026-04-27T12:05:24.326Z</time></trkpt><trkpt lat="43.6191125" lon="10.6396471"><ele>24.8</ele><time>2026-04-27T12:05:26.336Z</time></trkpt><trkpt lat="43.6191179" lon="10.639506"><ele>25.0</ele><time>2026-04-27T12:05:28.329Z</time></trkpt><trkpt lat="43.6191243" lon="10.6393683"><ele>25.0</ele><time>2026-04-27T12:05:30.352Z</time></trkpt><trkpt lat="43.6191316" lon="10.639224"><ele>25.0</ele><time>2026-04-27T12:05:32.335Z</time></trkpt><trkpt lat="43.6191256" lon="10.6390796"><ele>25.0</ele><time>2026-04-27T12:05:34.338Z</time></trkpt><trkpt lat="43.6191327" lon="10.638937"><ele>25.0</ele><time>2026-04-27T12:05:36.331Z</time></trkpt><trkpt lat="43.6191379" lon="10.6387989"><ele>25.0</ele><time>2026-04-27T12:05:38.334Z</time></trkpt><trkpt lat="43.6191371" lon="10.6386622"><ele>24.6</ele><time>2026-04-27T12:05:40.328Z</time></trkpt><trkpt lat="43.6191286" lon="10.6385293"><ele>24.2</ele><time>2026-04-27T12:05:42.33Z</time></trkpt><trkpt lat="43.6191216" lon="10.6383946"><ele>23.799999999999997</ele><time>2026-04-27T12:05:44.324Z</time></trkpt><trkpt lat="43.6191257" lon="10.6382487"><ele>23.4</ele><time>2026-04-27T12:05:46.325Z</time></trkpt><trkpt lat="43.6191341" lon="10.6381109"><ele>23.0</ele><time>2026-04-27T12:05:48.336Z</time></trkpt><trkpt lat="43.6191447" lon="10.637967"><ele>23.0</ele><time>2026-04-27T12:05:50.326Z</time></trkpt><trkpt lat="43.6191547" lon="10.6378243"><ele>23.0</ele><time>2026-04-27T12:05:52.33Z</time></trkpt><trkpt lat="43.6191618" lon="10.6376963"><ele>23.0</ele><time>2026-04-27T12:05:54.338Z</time></trkpt><trkpt lat="43.6191711" lon="10.6375594"><ele>23.0</ele><time>2026-04-27T12:05:56.326Z</time></trkpt><trkpt lat="43.6191813" lon="10.6374218"><ele>23.0</ele><time>2026-04-27T12:05:58.322Z</time></trkpt><trkpt lat="43.6191838" lon="10.6372949"><ele>23.333333333333336</ele><time>2026-04-27T12:06:00.393Z</time></trkpt><trkpt lat="43.6191872" lon="10.637171"><ele>23.666666666666668</ele><time>2026-04-27T12:06:02.334Z</time></trkpt><trkpt lat="43.6191918" lon="10.6370502"><ele>24.0</ele><time>2026-04-27T12:06:04.33Z</time></trkpt><trkpt lat="43.6191911" lon="10.6369279"><ele>24.333333333333336</ele><time>2026-04-27T12:06:06.341Z</time></trkpt><trkpt lat="43.619181" lon="10.6368107"><ele>24.666666666666668</ele><time>2026-04-27T12:06:08.331Z</time></trkpt><trkpt lat="43.6191764" lon="10.6366758"><ele>25.0</ele><time>2026-04-27T12:06:10.327Z</time></trkpt><trkpt lat="43.6191802" lon="10.6365403"><ele>25.0</ele><time>2026-04-27T12:06:12.331Z</time></trkpt><trkpt lat="43.6191851" lon="10.636408"><ele>25.0</ele><time>2026-04-27T12:06:14.328Z</time></trkpt><trkpt lat="43.6191818" lon="10.6362785"><ele>25.0</ele><time>2026-04-27T12:06:16.325Z</time></trkpt><trkpt lat="43.6191805" lon="10.6361399"><ele>25.0</ele><time>2026-04-27T12:06:18.325Z</time></trkpt><trkpt lat="43.619179" lon="10.6359996"><ele>25.0</ele><time>2026-04-27T12:06:20.313Z</time></trkpt><trkpt lat="43.6191814" lon="10.6358724"><ele>24.8</ele><time>2026-04-27T12:06:22.32Z</time></trkpt><trkpt lat="43.6191873" lon="10.6357394"><ele>24.6</ele><time>2026-04-27T12:06:24.325Z</time></trkpt><trkpt lat="43.6191948" lon="10.6356126"><ele>24.4</ele><time>2026-04-27T12:06:26.332Z</time></trkpt><trkpt lat="43.6192014" lon="10.6354898"><ele>24.2</ele><time>2026-04-27T12:06:28.32Z</time></trkpt><trkpt lat="43.6192093" lon="10.6353665"><ele>24.0</ele><time>2026-04-27T12:06:30.332Z</time></trkpt><trkpt lat="43.6192142" lon="10.6352438"><ele>24.0</ele><time>2026-04-27T12:06:32.332Z</time></trkpt><trkpt lat="43.6192098" lon="10.6351145"><ele>24.0</ele><time>2026-04-27T12:06:34.34Z</time></trkpt><trkpt lat="43.6192092" lon="10.6349827"><ele>24.0</ele><time>2026-04-27T12:06:36.33Z</time></trkpt><trkpt lat="43.6192112" lon="10.6348635"><ele>24.0</ele><time>2026-04-27T12:06:38.327Z</time></trkpt><trkpt lat="43.6192424" lon="10.6347559"><ele>24.0</ele><time>2026-04-27T12:06:40.333Z</time></trkpt><trkpt lat="43.6193039" lon="10.63465"><ele>24.0</ele><time>2026-04-27T12:06:42.329Z</time></trkpt><trkpt lat="43.6193793" lon="10.6345567"><ele>24.0</ele><time>2026-04-27T12:06:44.336Z</time></trkpt><trkpt lat="43.619447" lon="10.6344694"><ele>24.0</ele><time>2026-04-27T12:06:46.323Z</time></trkpt><trkpt lat="43.6195217" lon="10.6343916"><ele>24.0</ele><time>2026-04-27T12:06:48.323Z</time></trkpt><trkpt lat="43.6195963" lon="10.6343109"><ele>24.0</ele><time>2026-04-27T12:06:50.322Z</time></trkpt><trkpt lat="43.6196589" lon="10.6342332"><ele>23.833333333333332</ele><time>2026-04-27T12:06:52.334Z</time></trkpt><trkpt lat="43.6197213" lon="10.6341579"><ele>23.666666666666668</ele><time>2026-04-27T12:06:54.336Z</time></trkpt><trkpt lat="43.6197632" lon="10.6340667"><ele>23.5</ele><time>2026-04-27T12:06:56.338Z</time></trkpt><trkpt lat="43.6197913" lon="10.633968"><ele>23.333333333333336</ele><time>2026-04-27T12:06:58.344Z</time></trkpt><trkpt lat="43.6198186" lon="10.6338616"><ele>23.166666666666668</ele><time>2026-04-27T12:07:00.349Z</time></trkpt><trkpt lat="43.6198497" lon="10.6337415"><ele>23.0</ele><time>2026-04-27T12:07:02.339Z</time></trkpt><trkpt lat="43.619884" lon="10.6336072"><ele>23.5</ele><time>2026-04-27T12:07:04.326Z</time></trkpt><trkpt lat="43.6199146" lon="10.6334908"><ele>24.0</ele><time>2026-04-27T12:07:06.322Z</time></trkpt><trkpt lat="43.6199344" lon="10.6334054"><ele>24.5</ele><time>2026-04-27T12:07:08.341Z</time></trkpt><trkpt lat="43.6199963" lon="10.6333807"><ele>25.0</ele><time>2026-04-27T12:07:11.328Z</time></trkpt><trkpt lat="43.6200984" lon="10.6334336"><ele>25.499999999999996</ele><time>2026-04-27T12:07:13.325Z</time></trkpt><trkpt lat="43.6201578" lon="10.6334714"><ele>26.0</ele><time>2026-04-27T12:07:14.326Z</time></trkpt><trkpt lat="43.6202753" lon="10.6334631"><ele>25.999999999999996</ele><time>2026-04-27T12:07:16.312Z</time></trkpt><trkpt lat="43.6202521" lon="10.6333488"><ele>26.0</ele><time>2026-04-27T12:07:19.322Z</time></trkpt><trkpt lat="43.6201867" lon="10.633315"><ele>26.0</ele><time>2026-04-27T12:07:21.33Z</time></trkpt><trkpt lat="43.6201132" lon="10.6332809"><ele>26.0</ele><time>2026-04-27T12:07:23.33Z</time></trkpt><trkpt lat="43.6200543" lon="10.633238"><ele>25.999999999999996</ele><time>2026-04-27T12:07:25.323Z</time></trkpt><trkpt lat="43.6200085" lon="10.6331186"><ele>26.0</ele><time>2026-04-27T12:07:28.314Z</time></trkpt><trkpt lat="43.6199918" lon="10.6330119"><ele>25.999999999999996</ele><time>2026-04-27T12:07:30.321Z</time></trkpt><trkpt lat="43.6200097" lon="10.6328961"><ele>26.0</ele><time>2026-04-27T12:07:32.313Z</time></trkpt><trkpt lat="43.6200432" lon="10.632775"><ele>26.0</ele><time>2026-04-27T12:07:34.31Z</time></trkpt><trkpt lat="43.6200773" lon="10.6326612"><ele>26.0</ele><time>2026-04-27T12:07:36.326Z</time></trkpt><trkpt lat="43.6201053" lon="10.6325695"><ele>25.999999999999996</ele><time>2026-04-27T12:07:38.312Z</time></trkpt><trkpt lat="43.6201416" lon="10.6324621"><ele>26.0</ele><time>2026-04-27T12:07:40.316Z</time></trkpt><trkpt lat="43.6201771" lon="10.6323653"><ele>26.166666666666664</ele><time>2026-04-27T12:07:42.32Z</time></trkpt><trkpt lat="43.6202096" lon="10.632269"><ele>26.333333333333332</ele><time>2026-04-27T12:07:44.315Z</time></trkpt><trkpt lat="43.6202397" lon="10.6321651"><ele>26.5</ele><time>2026-04-27T12:07:46.332Z</time></trkpt><trkpt lat="43.6202531" lon="10.6320581"><ele>26.666666666666664</ele><time>2026-04-27T12:07:48.318Z</time></trkpt><trkpt lat="43.6202789" lon="10.6319566"><ele>26.833333333333332</ele><time>2026-04-27T12:07:50.318Z</time></trkpt><trkpt lat="43.620304" lon="10.6318472"><ele>27.0</ele><time>2026-04-27T12:07:52.322Z</time></trkpt><trkpt lat="43.620322" lon="10.6317503"><ele>27.0</ele><time>2026-04-27T12:07:55.321Z</time></trkpt><trkpt lat="43.6203495" lon="10.6316678"><ele>27.0</ele><time>2026-04-27T12:08:04.322Z</time></trkpt><trkpt lat="43.6203861" lon="10.6315812"><ele>27.0</ele><time>2026-04-27T12:08:06.33Z</time></trkpt><trkpt lat="43.6204141" lon="10.6314909"><ele>27.0</ele><time>2026-04-27T12:08:08.316Z</time></trkpt><trkpt lat="43.6204412" lon="10.6313967"><ele>27.0</ele><time>2026-04-27T12:08:10.316Z</time></trkpt><trkpt lat="43.6204735" lon="10.6312967"><ele>27.0</ele><time>2026-04-27T12:08:12.321Z</time></trkpt><trkpt lat="43.6204994" lon="10.6312035"><ele>27.0</ele><time>2026-04-27T12:08:14.322Z</time></trkpt><trkpt lat="43.6205319" lon="10.6311174"><ele>26.714285714285715</ele><time>2026-04-27T12:08:16.329Z</time></trkpt><trkpt lat="43.62057" lon="10.6310428"><ele>26.428571428571427</ele><time>2026-04-27T12:08:18.33Z</time></trkpt><trkpt lat="43.6205893" lon="10.6309548"><ele>26.142857142857146</ele><time>2026-04-27T12:08:20.326Z</time></trkpt><trkpt lat="43.6206087" lon="10.6308625"><ele>25.857142857142858</ele><time>2026-04-27T12:08:22.329Z</time></trkpt><trkpt lat="43.6206325" lon="10.6307649"><ele>25.571428571428573</ele><time>2026-04-27T12:08:24.323Z</time></trkpt><trkpt lat="43.6206487" lon="10.63066"><ele>25.28571428571429</ele><time>2026-04-27T12:08:27.324Z</time></trkpt><trkpt lat="43.6205832" lon="10.6306334"><ele>25.0</ele><time>2026-04-27T12:08:30.328Z</time></trkpt><trkpt lat="43.6205126" lon="10.630588"><ele>25.0</ele><time>2026-04-27T12:08:32.32Z</time></trkpt><trkpt lat="43.6204309" lon="10.6305351"><ele>25.0</ele><time>2026-04-27T12:08:34.327Z</time></trkpt><trkpt lat="43.6203396" lon="10.6304825"><ele>25.0</ele><time>2026-04-27T12:08:36.328Z</time></trkpt><trkpt lat="43.6202412" lon="10.6304227"><ele>25.0</ele><time>2026-04-27T12:08:38.316Z</time></trkpt><trkpt lat="43.6201405" lon="10.6303597"><ele>25.0</ele><time>2026-04-27T12:08:40.318Z</time></trkpt><trkpt lat="43.6200379" lon="10.6303038"><ele>25.5</ele><time>2026-04-27T12:08:42.315Z</time></trkpt><trkpt lat="43.6199367" lon="10.6302395"><ele>26.0</ele><time>2026-04-27T12:08:44.324Z</time></trkpt><trkpt lat="43.6198335" lon="10.6301787"><ele>26.5</ele><time>2026-04-27T12:08:46.318Z</time></trkpt><trkpt lat="43.6197261" lon="10.6301152"><ele>27.0</ele><time>2026-04-27T12:08:48.326Z</time></trkpt><trkpt lat="43.619626" lon="10.630048"><ele>27.0</ele><time>2026-04-27T12:08:50.316Z</time></trkpt><trkpt lat="43.6195262" lon="10.6299831"><ele>27.0</ele><time>2026-04-27T12:08:52.328Z</time></trkpt><trkpt lat="43.6194227" lon="10.6299045"><ele>27.0</ele><time>2026-04-27T12:08:54.336Z</time></trkpt><trkpt lat="43.6193326" lon="10.6298176"><ele>27.0</ele><time>2026-04-27T12:08:56.322Z</time></trkpt><trkpt lat="43.6192368" lon="10.629728"><ele>26.6</ele><time>2026-04-27T12:08:58.325Z</time></trkpt><trkpt lat="43.6191436" lon="10.6296478"><ele>26.200000000000003</ele><time>2026-04-27T12:09:00.344Z</time></trkpt><trkpt lat="43.6190528" lon="10.6295644"><ele>25.8</ele><time>2026-04-27T12:09:02.323Z</time></trkpt><trkpt lat="43.6189666" lon="10.6294709"><ele>25.4</ele><time>2026-04-27T12:09:04.32Z</time></trkpt><trkpt lat="43.6188781" lon="10.6293739"><ele>25.0</ele><time>2026-04-27T12:09:06.329Z</time></trkpt><trkpt lat="43.6188097" lon="10.6292596"><ele>24.8</ele><time>2026-04-27T12:09:08.312Z</time></trkpt><trkpt lat="43.6187616" lon="10.629136"><ele>24.6</ele><time>2026-04-27T12:09:10.326Z</time></trkpt><trkpt lat="43.6187412" lon="10.6289991"><ele>24.4</ele><time>2026-04-27T12:09:12.333Z</time></trkpt><trkpt lat="43.6187194" lon="10.6288521"><ele>24.2</ele><time>2026-04-27T12:09:14.327Z</time></trkpt><trkpt lat="43.6186595" lon="10.6287408"><ele>24.0</ele><time>2026-04-27T12:09:16.338Z</time></trkpt><trkpt lat="43.6185894" lon="10.6286269"><ele>24.0</ele><time>2026-04-27T12:09:18.327Z</time></trkpt><trkpt lat="43.6185389" lon="10.6285007"><ele>24.0</ele><time>2026-04-27T12:09:20.325Z</time></trkpt><trkpt lat="43.618474" lon="10.6283883"><ele>24.0</ele><time>2026-04-27T12:09:22.332Z</time></trkpt><trkpt lat="43.6184022" lon="10.628289"><ele>24.0</ele><time>2026-04-27T12:09:24.326Z</time></trkpt><trkpt lat="43.6183141" lon="10.6281983"><ele>24.0</ele><time>2026-04-27T12:09:26.33Z</time></trkpt><trkpt lat="43.618222" lon="10.6281106"><ele>24.0</ele><time>2026-04-27T12:09:28.327Z</time></trkpt><trkpt lat="43.6181304" lon="10.6280433"><ele>24.0</ele><time>2026-04-27T12:09:30.337Z</time></trkpt><trkpt lat="43.6180384" lon="10.6279834"><ele>24.0</ele><time>2026-04-27T12:09:32.337Z</time></trkpt><trkpt lat="43.6179416" lon="10.6279106"><ele>24.0</ele><time>2026-04-27T12:09:34.34Z</time></trkpt><trkpt lat="43.6178514" lon="10.6278388"><ele>24.0</ele><time>2026-04-27T12:09:36.338Z</time></trkpt><trkpt lat="43.617761" lon="10.6277675"><ele>24.0</ele><time>2026-04-27T12:09:38.326Z</time></trkpt><trkpt lat="43.6176714" lon="10.6276894"><ele>24.0</ele><time>2026-04-27T12:09:40.331Z</time></trkpt><trkpt lat="43.6175759" lon="10.6276129"><ele>24.0</ele><time>2026-04-27T12:09:42.332Z</time></trkpt><trkpt lat="43.6174804" lon="10.6275253"><ele>24.0</ele><time>2026-04-27T12:09:44.329Z</time></trkpt><trkpt lat="43.6173824" lon="10.6274469"><ele>24.0</ele><time>2026-04-27T12:09:46.342Z</time></trkpt><trkpt lat="43.6172853" lon="10.6273711"><ele>24.0</ele><time>2026-04-27T12:09:48.346Z</time></trkpt><trkpt lat="43.6171854" lon="10.6273026"><ele>24.0</ele><time>2026-04-27T12:09:50.352Z</time></trkpt><trkpt lat="43.6170868" lon="10.6272376"><ele>24.0</ele><time>2026-04-27T12:09:52.335Z</time></trkpt><trkpt lat="43.6169912" lon="10.6271707"><ele>24.0</ele><time>2026-04-27T12:09:54.327Z</time></trkpt><trkpt lat="43.6169079" lon="10.6270834"><ele>24.0</ele><time>2026-04-27T12:09:56.33Z</time></trkpt><trkpt lat="43.6168222" lon="10.6269936"><ele>24.0</ele><time>2026-04-27T12:09:58.335Z</time></trkpt><trkpt lat="43.6167287" lon="10.6269107"><ele>24.0</ele><time>2026-04-27T12:10:00.348Z</time></trkpt><trkpt lat="43.6166337" lon="10.6268288"><ele>24.0</ele><time>2026-04-27T12:10:02.338Z</time></trkpt><trkpt lat="43.6165336" lon="10.6267503"><ele>24.0</ele><time>2026-04-27T12:10:04.351Z</time></trkpt><trkpt lat="43.6164385" lon="10.6266668"><ele>24.0</ele><time>2026-04-27T12:10:06.334Z</time></trkpt><trkpt lat="43.6163447" lon="10.626593"><ele>24.0</ele><time>2026-04-27T12:10:08.344Z</time></trkpt><trkpt lat="43.6162496" lon="10.6265149"><ele>24.0</ele><time>2026-04-27T12:10:10.345Z</time></trkpt><trkpt lat="43.6161584" lon="10.6264399"><ele>24.0</ele><time>2026-04-27T12:10:12.352Z</time></trkpt><trkpt lat="43.6160733" lon="10.6263638"><ele>24.0</ele><time>2026-04-27T12:10:14.35Z</time></trkpt><trkpt lat="43.6159894" lon="10.6262866"><ele>24.0</ele><time>2026-04-27T12:10:16.356Z</time></trkpt><trkpt lat="43.6159007" lon="10.6262142"><ele>24.0</ele><time>2026-04-27T12:10:18.34Z</time></trkpt><trkpt lat="43.6158202" lon="10.6261428"><ele>24.0</ele><time>2026-04-27T12:10:20.34Z</time></trkpt><trkpt lat="43.6157295" lon="10.6260743"><ele>24.0</ele><time>2026-04-27T12:10:22.335Z</time></trkpt><trkpt lat="43.6156542" lon="10.6260013"><ele>24.0</ele><time>2026-04-27T12:10:24.352Z</time></trkpt><trkpt lat="43.6155796" lon="10.6259193"><ele>24.0</ele><time>2026-04-27T12:10:26.34Z</time></trkpt><trkpt lat="43.6155003" lon="10.6258662"><ele>24.0</ele><time>2026-04-27T12:10:28.349Z</time></trkpt><trkpt lat="43.6154305" lon="10.6258208"><ele>24.0</ele><time>2026-04-27T12:10:30.365Z</time></trkpt><trkpt lat="43.615365" lon="10.6257675"><ele>24.0</ele><time>2026-04-27T12:10:32.353Z</time></trkpt><trkpt lat="43.6153107" lon="10.6257176"><ele>24.0</ele><time>2026-04-27T12:10:34.36Z</time></trkpt><trkpt lat="43.6152266" lon="10.6257282"><ele>24.0</ele><time>2026-04-27T12:10:37.33Z</time></trkpt><trkpt lat="43.615218" lon="10.6258328"><ele>24.0</ele><time>2026-04-27T12:10:39.334Z</time></trkpt><trkpt lat="43.6151727" lon="10.6259246"><ele>24.0</ele><time>2026-04-27T12:10:42.328Z</time></trkpt></trkseg></trk></gpx>